Darstellungsparameter: Aktuell verwendete Einstellungen:
Skalierung der Graphiken ... ?
xyx+y,   Skalierungsfaktor:      Skalierung: Modus: x, Faktor: 1
Darstellungszeitraum ... ?
Vom - - bis: - -   Zeitraum: 14.05.2020 - 12.06.2020
Min/Max/Avg-Anzeige ... ?
Zeige MMA aktuell
Zeige MMA Monat
Zeige MMA alles
Zeige --A aktuell
Zeige --A Monat
Zeige --A alles
Keine MMA-Anzeige
MMA:
Average (ber die Originaldaten)
MMA-Basis: 14.05.2020 - 12.06.2020
Quicknavigation für Darstellung... ?
Tage:      1T, 2T, 3T, 5T -1T -2T -3T -5T +1T +2T +3T +5T
Wochen: 1W, 2W, 3W -1W -2W -3W +1W +2W +3W
Monate: 1M, 3M, 6M -1M -3M -6M +1M +3M +6M
Jahre:    1J, 3J, 5J, 10J -1J -3J -5J -10J +1J +3J +5J +10J
Nutze für die Darstellung ... ?
Originaldaten oder Mittelwerte auf ...
Stundenbasis Tagesbasis Wochenbasis
Monatsbasis Jahresbasis      Datenbasis: Original-Daten
Darstellen als:
Statistik (Auto) Statistik J:M      Darstellung:
Zur Graphik,    zurück zur Übersicht aller Sensoren.
 
Tabellarische Datenbersicht: ?
 
Sensor: Nr:Datum:Temp:Feuchte:
Aussen-T/F 1 14-05-2020 00:04:17 7.7 C 35 %
2 14-05-2020 00:14:17 7.3 C 35 %
3 14-05-2020 00:24:17 7.3 C 35 %
4 14-05-2020 00:34:18 7.1 C 35 %
5 14-05-2020 00:44:18 7.1 C 35 %
6 14-05-2020 00:54:17 7 C 35 %
7 14-05-2020 01:04:17 6.9 C 35 %
8 14-05-2020 01:14:17 6.7 C 35 %
9 14-05-2020 01:24:18 6.6 C 36 %
10 14-05-2020 01:34:18 6.1 C 36 %
11 14-05-2020 01:44:18 5.7 C 38 %
12 14-05-2020 01:54:17 5.3 C 38 %
13 14-05-2020 02:04:18 5 C 39 %
14 14-05-2020 02:14:18 5.2 C 39 %
15 14-05-2020 02:24:17 6.2 C 37 %
16 14-05-2020 02:34:17 5.9 C 38 %
17 14-05-2020 02:44:18 5.5 C 38 %
18 14-05-2020 02:54:17 5.8 C 38 %
19 14-05-2020 03:04:18 5.6 C 38 %
20 14-05-2020 03:14:18 5.9 C 38 %
21 14-05-2020 03:24:18 5.5 C 38 %
22 14-05-2020 03:34:17 5.6 C 39 %
23 14-05-2020 03:44:17 5.8 C 38 %
24 14-05-2020 03:54:17 6 C 37 %
25 14-05-2020 04:04:18 6.2 C 37 %
Sensor: Nr:Datum:Temp:Feuchte:
Aussen-T/F 26 14-05-2020 04:14:18 5.8 C 38 %
27 14-05-2020 04:24:17 5.4 C 38 %
28 14-05-2020 04:34:18 5.2 C 39 %
29 14-05-2020 04:44:18 5.1 C 39 %
30 14-05-2020 04:54:18 5.2 C 38 %
31 14-05-2020 05:04:17 5 C 39 %
32 14-05-2020 05:14:17 5.2 C 38 %
33 14-05-2020 05:24:17 5.3 C 38 %
34 14-05-2020 05:34:17 5.4 C 38 %
35 14-05-2020 05:44:17 5.4 C 38 %
36 14-05-2020 05:54:18 5.1 C 39 %
37 14-05-2020 06:04:18 4.9 C 40 %
38 14-05-2020 06:14:18 4.1 C 41 %
39 14-05-2020 06:24:17 3.9 C 43 %
40 14-05-2020 06:34:18 3.7 C 43 %
41 14-05-2020 06:44:18 3.9 C 43 %
42 14-05-2020 06:54:17 3.7 C 43 %
43 14-05-2020 07:04:17 3.9 C 43 %
44 14-05-2020 07:14:17 3.9 C 43 %
45 14-05-2020 07:24:18 4.1 C 42 %
46 14-05-2020 07:34:17 4.2 C 42 %
47 14-05-2020 07:44:17 4.8 C 41 %
48 14-05-2020 07:54:17 5.7 C 39 %
49 14-05-2020 08:04:18 5.8 C 38 %
50 14-05-2020 08:14:18 6 C 37 %
Sensor: Nr:Datum:Temp:Feuchte:
Aussen-T/F 51 14-05-2020 08:24:17 6.3 C 37 %
52 14-05-2020 08:34:17 6.4 C 37 %
53 14-05-2020 08:44:17 7.2 C 35 %
54 14-05-2020 08:54:18 7.6 C 35 %
55 14-05-2020 09:04:17 7.6 C 35 %
56 14-05-2020 09:14:17 7.9 C 34 %
57 14-05-2020 09:24:17 8.1 C 33 %
58 14-05-2020 09:34:17 8.2 C 33 %
59 14-05-2020 09:44:17 8.6 C 32 %
60 14-05-2020 09:54:17 8.7 C 32 %
61 14-05-2020 10:04:17 8.6 C 32 %
62 14-05-2020 10:14:17 9.2 C 31 %
63 14-05-2020 10:24:18 9.5 C 32 %
64 14-05-2020 10:34:17 10 C 30 %
65 14-05-2020 10:44:17 10.6 C 30 %
66 14-05-2020 10:54:17 11 C 28 %
67 14-05-2020 11:04:17 11.1 C 27 %
68 14-05-2020 11:14:18 11.5 C 27 %
69 14-05-2020 11:24:17 12 C 26 %
70 14-05-2020 11:34:18 12.4 C 26 %
71 14-05-2020 11:44:18 12.2 C 25 %
72 14-05-2020 11:54:17 12.8 C 25 %
73 14-05-2020 12:04:17 13 C 25 %
74 14-05-2020 12:14:17 13.3 C 25 %
75 14-05-2020 12:24:17 13.3 C 22 %
Sensor: Nr:Datum:Temp:Feuchte:
Aussen-T/F 76 14-05-2020 12:34:18 12.9 C 23 %
77 14-05-2020 12:44:18 13.5 C 22 %
78 14-05-2020 12:54:18 13.7 C 20 %
79 14-05-2020 13:04:18 13.6 C 20 %
80 14-05-2020 13:14:18 14.4 C 20 %
81 14-05-2020 13:24:17 14 C 20 %
82 14-05-2020 13:34:17 13.9 C 20 %
83 14-05-2020 13:44:18 15.6 C 20 %
84 14-05-2020 13:54:17 15.5 C 20 %
85 14-05-2020 14:04:17 14.7 C 20 %
86 14-05-2020 14:14:17 15.1 C 20 %
87 14-05-2020 14:24:17 16.1 C 20 %
88 14-05-2020 14:34:18 16.3 C 20 %
89 14-05-2020 14:44:18 16.2 C 20 %
90 14-05-2020 14:54:17 15.1 C 20 %
91 14-05-2020 15:04:17 14.8 C 20 %
92 14-05-2020 15:14:17 15.1 C 20 %
93 14-05-2020 15:24:17 15.2 C 20 %
94 14-05-2020 15:34:17 16.4 C 20 %
95 14-05-2020 15:44:17 16.2 C 20 %
96 14-05-2020 15:54:17 15.4 C 20 %
97 14-05-2020 16:04:17 16.1 C 20 %
98 14-05-2020 16:14:17 18.7 C 20 %
99 14-05-2020 16:24:17 16.4 C 20 %
100 14-05-2020 16:34:17 16.5 C 20 %
Sensor: Nr:Datum:Temp:Feuchte:
Aussen-T/F 101 14-05-2020 16:44:18 15 C 20 %
102 14-05-2020 16:54:17 14.6 C 20 %
103 14-05-2020 17:04:17 14.7 C 20 %
104 14-05-2020 17:14:18 16.2 C 20 %
105 14-05-2020 17:24:17 15.2 C 20 %
106 14-05-2020 17:34:17 14.6 C 20 %
107 14-05-2020 17:44:17 14.6 C 20 %
108 14-05-2020 17:54:17 14.6 C 20 %
109 14-05-2020 18:04:18 15 C 20 %
110 14-05-2020 18:14:18 15.4 C 20 %
111 14-05-2020 18:24:17 14.9 C 20 %
112 14-05-2020 18:34:17 14.6 C 20 %
113 14-05-2020 18:44:17 14.7 C 20 %
114 14-05-2020 18:54:18 14.6 C 20 %
115 14-05-2020 19:04:17 14.5 C 20 %
116 14-05-2020 19:14:17 14.7 C 20 %
117 14-05-2020 19:24:17 14.5 C 20 %
118 14-05-2020 19:34:17 14 C 20 %
119 14-05-2020 19:44:17 13.3 C 20 %
120 14-05-2020 19:54:18 12.9 C 20 %
121 14-05-2020 20:04:18 12.2 C 20 %
122 14-05-2020 20:14:18 11.8 C 20 %
123 14-05-2020 20:24:17 11.2 C 21 %
124 14-05-2020 20:34:18 10.7 C 20 %
125 14-05-2020 20:44:18 10.4 C 22 %
Sensor: Nr:Datum:Temp:Feuchte:
Aussen-T/F 126 14-05-2020 20:54:17 10.1 C 23 %
127 14-05-2020 21:04:17 9.5 C 25 %
128 14-05-2020 21:14:17 9.3 C 25 %
129 14-05-2020 21:24:18 8.9 C 27 %
130 14-05-2020 21:34:18 8.7 C 27 %
131 14-05-2020 21:44:18 8.6 C 27 %
132 14-05-2020 21:54:18 8.4 C 27 %
133 14-05-2020 22:04:18 7.9 C 28 %
134 14-05-2020 22:14:18 8 C 28 %
135 14-05-2020 22:24:18 7.6 C 29 %
136 14-05-2020 22:34:17 7.5 C 29 %
137 14-05-2020 22:44:17 7.1 C 30 %
138 14-05-2020 22:54:18 7.3 C 29 %
139 14-05-2020 23:04:18 7.3 C 29 %
140 14-05-2020 23:14:18 7.2 C 29 %
141 14-05-2020 23:24:18 7 C 30 %
142 14-05-2020 23:34:17 6.9 C 30 %
143 14-05-2020 23:44:17 6.5 C 31 %
144 14-05-2020 23:54:17 6.8 C 31 %
145 15-05-2020 00:04:18 6.8 C 31 %
146 15-05-2020 00:14:18 6.4 C 31 %
147 15-05-2020 00:24:17 5.6 C 34 %
148 15-05-2020 00:34:18 4.9 C 36 %
149 15-05-2020 00:44:18 4.8 C 36 %
150 15-05-2020 00:54:18 5.2 C 35 %
Sensor: Nr:Datum:Temp:Feuchte:
Aussen-T/F 151 15-05-2020 01:04:17 5.4 C 35 %
152 15-05-2020 01:14:17 5.2 C 35 %
153 15-05-2020 01:24:17 5.1 C 35 %
154 15-05-2020 01:34:18 5.3 C 35 %
155 15-05-2020 01:44:18 5.2 C 35 %
156 15-05-2020 01:54:17 5.2 C 35 %
157 15-05-2020 02:04:17 5.2 C 35 %
158 15-05-2020 02:14:17 4.9 C 35 %
159 15-05-2020 02:24:17 4.9 C 35 %
160 15-05-2020 02:34:17 4.7 C 35 %
161 15-05-2020 02:44:17 4.5 C 35 %
162 15-05-2020 02:54:17 4.1 C 36 %
163 15-05-2020 03:04:17 3.8 C 38 %
164 15-05-2020 03:14:17 3.5 C 38 %
165 15-05-2020 03:24:17 3.2 C 39 %
166 15-05-2020 03:34:17 3.1 C 39 %
167 15-05-2020 03:44:17 3.1 C 40 %
168 15-05-2020 03:54:17 3.3 C 39 %
169 15-05-2020 04:04:17 3.1 C 40 %
170 15-05-2020 04:14:17 2.9 C 40 %
171 15-05-2020 04:24:17 2.6 C 41 %
172 15-05-2020 04:34:18 2.3 C 41 %
173 15-05-2020 04:44:18 2.1 C 41 %
174 15-05-2020 04:54:17 2 C 42 %
175 15-05-2020 05:04:18 1.8 C 42 %
Sensor: Nr:Datum:Temp:Feuchte:
Aussen-T/F 176 15-05-2020 05:14:18 1.6 C 43 %
177 15-05-2020 05:24:18 1.6 C 44 %
178 15-05-2020 05:34:17 1.5 C 44 %
179 15-05-2020 05:44:17 1.5 C 45 %
180 15-05-2020 05:54:17 1.5 C 45 %
181 15-05-2020 06:04:17 1.4 C 45 %
182 15-05-2020 06:14:17 1.4 C 45 %
183 15-05-2020 06:24:17 1.4 C 45 %
184 15-05-2020 06:34:17 1.5 C 46 %
185 15-05-2020 06:44:17 1.5 C 46 %
186 15-05-2020 06:54:18 1.8 C 45 %
187 15-05-2020 07:04:17 2.2 C 45 %
188 15-05-2020 07:14:17 2.8 C 42 %
189 15-05-2020 07:24:17 3.2 C 41 %
190 15-05-2020 07:34:18 3.4 C 41 %
191 15-05-2020 07:44:18 3.8 C 40 %
192 15-05-2020 07:54:18 4 C 40 %
193 15-05-2020 08:04:18 4.1 C 40 %
194 15-05-2020 08:14:18 4.6 C 39 %
195 15-05-2020 08:24:18 4.8 C 39 %
196 15-05-2020 08:34:18 4.8 C 39 %
197 15-05-2020 08:44:18 5.9 C 37 %
198 15-05-2020 08:54:17 5.8 C 37 %
199 15-05-2020 09:04:18 6.5 C 36 %
200 15-05-2020 09:14:18 6.9 C 36 %
Sensor: Nr:Datum:Temp:Feuchte:
Aussen-T/F 201 15-05-2020 09:24:17 7.5 C 35 %
202 15-05-2020 09:34:18 8.8 C 32 %
203 15-05-2020 09:44:18 9.5 C 30 %
204 15-05-2020 09:54:18 10.1 C 29 %
205 15-05-2020 10:04:17 10.3 C 28 %
206 15-05-2020 10:14:18 10.8 C 28 %
207 15-05-2020 10:24:17 11.1 C 26 %
208 15-05-2020 10:34:17 11.2 C 26 %
209 15-05-2020 10:44:17 12.1 C 25 %
210 15-05-2020 10:54:18 12.9 C 25 %
211 15-05-2020 11:04:17 12.8 C 25 %
212 15-05-2020 11:14:17 13.1 C 20 %
213 15-05-2020 11:24:17 13.2 C 20 %
214 15-05-2020 11:34:17 13.8 C 20 %
215 15-05-2020 11:44:17 14 C 20 %
216 15-05-2020 11:54:17 14.6 C 20 %
217 15-05-2020 12:04:17 14.3 C 20 %
218 15-05-2020 12:14:17 14.7 C 20 %
219 15-05-2020 12:24:18 14.6 C 20 %
220 15-05-2020 12:34:17 14.8 C 20 %
221 15-05-2020 12:44:17 14.7 C 20 %
222 15-05-2020 12:54:17 15 C 20 %
223 15-05-2020 13:04:17 15.1 C 20 %
224 15-05-2020 13:14:17 15.2 C 20 %
225 15-05-2020 13:24:17 15.6 C 20 %
Sensor: Nr:Datum:Temp:Feuchte:
Aussen-T/F 226 15-05-2020 13:34:18 15.1 C 20 %
227 15-05-2020 13:44:18 16.3 C 20 %
228 15-05-2020 13:54:17 19.5 C 20 %
229 15-05-2020 14:04:17 23.4 C 20 %
230 15-05-2020 14:14:17 23.3 C 20 %
231 15-05-2020 14:24:17 23.8 C 20 %
232 15-05-2020 14:34:18 22.9 C 20 %
233 15-05-2020 14:44:18 23.1 C 20 %
234 15-05-2020 14:54:17 25.4 C 20 %
235 15-05-2020 15:04:17 26.3 C 20 %
236 15-05-2020 15:14:17 24.6 C 20 %
237 15-05-2020 15:24:18 24.5 C 20 %
238 15-05-2020 15:34:18 24.4 C 20 %
239 15-05-2020 15:44:18 24.2 C 20 %
240 15-05-2020 15:54:18 24.5 C 20 %
241 15-05-2020 16:04:18 24.5 C 20 %
242 15-05-2020 16:14:18 24.5 C 20 %
243 15-05-2020 16:24:18 22 C 20 %
244 15-05-2020 16:34:18 24 C 20 %
245 15-05-2020 16:44:18 25.1 C 20 %
246 15-05-2020 16:54:17 22.6 C 20 %
247 15-05-2020 17:04:17 22 C 20 %
248 15-05-2020 17:14:17 22.4 C 20 %
249 15-05-2020 17:24:17 25.2 C 20 %
250 15-05-2020 17:34:17 22.7 C 20 %
Sensor: Nr:Datum:Temp:Feuchte:
Aussen-T/F 251 15-05-2020 17:44:17 22.5 C 20 %
252 15-05-2020 17:54:17 21.2 C 20 %
253 15-05-2020 18:04:17 21.1 C 20 %
254 15-05-2020 18:14:17 18.7 C 20 %
255 15-05-2020 18:24:17 17.7 C 20 %
256 15-05-2020 18:34:17 18.1 C 20 %
257 15-05-2020 18:44:18 17.7 C 20 %
258 15-05-2020 18:54:17 16.9 C 20 %
259 15-05-2020 19:04:17 16.8 C 20 %
260 15-05-2020 19:14:17 16.9 C 20 %
261 15-05-2020 19:24:17 16.8 C 20 %
262 15-05-2020 19:34:18 16.6 C 20 %
263 15-05-2020 19:44:18 16 C 20 %
264 15-05-2020 19:54:17 15.8 C 20 %
265 15-05-2020 20:04:18 15.6 C 20 %
266 15-05-2020 20:14:18 15.3 C 20 %
267 15-05-2020 20:24:17 15.1 C 20 %
268 15-05-2020 20:34:17 14.8 C 20 %
269 15-05-2020 20:44:17 14.2 C 20 %
270 15-05-2020 20:54:17 13.5 C 20 %
271 15-05-2020 21:04:17 12.1 C 20 %
272 15-05-2020 21:14:17 11.8 C 20 %
273 15-05-2020 21:24:17 10.9 C 20 %
274 15-05-2020 21:34:17 10.7 C 20 %
275 15-05-2020 21:44:17 10.4 C 20 %
Sensor: Nr:Datum:Temp:Feuchte:
Aussen-T/F 276 15-05-2020 21:54:17 11.6 C 20 %
277 15-05-2020 22:04:17 10.5 C 20 %
278 15-05-2020 22:14:17 9.9 C 25 %
279 15-05-2020 22:24:17 9.5 C 26 %
280 15-05-2020 22:34:18 9.2 C 26 %
281 15-05-2020 22:44:18 9 C 27 %
282 15-05-2020 22:54:18 9.1 C 27 %
283 15-05-2020 23:04:18 8.9 C 28 %
284 15-05-2020 23:14:18 9 C 28 %
285 15-05-2020 23:24:18 9.2 C 27 %
286 15-05-2020 23:34:17 8.5 C 29 %
287 15-05-2020 23:44:17 8.5 C 28 %
288 15-05-2020 23:54:17 8.4 C 28 %
289 16-05-2020 00:04:17 8 C 29 %
290 16-05-2020 00:14:17 8.2 C 28 %
291 16-05-2020 00:24:17 7.8 C 30 %
292 16-05-2020 00:34:18 7.5 C 30 %
293 16-05-2020 00:44:18 7.1 C 31 %
294 16-05-2020 00:54:17 6.5 C 33 %
295 16-05-2020 01:04:17 6 C 34 %
296 16-05-2020 01:14:17 5.6 C 35 %
297 16-05-2020 01:24:17 5.1 C 36 %
298 16-05-2020 01:34:17 4.8 C 37 %
299 16-05-2020 01:44:17 4.6 C 37 %
300 16-05-2020 01:54:17 4.4 C 38 %
Sensor: Nr:Datum:Temp:Feuchte:
Aussen-T/F 301 16-05-2020 02:04:17 4.3 C 38 %
302 16-05-2020 02:14:17 4.3 C 39 %
303 16-05-2020 02:24:18 4.1 C 39 %
304 16-05-2020 02:34:17 3.8 C 40 %
305 16-05-2020 02:44:17 3.7 C 40 %
306 16-05-2020 02:54:18 3.6 C 40 %
307 16-05-2020 03:04:17 3.5 C 41 %
308 16-05-2020 03:14:17 3.4 C 41 %
309 16-05-2020 03:24:18 3.2 C 41 %
310 16-05-2020 03:34:18 3.7 C 41 %
311 16-05-2020 03:44:18 3.2 C 42 %
312 16-05-2020 03:54:17 3.2 C 41 %
313 16-05-2020 04:04:17 3 C 42 %
314 16-05-2020 04:14:17 2.9 C 43 %
315 16-05-2020 04:24:17 2.7 C 43 %
316 16-05-2020 04:34:18 2.5 C 43 %
317 16-05-2020 04:44:18 2.6 C 44 %
318 16-05-2020 04:54:17 2.7 C 44 %
319 16-05-2020 05:04:17 2.4 C 44 %
320 16-05-2020 05:14:17 2.5 C 45 %
321 16-05-2020 05:24:17 2.5 C 44 %
322 16-05-2020 05:34:17 2.3 C 44 %
323 16-05-2020 05:44:17 2.1 C 44 %
324 16-05-2020 05:54:17 2.1 C 45 %
325 16-05-2020 06:04:17 2.3 C 45 %
Sensor: Nr:Datum:Temp:Feuchte:
Aussen-T/F 326 16-05-2020 06:14:17 2.2 C 45 %
327 16-05-2020 06:24:17 2.1 C 45 %
328 16-05-2020 06:34:18 2.2 C 45 %
329 16-05-2020 06:44:18 2.4 C 45 %
330 16-05-2020 06:54:18 2.4 C 45 %
331 16-05-2020 07:04:17 2.4 C 45 %
332 16-05-2020 07:14:17 2.7 C 45 %
333 16-05-2020 07:24:18 2.7 C 45 %
334 16-05-2020 07:34:17 3 C 44 %
335 16-05-2020 07:44:17 3.2 C 44 %
336 16-05-2020 07:54:17 3.4 C 43 %
337 16-05-2020 08:04:17 3.6 C 43 %
338 16-05-2020 08:14:17 4 C 42 %
339 16-05-2020 08:24:17 4.4 C 41 %
340 16-05-2020 08:34:17 4.6 C 41 %
341 16-05-2020 08:44:17 5.3 C 40 %
342 16-05-2020 08:54:17 5.7 C 40 %
343 16-05-2020 09:04:17 6.1 C 39 %
344 16-05-2020 09:14:17 6.6 C 38 %
345 16-05-2020 09:24:17 7.4 C 37 %
346 16-05-2020 09:34:17 8.1 C 36 %
347 16-05-2020 09:44:18 8.8 C 36 %
348 16-05-2020 09:54:17 9.6 C 35 %
349 16-05-2020 10:04:17 10.2 C 32 %
350 16-05-2020 10:14:17 10.8 C 32 %
Sensor: Nr:Datum:Temp:Feuchte:
Aussen-T/F 351 16-05-2020 10:24:17 11.7 C 31 %
352 16-05-2020 10:34:17 12.4 C 29 %
353 16-05-2020 10:44:17 13.1 C 21 %
354 16-05-2020 10:54:17 13.5 C 21 %
355 16-05-2020 11:04:17 14.2 C 20 %
356 16-05-2020 11:14:17 14.5 C 20 %
357 16-05-2020 11:24:17 14.7 C 20 %
358 16-05-2020 11:34:17 14.3 C 20 %
359 16-05-2020 11:44:17 15.5 C 20 %
360 16-05-2020 11:54:17 15.1 C 20 %
361 16-05-2020 12:04:18 15.6 C 20 %
362 16-05-2020 12:14:18 15.4 C 20 %
363 16-05-2020 12:24:17 14.8 C 20 %
364 16-05-2020 12:34:17 15.1 C 20 %
365 16-05-2020 12:44:17 15.1 C 20 %
366 16-05-2020 12:54:17 15.6 C 20 %
367 16-05-2020 13:04:18 15.5 C 20 %
368 16-05-2020 13:14:18 15.8 C 20 %
369 16-05-2020 13:24:17 16.5 C 20 %
370 16-05-2020 13:34:17 16.5 C 20 %
371 16-05-2020 13:44:17 17.3 C 20 %
372 16-05-2020 13:54:18 21.1 C 20 %
373 16-05-2020 14:04:18 21.6 C 20 %
374 16-05-2020 14:14:18 25.7 C 20 %
375 16-05-2020 14:24:17 25.2 C 20 %
Sensor: Nr:Datum:Temp:Feuchte:
Aussen-T/F 376 16-05-2020 14:34:17 25 C 20 %
377 16-05-2020 14:44:17 23.5 C 20 %
378 16-05-2020 14:54:17 23.9 C 20 %
379 16-05-2020 15:04:17 24.7 C 20 %
380 16-05-2020 15:14:17 24.6 C 20 %
381 16-05-2020 15:24:17 24.7 C 20 %
382 16-05-2020 15:34:17 22.4 C 20 %
383 16-05-2020 15:44:18 23.5 C 20 %
384 16-05-2020 15:54:18 24.6 C 20 %
385 16-05-2020 16:04:18 24.3 C 20 %
386 16-05-2020 16:14:18 26.8 C 20 %
387 16-05-2020 16:24:18 24.3 C 20 %
388 16-05-2020 16:34:17 22.9 C 20 %
389 16-05-2020 16:44:17 23.4 C 20 %
390 16-05-2020 16:54:17 21.3 C 20 %
391 16-05-2020 17:04:17 21.6 C 20 %
392 16-05-2020 17:14:17 20.7 C 20 %
393 16-05-2020 17:24:18 20.6 C 20 %
394 16-05-2020 17:34:17 20.7 C 20 %
395 16-05-2020 17:44:17 20.4 C 20 %
396 16-05-2020 17:54:17 20 C 20 %
397 16-05-2020 18:04:18 20.7 C 20 %
398 16-05-2020 18:14:18 20.9 C 20 %
399 16-05-2020 18:24:17 19.7 C 20 %
400 16-05-2020 18:34:17 20.7 C 20 %
Sensor: Nr:Datum:Temp:Feuchte:
Aussen-T/F 401 16-05-2020 18:44:17 20.1 C 20 %
402 16-05-2020 18:54:17 19 C 20 %
403 16-05-2020 19:04:17 18.7 C 20 %
404 16-05-2020 19:14:18 18.1 C 20 %
405 16-05-2020 19:24:17 18 C 20 %
406 16-05-2020 19:34:17 18.1 C 20 %
407 16-05-2020 19:44:17 17.9 C 20 %
408 16-05-2020 19:54:18 18.1 C 20 %
409 16-05-2020 20:04:17 17.7 C 20 %
410 16-05-2020 20:14:17 17.4 C 20 %
411 16-05-2020 20:24:18 17 C 20 %
412 16-05-2020 20:34:17 16.5 C 20 %
413 16-05-2020 20:44:17 16 C 20 %
414 16-05-2020 20:54:18 14.5 C 20 %
415 16-05-2020 21:04:18 13.7 C 23 %
416 16-05-2020 21:14:18 13.6 C 20 %
417 16-05-2020 21:24:18 13.8 C 20 %
418 16-05-2020 21:34:18 13.4 C 23 %
419 16-05-2020 21:44:18 13.2 C 23 %
420 16-05-2020 21:54:17 13.2 C 24 %
421 16-05-2020 22:04:17 13 C 23 %
422 16-05-2020 22:14:17 13 C 23 %
423 16-05-2020 22:24:17 12.7 C 25 %
424 16-05-2020 22:34:17 12.6 C 25 %
425 16-05-2020 22:44:17 12.6 C 25 %
Sensor: Nr:Datum:Temp:Feuchte:
Aussen-T/F 426 16-05-2020 22:54:17 12.3 C 25 %
427 16-05-2020 23:04:17 11.7 C 27 %
428 16-05-2020 23:14:17 12.2 C 26 %
429 16-05-2020 23:24:18 12.1 C 26 %
430 16-05-2020 23:34:18 11.8 C 27 %
431 16-05-2020 23:44:18 11 C 29 %
432 16-05-2020 23:54:17 11.2 C 29 %
433 17-05-2020 00:04:17 11.6 C 28 %
434 17-05-2020 00:14:17 10.7 C 30 %
435 17-05-2020 00:24:17 10.9 C 30 %
436 17-05-2020 00:34:18 10.7 C 30 %
437 17-05-2020 00:44:18 10 C 31 %
438 17-05-2020 00:54:17 9.8 C 32 %
439 17-05-2020 01:04:17 9.9 C 32 %
440 17-05-2020 01:14:17 9.5 C 33 %
441 17-05-2020 01:24:17 9.4 C 33 %
442 17-05-2020 01:34:18 9.3 C 33 %
443 17-05-2020 01:44:18 9 C 33 %
444 17-05-2020 01:54:17 8.8 C 35 %
445 17-05-2020 02:04:17 9 C 33 %
446 17-05-2020 02:14:17 9.2 C 33 %
447 17-05-2020 02:24:17 9.1 C 33 %
448 17-05-2020 02:34:18 9 C 34 %
449 17-05-2020 02:44:18 8.6 C 35 %
450 17-05-2020 02:54:17 8.5 C 35 %
Sensor: Nr:Datum:Temp:Feuchte:
Aussen-T/F 451 17-05-2020 03:04:17 8.2 C 36 %
452 17-05-2020 03:14:17 8.5 C 36 %
453 17-05-2020 03:24:17 8.3 C 36 %
454 17-05-2020 03:34:17 8.3 C 36 %
455 17-05-2020 03:44:18 8.5 C 36 %
456 17-05-2020 03:54:17 8.2 C 36 %
457 17-05-2020 04:04:17 8.2 C 36 %
458 17-05-2020 04:14:17 7.7 C 37 %
459 17-05-2020 04:24:17 7.8 C 38 %
460 17-05-2020 04:34:18 7.4 C 38 %
461 17-05-2020 04:44:18 7 C 39 %
462 17-05-2020 04:54:17 7.1 C 39 %
463 17-05-2020 05:04:17 6.8 C 40 %
464 17-05-2020 05:14:17 6.8 C 40 %
465 17-05-2020 05:24:17 6.8 C 40 %
466 17-05-2020 05:34:18 6.8 C 40 %
467 17-05-2020 05:44:18 6.4 C 40 %
468 17-05-2020 05:54:18 6.5 C 40 %
469 17-05-2020 06:04:17 6.4 C 40 %
470 17-05-2020 06:14:17 6.5 C 40 %
471 17-05-2020 06:24:17 6.3 C 40 %
472 17-05-2020 06:34:17 6.5 C 40 %
473 17-05-2020 06:44:17 6.7 C 40 %
474 17-05-2020 06:54:17 6.6 C 40 %
475 17-05-2020 07:04:17 6.5 C 40 %
Sensor: Nr:Datum:Temp:Feuchte:
Aussen-T/F 476 17-05-2020 07:14:17 6.5 C 40 %
477 17-05-2020 07:24:18 6.4 C 41 %
478 17-05-2020 07:34:17 6.6 C 41 %
479 17-05-2020 07:44:17 6.7 C 41 %
480 17-05-2020 07:54:17 6.8 C 40 %
481 17-05-2020 08:04:17 7.1 C 40 %
482 17-05-2020 08:14:17 7.1 C 40 %
483 17-05-2020 08:24:17 7.3 C 40 %
484 17-05-2020 08:34:17 7.5 C 40 %
485 17-05-2020 08:44:17 8.1 C 38 %
486 17-05-2020 08:54:17 9 C 37 %
487 17-05-2020 09:04:17 9.8 C 35 %
488 17-05-2020 09:14:17 10.4 C 35 %
489 17-05-2020 09:24:17 11.2 C 32 %
490 17-05-2020 09:34:17 12.5 C 31 %
491 17-05-2020 09:44:17 12 C 30 %
492 17-05-2020 09:54:17 12.2 C 29 %
493 17-05-2020 10:04:17 12.4 C 28 %
494 17-05-2020 10:14:17 13 C 27 %
495 17-05-2020 10:24:17 13.7 C 25 %
496 17-05-2020 10:34:18 13.9 C 26 %
497 17-05-2020 10:44:18 14.8 C 25 %
498 17-05-2020 10:54:17 14 C 25 %
499 17-05-2020 11:04:18 14.3 C 25 %
500 17-05-2020 11:14:18 14.1 C 25 %
Sensor: Nr:Datum:Temp:Feuchte:
Aussen-T/F 501 17-05-2020 11:24:17 14.2 C 25 %
502 17-05-2020 11:34:18 14.3 C 24 %
503 17-05-2020 11:44:18 14.3 C 25 %
504 17-05-2020 11:54:17 15 C 23 %
505 17-05-2020 12:04:18 14.7 C 23 %
506 17-05-2020 12:14:18 15.4 C 21 %
507 17-05-2020 12:24:17 15.4 C 20 %
508 17-05-2020 12:34:17 15.1 C 22 %
509 17-05-2020 12:44:17 15.1 C 21 %
510 17-05-2020 12:54:17 14.8 C 22 %
511 17-05-2020 13:04:17 15.3 C 21 %
512 17-05-2020 13:14:17 15.8 C 21 %
513 17-05-2020 13:24:17 16 C 20 %
514 17-05-2020 13:34:18 16.3 C 20 %
515 17-05-2020 13:44:18 17.1 C 20 %
516 17-05-2020 13:54:17 20.1 C 20 %
517 17-05-2020 14:04:17 23.5 C 20 %
518 17-05-2020 14:14:17 23.5 C 20 %
519 17-05-2020 14:24:17 22.3 C 20 %
520 17-05-2020 14:34:17 26.4 C 20 %
521 17-05-2020 14:44:17 27.4 C 20 %
522 17-05-2020 14:54:17 27.8 C 20 %
523 17-05-2020 15:04:18 24.2 C 20 %
524 17-05-2020 15:14:18 24.3 C 20 %
525 17-05-2020 15:24:18 24.6 C 20 %
Sensor: Nr:Datum:Temp:Feuchte:
Aussen-T/F 526 17-05-2020 15:34:18 25.9 C 20 %
527 17-05-2020 15:44:18 25.7 C 20 %
528 17-05-2020 15:54:17 24.2 C 20 %
529 17-05-2020 16:04:17 26.3 C 20 %
530 17-05-2020 16:14:17 24.6 C 20 %
531 17-05-2020 16:24:17 27.6 C 20 %
532 17-05-2020 16:34:17 24.8 C 20 %
533 17-05-2020 16:44:17 28.3 C 20 %
534 17-05-2020 16:54:18 27.9 C 20 %
535 17-05-2020 17:04:18 27 C 20 %
536 17-05-2020 17:14:18 28.4 C 20 %
537 17-05-2020 17:24:18 27.3 C 20 %
538 17-05-2020 17:34:18 27.7 C 20 %
539 17-05-2020 17:44:18 25.2 C 20 %
540 17-05-2020 17:54:17 26.2 C 20 %
541 17-05-2020 18:04:17 26.9 C 20 %
542 17-05-2020 18:14:18 24.1 C 20 %
543 17-05-2020 18:24:17 21 C 20 %
544 17-05-2020 18:34:17 20.5 C 20 %
545 17-05-2020 18:44:17 19.9 C 20 %
546 17-05-2020 18:54:17 19.5 C 20 %
547 17-05-2020 19:04:18 19.5 C 20 %
548 17-05-2020 19:14:18 19.5 C 20 %
549 17-05-2020 19:24:17 19.1 C 20 %
550 17-05-2020 19:34:17 19.1 C 20 %
Sensor: Nr:Datum:Temp:Feuchte:
Aussen-T/F 551 17-05-2020 19:44:17 18.7 C 20 %
552 17-05-2020 19:54:17 18.7 C 20 %
553 17-05-2020 20:04:18 18.6 C 20 %
554 17-05-2020 20:14:18 18.4 C 20 %
555 17-05-2020 20:24:17 18.1 C 20 %
556 17-05-2020 20:34:17 17.7 C 20 %
557 17-05-2020 20:44:17 17.2 C 20 %
558 17-05-2020 20:54:17 15.5 C 20 %
559 17-05-2020 21:04:17 15.1 C 20 %
560 17-05-2020 21:14:17 14.8 C 20 %
561 17-05-2020 21:24:17 14.4 C 20 %
562 17-05-2020 21:34:18 14.1 C 20 %
563 17-05-2020 21:44:18 13.8 C 21 %
564 17-05-2020 21:54:17 13.6 C 21 %
565 17-05-2020 22:04:17 13.5 C 21 %
566 17-05-2020 22:14:17 13.3 C 21 %
567 17-05-2020 22:24:17 12.9 C 25 %
568 17-05-2020 22:34:17 12.3 C 26 %
569 17-05-2020 22:44:17 11.8 C 28 %
570 17-05-2020 22:54:18 11 C 30 %
571 17-05-2020 23:04:17 10.6 C 31 %
572 17-05-2020 23:14:17 10.1 C 32 %
573 17-05-2020 23:24:17 9.9 C 33 %
574 17-05-2020 23:34:17 9.8 C 33 %
575 17-05-2020 23:44:17 9.5 C 34 %
Sensor: Nr:Datum:Temp:Feuchte:
Aussen-T/F 576 17-05-2020 23:54:17 9.1 C 35 %
577 18-05-2020 00:04:18 9 C 35 %
578 18-05-2020 00:14:18 9 C 35 %
579 18-05-2020 00:24:17 9 C 35 %
580 18-05-2020 00:34:18 8.6 C 35 %
581 18-05-2020 00:44:18 8.5 C 35 %
582 18-05-2020 00:54:17 8.5 C 36 %
583 18-05-2020 01:04:18 8.2 C 36 %
584 18-05-2020 01:14:18 8.3 C 36 %
585 18-05-2020 01:24:17 8.4 C 36 %
586 18-05-2020 01:34:17 8 C 36 %
587 18-05-2020 01:44:17 8 C 36 %
588 18-05-2020 01:54:18 8 C 36 %
589 18-05-2020 02:04:18 8 C 36 %
590 18-05-2020 02:14:18 7.6 C 37 %
591 18-05-2020 02:24:17 7.6 C 38 %
592 18-05-2020 02:34:17 7.7 C 38 %
593 18-05-2020 02:44:17 7.3 C 38 %
594 18-05-2020 02:54:17 7 C 38 %
595 18-05-2020 03:04:17 6.7 C 39 %
596 18-05-2020 03:14:17 6.5 C 40 %
597 18-05-2020 03:24:17 6.6 C 40 %
598 18-05-2020 03:34:17 6.9 C 40 %
599 18-05-2020 03:44:17 6.8 C 40 %
600 18-05-2020 03:54:17 6.5 C 40 %
Sensor: Nr:Datum:Temp:Feuchte:
Aussen-T/F 601 18-05-2020 04:04:17 6.5 C 40 %
602 18-05-2020 04:14:17 6.3 C 40 %
603 18-05-2020 04:24:17 6 C 40 %
604 18-05-2020 04:34:18 6.1 C 41 %
605 18-05-2020 04:44:18 5.8 C 41 %
606 18-05-2020 04:54:17 5.9 C 42 %
607 18-05-2020 05:04:17 5.9 C 42 %
608 18-05-2020 05:14:17 5.9 C 42 %
609 18-05-2020 05:24:17 5.6 C 42 %
610 18-05-2020 05:34:18 5.4 C 42 %
611 18-05-2020 05:44:18 5.4 C 42 %
612 18-05-2020 05:54:17 5.6 C 43 %
613 18-05-2020 06:04:18 5.6 C 42 %
614 18-05-2020 06:14:18 5.6 C 43 %
615 18-05-2020 06:24:17 5.7 C 43 %
616 18-05-2020 06:34:18 5.7 C 43 %
617 18-05-2020 06:44:18 6 C 42 %
618 18-05-2020 06:54:17 6.2 C 42 %
619 18-05-2020 07:04:17 6.3 C 42 %
620 18-05-2020 07:14:18 6.5 C 42 %
621 18-05-2020 07:24:18 6.6 C 42 %
622 18-05-2020 07:34:18 6.7 C 42 %
623 18-05-2020 07:44:18 7 C 41 %
624 18-05-2020 07:54:18 7.3 C 41 %
625 18-05-2020 08:04:17 7.7 C 41 %
Sensor: Nr:Datum:Temp:Feuchte:
Aussen-T/F 626 18-05-2020 08:14:17 8.1 C 40 %
627 18-05-2020 08:24:17 8.5 C 40 %
628 18-05-2020 08:34:18 9 C 38 %
629 18-05-2020 08:44:18 9.4 C 38 %
630 18-05-2020 08:54:17 10.2 C 37 %
631 18-05-2020 09:04:18 10.7 C 36 %
632 18-05-2020 09:14:18 11.3 C 35 %
633 18-05-2020 09:24:17 11.8 C 35 %
634 18-05-2020 09:34:17 11.9 C 35 %
635 18-05-2020 09:44:18 13.1 C 33 %
636 18-05-2020 09:54:17 13.7 C 32 %
637 18-05-2020 10:04:17 14 C 32 %
638 18-05-2020 10:14:17 14.4 C 32 %
639 18-05-2020 10:24:17 15.2 C 30 %
640 18-05-2020 10:34:17 16.5 C 28 %
641 18-05-2020 10:44:17 18.3 C 22 %
642 18-05-2020 10:54:17 19 C 20 %
643 18-05-2020 11:04:17 19.7 C 20 %
644 18-05-2020 11:14:17 19.7 C 20 %
645 18-05-2020 11:24:17 20 C 20 %
646 18-05-2020 11:34:17 20.4 C 20 %
647 18-05-2020 11:44:17 20.5 C 20 %
648 18-05-2020 11:54:18 20.9 C 20 %
649 18-05-2020 12:04:17 21.1 C 20 %
650 18-05-2020 12:14:18 21.2 C 20 %
Sensor: Nr:Datum:Temp:Feuchte:
Aussen-T/F 651 18-05-2020 12:24:17 21.2 C 20 %
652 18-05-2020 12:34:18 20.9 C 20 %
653 18-05-2020 12:44:18 21.3 C 20 %
654 18-05-2020 12:54:17 21.5 C 20 %
655 18-05-2020 13:04:17 21.5 C 20 %
656 18-05-2020 13:14:17 21.9 C 20 %
657 18-05-2020 13:24:17 22.1 C 20 %
658 18-05-2020 13:34:17 22.6 C 20 %
659 18-05-2020 13:44:17 23.4 C 20 %
660 18-05-2020 13:54:17 25.6 C 20 %
661 18-05-2020 14:04:18 26.3 C 20 %
662 18-05-2020 14:14:18 26.8 C 20 %
663 18-05-2020 14:24:17 28.1 C 20 %
664 18-05-2020 14:34:17 30.5 C 20 %
665 18-05-2020 14:44:17 29.3 C 20 %
666 18-05-2020 14:54:17 26.7 C 20 %
667 18-05-2020 15:04:18 27.7 C 20 %
668 18-05-2020 15:14:18 30.7 C 20 %
669 18-05-2020 15:24:17 31.6 C 20 %
670 18-05-2020 15:34:18 32.8 C 20 %
671 18-05-2020 15:44:18 32 C 20 %
672 18-05-2020 15:54:18 31.9 C 20 %
673 18-05-2020 16:04:18 31.6 C 20 %
674 18-05-2020 16:14:18 32.7 C 20 %
675 18-05-2020 16:24:18 32.5 C 20 %
Sensor: Nr:Datum:Temp:Feuchte:
Aussen-T/F 676 18-05-2020 16:34:18 32.5 C 20 %
677 18-05-2020 16:44:18 32 C 20 %
678 18-05-2020 16:54:17 30.6 C 20 %
679 18-05-2020 17:04:18 32.2 C 20 %
680 18-05-2020 17:14:18 31.2 C 20 %
681 18-05-2020 17:24:18 29.5 C 20 %
682 18-05-2020 17:34:17 30.2 C 20 %
683 18-05-2020 17:44:17 29.7 C 20 %
684 18-05-2020 17:54:18 29.7 C 20 %
685 18-05-2020 18:04:17 30.5 C 20 %
686 18-05-2020 18:14:17 30 C 20 %
687 18-05-2020 18:24:17 26.6 C 20 %
688 18-05-2020 18:34:17 26 C 20 %
689 18-05-2020 18:44:17 25.5 C 20 %
690 18-05-2020 18:54:17 25.5 C 20 %
691 18-05-2020 19:04:17 25.1 C 20 %
692 18-05-2020 19:14:17 24.9 C 20 %
693 18-05-2020 19:24:17 24.3 C 20 %
694 18-05-2020 19:34:17 24 C 20 %
695 18-05-2020 19:44:18 23.8 C 20 %
696 18-05-2020 19:54:17 23.5 C 20 %
697 18-05-2020 20:04:18 23.1 C 20 %
698 18-05-2020 20:14:18 22.9 C 20 %
699 18-05-2020 20:24:17 22.7 C 20 %
700 18-05-2020 20:34:17 22.5 C 20 %
Sensor: Nr:Datum:Temp:Feuchte:
Aussen-T/F 701 18-05-2020 20:44:17 22 C 20 %
702 18-05-2020 20:54:17 20.4 C 20 %
703 18-05-2020 21:04:17 20 C 20 %
704 18-05-2020 21:14:17 19.3 C 21 %
705 18-05-2020 21:24:17 18.9 C 22 %
706 18-05-2020 21:34:18 18.7 C 22 %
707 18-05-2020 21:44:18 18.3 C 22 %
708 18-05-2020 21:54:17 18 C 23 %
709 18-05-2020 22:04:17 17.8 C 25 %
710 18-05-2020 22:14:17 17.5 C 25 %
711 18-05-2020 22:24:17 17.4 C 25 %
712 18-05-2020 22:34:17 16.8 C 26 %
713 18-05-2020 22:44:17 16.2 C 27 %
714 18-05-2020 22:54:18 16.4 C 27 %
715 18-05-2020 23:04:18 16.3 C 27 %
716 18-05-2020 23:14:18 16 C 28 %
717 18-05-2020 23:24:18 15.5 C 29 %
718 18-05-2020 23:34:17 15 C 30 %
719 18-05-2020 23:44:17 15.3 C 30 %
720 18-05-2020 23:54:17 14.6 C 31 %
721 19-05-2020 00:04:17 14 C 32 %
722 19-05-2020 00:14:18 13.4 C 33 %
723 19-05-2020 00:24:17 12.9 C 35 %
724 19-05-2020 00:34:18 12.5 C 35 %
725 19-05-2020 00:44:18 12.4 C 35 %
Sensor: Nr:Datum:Temp:Feuchte:
Aussen-T/F 726 19-05-2020 00:54:17 12.2 C 35 %
727 19-05-2020 01:04:17 12 C 36 %
728 19-05-2020 01:14:17 11.9 C 37 %
729 19-05-2020 01:24:17 11.5 C 37 %
730 19-05-2020 01:34:17 11.5 C 38 %
731 19-05-2020 01:44:17 11.2 C 38 %
732 19-05-2020 01:54:17 11 C 37 %
733 19-05-2020 02:04:17 11.2 C 37 %
734 19-05-2020 02:14:17 10.9 C 38 %
735 19-05-2020 02:24:17 10.8 C 38 %
736 19-05-2020 02:34:17 10.2 C 39 %
737 19-05-2020 02:44:17 10 C 39 %
738 19-05-2020 02:54:18 9.7 C 40 %
739 19-05-2020 03:04:18 9.5 C 40 %
740 19-05-2020 03:14:18 9.3 C 41 %
741 19-05-2020 03:24:17 9.2 C 41 %
742 19-05-2020 03:34:17 9 C 41 %
743 19-05-2020 03:44:17 8.7 C 42 %
744 19-05-2020 03:54:17 8.5 C 42 %
745 19-05-2020 04:04:17 8.5 C 43 %
746 19-05-2020 04:14:17 8.6 C 42 %
747 19-05-2020 04:24:17 8.7 C 42 %
748 19-05-2020 04:34:17 8.6 C 42 %
749 19-05-2020 04:44:17 8.5 C 41 %
750 19-05-2020 04:54:17 8.3 C 41 %
Sensor: Nr:Datum:Temp:Feuchte:
Aussen-T/F 751 19-05-2020 05:04:17 8.3 C 41 %
752 19-05-2020 05:14:17 7.9 C 42 %
753 19-05-2020 05:24:17 7.9 C 42 %
754 19-05-2020 05:34:17 7.9 C 42 %
755 19-05-2020 05:44:17 7.8 C 42 %
756 19-05-2020 05:54:17 7.6 C 42 %
757 19-05-2020 06:04:18 7.6 C 42 %
758 19-05-2020 06:14:18 7.8 C 43 %
759 19-05-2020 06:24:17 7.9 C 43 %
760 19-05-2020 06:34:18 7.9 C 42 %
761 19-05-2020 06:44:18 7.8 C 42 %
762 19-05-2020 06:54:18 7.8 C 42 %
763 19-05-2020 07:04:18 8 C 42 %
764 19-05-2020 07:14:18 8.4 C 42 %
765 19-05-2020 07:24:18 8.3 C 41 %
766 19-05-2020 07:34:17 8.4 C 41 %
767 19-05-2020 07:44:17 8.6 C 41 %
768 19-05-2020 07:54:17 8.6 C 41 %
769 19-05-2020 08:04:17 9 C 41 %
770 19-05-2020 08:14:17 9.1 C 41 %
771 19-05-2020 08:24:17 9.6 C 40 %
772 19-05-2020 08:34:17 9.9 C 40 %
773 19-05-2020 08:44:17 10.3 C 39 %
774 19-05-2020 08:54:17 10.9 C 39 %
775 19-05-2020 09:04:17 11.3 C 37 %
Sensor: Nr:Datum:Temp:Feuchte:
Aussen-T/F 776 19-05-2020 09:14:17 12.2 C 36 %
777 19-05-2020 09:24:17 13 C 34 %
778 19-05-2020 09:34:17 13.7 C 34 %
779 19-05-2020 09:44:17 14.8 C 32 %
780 19-05-2020 09:54:18 15 C 30 %
781 19-05-2020 10:04:17 15.3 C 30 %
782 19-05-2020 10:14:17 16.1 C 28 %
783 19-05-2020 10:24:18 16.6 C 28 %
784 19-05-2020 10:34:17 17.7 C 25 %
785 19-05-2020 10:44:17 18.5 C 22 %
786 19-05-2020 10:54:17 19.6 C 20 %
787 19-05-2020 11:04:17 21.2 C 20 %
788 19-05-2020 11:14:17 21.7 C 20 %
789 19-05-2020 11:24:17 21.7 C 20 %
790 19-05-2020 11:34:18 20.9 C 20 %
791 19-05-2020 11:44:18 21.4 C 20 %
792 19-05-2020 11:54:17 21.7 C 20 %
793 19-05-2020 12:04:17 21.3 C 20 %
794 19-05-2020 12:14:17 21.2 C 20 %
795 19-05-2020 12:24:18 21.3 C 20 %
796 19-05-2020 12:34:17 21.2 C 20 %
797 19-05-2020 12:44:17 21.8 C 20 %
798 19-05-2020 12:54:17 22.5 C 20 %
799 19-05-2020 13:04:17 23.3 C 20 %
800 19-05-2020 13:14:17 23.3 C 20 %
Sensor: Nr:Datum:Temp:Feuchte:
Aussen-T/F 801 19-05-2020 13:24:17 22.9 C 20 %
802 19-05-2020 13:34:17 22.2 C 20 %
803 19-05-2020 13:44:17 24.4 C 20 %
804 19-05-2020 13:54:17 26.7 C 20 %
805 19-05-2020 14:04:18 29.1 C 20 %
806 19-05-2020 14:14:18 30.2 C 20 %
807 19-05-2020 14:24:17 31.5 C 20 %
808 19-05-2020 14:34:17 32.7 C 20 %
809 19-05-2020 14:44:17 32.1 C 20 %
810 19-05-2020 14:54:17 32.6 C 20 %
811 19-05-2020 15:04:17 32.1 C 20 %
812 19-05-2020 15:14:18 29.1 C 20 %
813 19-05-2020 15:24:17 27.6 C 20 %
814 19-05-2020 15:34:17 27.1 C 20 %
815 19-05-2020 15:44:17 26.8 C 20 %
816 19-05-2020 15:54:17 26.4 C 20 %
817 19-05-2020 16:04:17 29.3 C 20 %
818 19-05-2020 16:14:18 28.5 C 20 %
819 19-05-2020 16:24:17 29.8 C 20 %
820 19-05-2020 16:34:18 28 C 20 %
821 19-05-2020 16:44:18 27.2 C 20 %
822 19-05-2020 16:54:17 26.4 C 20 %
823 19-05-2020 17:04:17 29.4 C 20 %
824 19-05-2020 17:14:18 29.5 C 20 %
825 19-05-2020 17:24:17 31.2 C 20 %
Sensor: Nr:Datum:Temp:Feuchte:
Aussen-T/F 826 19-05-2020 17:34:18 29.1 C 20 %
827 19-05-2020 17:44:18 30.4 C 20 %
828 19-05-2020 17:54:17 29.1 C 20 %
829 19-05-2020 18:04:18 29.4 C 20 %
830 19-05-2020 18:14:18 27.1 C 20 %
831 19-05-2020 18:24:18 25.9 C 20 %
832 19-05-2020 18:34:18 25.1 C 20 %
833 19-05-2020 18:44:18 24.9 C 20 %
834 19-05-2020 18:54:17 24.3 C 20 %
835 19-05-2020 19:04:17 24.5 C 20 %
836 19-05-2020 19:14:17 24.4 C 20 %
837 19-05-2020 19:24:18 24 C 20 %
838 19-05-2020 19:34:18 24.2 C 20 %
839 19-05-2020 19:44:18 23.6 C 20 %
840 19-05-2020 19:54:18 23.2 C 20 %
841 19-05-2020 20:04:18 22.8 C 20 %
842 19-05-2020 20:14:18 22.5 C 20 %
843 19-05-2020 20:25:17 22.3 C 20 %
844 19-05-2020 20:34:18 22 C 20 %
845 19-05-2020 20:44:18 21.9 C 20 %
846 19-05-2020 20:55:17 21.6 C 20 %
847 19-05-2020 21:05:17 20.5 C 21 %
848 19-05-2020 21:14:18 19.1 C 24 %
849 19-05-2020 21:24:18 18.5 C 25 %
850 19-05-2020 21:34:18 18.1 C 25 %
Sensor: Nr:Datum:Temp:Feuchte:
Aussen-T/F 851 19-05-2020 21:44:18 18.1 C 25 %
852 19-05-2020 21:55:17 17.9 C 26 %
853 19-05-2020 22:05:17 17.6 C 26 %
854 19-05-2020 22:14:18 17.5 C 27 %
855 19-05-2020 22:24:18 17.4 C 27 %
856 19-05-2020 22:35:17 16.9 C 27 %
857 19-05-2020 22:45:17 16.4 C 28 %
858 19-05-2020 22:54:17 15.7 C 30 %
859 19-05-2020 23:05:17 15.5 C 31 %
860 19-05-2020 23:15:17 15.4 C 31 %
861 19-05-2020 23:25:17 15.1 C 31 %
862 19-05-2020 23:44:17 14.9 C 32 %
863 19-05-2020 23:44:18 14.8 C 33 %
864 19-05-2020 23:54:18 15.1 C 32 %
865 20-05-2020 00:05:17 15.3 C 32 %
866 20-05-2020 00:15:17 15.4 C 32 %
867 20-05-2020 00:25:17 15.1 C 32 %
868 20-05-2020 00:35:17 14.7 C 34 %
869 20-05-2020 00:44:18 14.2 C 34 %
870 20-05-2020 00:54:18 13.8 C 35 %
871 20-05-2020 01:05:17 13.5 C 35 %
872 20-05-2020 01:14:18 13.4 C 36 %
873 20-05-2020 01:24:18 13.4 C 36 %
874 20-05-2020 01:35:17 13 C 36 %
875 20-05-2020 01:45:17 13 C 36 %
Sensor: Nr:Datum:Temp:Feuchte:
Aussen-T/F 876 20-05-2020 01:55:17 12.8 C 37 %
877 20-05-2020 02:05:17 12.7 C 37 %
878 20-05-2020 02:15:17 12.5 C 38 %
879 20-05-2020 02:25:17 12.5 C 38 %
880 20-05-2020 02:35:17 12.6 C 38 %
881 20-05-2020 02:45:17 12.4 C 38 %
882 20-05-2020 02:55:17 12.2 C 38 %
883 20-05-2020 03:05:18 12.1 C 39 %
884 20-05-2020 03:15:18 11.9 C 40 %
885 20-05-2020 03:25:18 11.8 C 40 %
886 20-05-2020 03:35:18 11.8 C 40 %
887 20-05-2020 03:45:17 11.7 C 40 %
888 20-05-2020 03:55:17 11.7 C 40 %
889 20-05-2020 04:05:17 11.8 C 40 %
890 20-05-2020 04:15:17 11.6 C 40 %
891 20-05-2020 04:25:18 11.4 C 41 %
892 20-05-2020 04:35:17 11.7 C 41 %
893 20-05-2020 04:45:17 11.6 C 41 %
894 20-05-2020 04:55:17 11.1 C 41 %
895 20-05-2020 05:05:17 10.8 C 42 %
896 20-05-2020 05:15:17 10.9 C 43 %
897 20-05-2020 05:25:17 11 C 42 %
898 20-05-2020 05:35:17 11.1 C 42 %
899 20-05-2020 05:45:18 11.2 C 42 %
900 20-05-2020 05:55:18 11.4 C 41 %
Sensor: Nr:Datum:Temp:Feuchte:
Aussen-T/F 901 20-05-2020 06:05:18 11.5 C 41 %
902 20-05-2020 06:15:17 11.3 C 41 %
903 20-05-2020 06:25:17 11.4 C 41 %
904 20-05-2020 06:35:17 11.5 C 41 %
905 20-05-2020 06:45:18 11.4 C 41 %
906 20-05-2020 06:55:18 11.5 C 41 %
907 20-05-2020 07:05:17 11.2 C 41 %
908 20-05-2020 07:15:18 11.5 C 41 %
909 20-05-2020 07:25:18 11.7 C 41 %
910 20-05-2020 07:35:17 12.2 C 41 %
911 20-05-2020 07:45:17 12.8 C 40 %
912 20-05-2020 07:55:17 13.4 C 39 %
913 20-05-2020 08:05:18 13.6 C 39 %
914 20-05-2020 08:15:18 14.7 C 36 %
915 20-05-2020 08:25:18 15.3 C 35 %
916 20-05-2020 08:35:18 16 C 34 %
917 20-05-2020 08:45:18 16.2 C 33 %
918 20-05-2020 08:55:18 16.4 C 33 %
919 20-05-2020 09:05:17 16.8 C 33 %
920 20-05-2020 09:15:17 17.2 C 32 %
921 20-05-2020 09:25:17 17.5 C 32 %
922 20-05-2020 09:35:17 18.1 C 31 %
923 20-05-2020 09:45:17 18.5 C 30 %
924 20-05-2020 09:55:17 18.6 C 30 %
925 20-05-2020 10:05:17 19.1 C 29 %
Sensor: Nr:Datum:Temp:Feuchte:
Aussen-T/F 926 20-05-2020 10:15:17 19.4 C 29 %
927 20-05-2020 10:25:17 19.5 C 29 %
928 20-05-2020 10:35:17 19.7 C 28 %
929 20-05-2020 10:45:18 20.2 C 27 %
930 20-05-2020 10:55:18 19.7 C 28 %
931 20-05-2020 11:05:18 20.4 C 27 %
932 20-05-2020 11:15:17 20.8 C 26 %
933 20-05-2020 11:25:17 20.3 C 27 %
934 20-05-2020 11:35:18 20.1 C 27 %
935 20-05-2020 11:45:17 20.6 C 27 %
936 20-05-2020 11:55:18 20.8 C 27 %
937 20-05-2020 12:05:18 21.4 C 26 %
938 20-05-2020 12:15:17 21.2 C 25 %
939 20-05-2020 12:25:17 21.6 C 25 %
940 20-05-2020 12:35:18 21.3 C 25 %
941 20-05-2020 12:45:17 21.9 C 25 %
942 20-05-2020 12:55:17 22.2 C 24 %
943 20-05-2020 13:05:17 22.7 C 23 %
944 20-05-2020 13:15:18 22 C 23 %
945 20-05-2020 13:25:18 23.8 C 21 %
946 20-05-2020 13:35:18 22.3 C 22 %
947 20-05-2020 13:45:17 24 C 21 %
948 20-05-2020 13:55:18 23.9 C 20 %
949 20-05-2020 14:05:17 27.2 C 20 %
950 20-05-2020 14:15:18 27.4 C 20 %
Sensor: Nr:Datum:Temp:Feuchte:
Aussen-T/F 951 20-05-2020 14:25:18 26.5 C 20 %
952 20-05-2020 14:35:17 28 C 20 %
953 20-05-2020 14:45:18 31.7 C 20 %
954 20-05-2020 14:55:18 28.7 C 20 %
955 20-05-2020 15:05:17 26.4 C 20 %
956 20-05-2020 15:15:17 30.7 C 20 %
957 20-05-2020 15:25:17 31 C 20 %
958 20-05-2020 15:35:18 30.8 C 20 %
959 20-05-2020 15:45:17 31.8 C 20 %
960 20-05-2020 15:55:17 28.9 C 20 %
961 20-05-2020 16:05:17 30.8 C 20 %
962 20-05-2020 16:15:18 31.1 C 20 %
963 20-05-2020 16:25:18 27.2 C 20 %
964 20-05-2020 16:35:18 29.9 C 20 %
965 20-05-2020 16:45:18 28.9 C 20 %
966 20-05-2020 16:55:18 29.4 C 20 %
967 20-05-2020 17:05:18 30.4 C 20 %
968 20-05-2020 17:15:17 27.9 C 20 %
969 20-05-2020 17:25:17 27.9 C 20 %
970 20-05-2020 17:35:17 29.4 C 20 %
971 20-05-2020 17:45:17 28.1 C 20 %
972 20-05-2020 17:55:17 27.4 C 20 %
973 20-05-2020 18:05:17 28.9 C 20 %
974 20-05-2020 18:15:18 26.7 C 20 %
975 20-05-2020 18:25:18 25.5 C 20 %
Sensor: Nr:Datum:Temp:Feuchte:
Aussen-T/F 976 20-05-2020 18:35:17 24.9 C 20 %
977 20-05-2020 18:45:18 24.8 C 20 %
978 20-05-2020 18:55:18 23.7 C 20 %
979 20-05-2020 19:05:18 23.7 C 20 %
980 20-05-2020 19:15:17 23.6 C 20 %
981 20-05-2020 19:25:17 23.3 C 20 %
982 20-05-2020 19:35:18 22.9 C 20 %
983 20-05-2020 19:45:17 22.9 C 20 %
984 20-05-2020 19:55:17 22.5 C 20 %
985 20-05-2020 20:05:17 22.1 C 20 %
986 20-05-2020 20:15:17 21.7 C 20 %
987 20-05-2020 20:25:17 21.6 C 20 %
988 20-05-2020 20:35:17 21.3 C 20 %
989 20-05-2020 20:45:17 20.8 C 20 %
990 20-05-2020 20:55:17 20 C 22 %
991 20-05-2020 21:05:17 19.7 C 23 %
992 20-05-2020 21:15:17 19.7 C 23 %
993 20-05-2020 21:25:17 18.9 C 25 %
994 20-05-2020 21:35:17 17.9 C 27 %
995 20-05-2020 21:45:17 17.6 C 27 %
996 20-05-2020 21:55:17 17.4 C 27 %
997 20-05-2020 22:05:18 17.3 C 28 %
998 20-05-2020 22:15:17 16.6 C 29 %
999 20-05-2020 22:25:17 16.7 C 29 %
1000 20-05-2020 22:35:17 16.6 C 30 %
Sensor: Nr:Datum:Temp:Feuchte:
Aussen-T/F 1001 20-05-2020 22:45:18 16.7 C 30 %
1002 20-05-2020 22:55:18 16.3 C 30 %
1003 20-05-2020 23:05:17 16.2 C 30 %
1004 20-05-2020 23:15:17 15.9 C 30 %
1005 20-05-2020 23:25:17 16 C 30 %
1006 20-05-2020 23:35:17 15.5 C 31 %
1007 20-05-2020 23:45:18 15.4 C 31 %
1008 20-05-2020 23:55:18 15.1 C 31 %
1009 21-05-2020 00:05:18 14.7 C 32 %
1010 21-05-2020 00:15:17 14.4 C 33 %
1011 21-05-2020 00:25:17 14.4 C 33 %
1012 21-05-2020 00:35:17 14.3 C 33 %
1013 21-05-2020 00:45:17 14.5 C 33 %
1014 21-05-2020 00:55:17 14.4 C 33 %
1015 21-05-2020 01:05:17 14.4 C 33 %
1016 21-05-2020 01:15:17 14.8 C 32 %
1017 21-05-2020 01:25:18 14.5 C 32 %
1018 21-05-2020 01:35:18 13.9 C 34 %
1019 21-05-2020 01:45:17 13.4 C 35 %
1020 21-05-2020 01:55:17 13.3 C 35 %
1021 21-05-2020 02:05:18 13.4 C 35 %
1022 21-05-2020 02:15:17 13.5 C 35 %
1023 21-05-2020 02:25:17 13.1 C 35 %
1024 21-05-2020 02:35:17 13.1 C 35 %
1025 21-05-2020 02:45:17 12.8 C 36 %
Sensor: Nr:Datum:Temp:Feuchte:
Aussen-T/F 1026 21-05-2020 02:55:17 12.8 C 36 %
1027 21-05-2020 03:05:17 12.7 C 36 %
1028 21-05-2020 03:15:17 12.5 C 37 %
1029 21-05-2020 03:25:17 12.6 C 37 %
1030 21-05-2020 03:35:18 12.3 C 37 %
1031 21-05-2020 03:45:18 11.7 C 39 %
1032 21-05-2020 03:55:18 11.5 C 40 %
1033 21-05-2020 04:05:18 11.3 C 40 %
1034 21-05-2020 04:15:17 11 C 40 %
1035 21-05-2020 04:25:17 10.8 C 41 %
1036 21-05-2020 04:35:17 10.6 C 42 %
1037 21-05-2020 04:45:17 10.5 C 42 %
1038 21-05-2020 04:55:17 10.3 C 43 %
1039 21-05-2020 05:05:17 10.2 C 43 %
1040 21-05-2020 05:15:18 10.1 C 43 %
1041 21-05-2020 05:25:18 10 C 43 %
1042 21-05-2020 05:35:17 9.8 C 44 %
1043 21-05-2020 05:45:17 9.9 C 45 %
1044 21-05-2020 05:55:17 9.8 C 45 %
1045 21-05-2020 06:05:17 9.8 C 45 %
1046 21-05-2020 06:15:17 9.8 C 45 %
1047 21-05-2020 06:25:17 10 C 44 %
1048 21-05-2020 06:35:17 10 C 44 %
1049 21-05-2020 06:45:17 10 C 44 %
1050 21-05-2020 06:55:17 10 C 44 %
Sensor: Nr:Datum:Temp:Feuchte:
Aussen-T/F 1051 21-05-2020 07:05:17 10.1 C 44 %
1052 21-05-2020 07:15:17 10.2 C 44 %
1053 21-05-2020 07:25:17 10.5 C 44 %
1054 21-05-2020 07:35:17 10.7 C 44 %
1055 21-05-2020 07:45:17 10.9 C 44 %
1056 21-05-2020 07:55:17 11.2 C 43 %
1057 21-05-2020 08:05:17 11.4 C 43 %
1058 21-05-2020 08:15:17 11.8 C 42 %
1059 21-05-2020 08:25:17 11.9 C 42 %
1060 21-05-2020 08:35:17 12.3 C 41 %
1061 21-05-2020 08:45:18 13 C 39 %
1062 21-05-2020 08:55:18 13.4 C 38 %
1063 21-05-2020 09:05:17 14.3 C 36 %
1064 21-05-2020 09:15:17 14.8 C 36 %
1065 21-05-2020 09:25:18 15.3 C 35 %
1066 21-05-2020 09:35:17 16.2 C 34 %
1067 21-05-2020 09:45:17 16.8 C 33 %
1068 21-05-2020 09:55:17 17.7 C 32 %
1069 21-05-2020 10:05:17 18 C 31 %
1070 21-05-2020 10:15:18 18.4 C 31 %
1071 21-05-2020 10:25:18 19.3 C 30 %
1072 21-05-2020 10:35:17 20.2 C 27 %
1073 21-05-2020 10:45:17 20.6 C 27 %
1074 21-05-2020 10:55:17 21.2 C 26 %
1075 21-05-2020 11:05:17 21.7 C 26 %
Sensor: Nr:Datum:Temp:Feuchte:
Aussen-T/F 1076 21-05-2020 11:15:17 22.2 C 24 %
1077 21-05-2020 11:25:17 22.5 C 24 %
1078 21-05-2020 11:35:17 22.8 C 23 %
1079 21-05-2020 11:45:17 23.1 C 21 %
1080 21-05-2020 11:55:17 23.3 C 22 %
1081 21-05-2020 12:05:17 22.7 C 22 %
1082 21-05-2020 12:15:17 22.8 C 22 %
1083 21-05-2020 12:25:17 22.6 C 22 %
1084 21-05-2020 12:35:18 23.7 C 21 %
1085 21-05-2020 12:45:17 23.7 C 21 %
1086 21-05-2020 12:55:17 23.8 C 21 %
1087 21-05-2020 13:05:18 23.9 C 20 %
1088 21-05-2020 13:15:17 24.1 C 20 %
1089 21-05-2020 13:25:18 24.5 C 20 %
1090 21-05-2020 13:35:18 25.5 C 20 %
1091 21-05-2020 13:45:18 25.6 C 20 %
1092 21-05-2020 13:55:19 29.1 C 20 %
1093 21-05-2020 14:05:17 31.7 C 20 %
1094 21-05-2020 14:15:18 31.4 C 20 %
1095 21-05-2020 14:25:18 33.4 C 20 %
1096 21-05-2020 14:35:17 34.4 C 20 %
1097 21-05-2020 14:45:18 35.4 C 20 %
1098 21-05-2020 14:55:18 33.8 C 20 %
1099 21-05-2020 15:05:18 35 C 20 %
1100 21-05-2020 15:15:17 34.3 C 20 %
Sensor: Nr:Datum:Temp:Feuchte:
Aussen-T/F 1101 21-05-2020 15:25:17 36.2 C 20 %
1102 21-05-2020 15:35:18 36 C 20 %
1103 21-05-2020 15:45:17 34.8 C 20 %
1104 21-05-2020 15:55:17 34.3 C 20 %
1105 21-05-2020 16:05:18 33.9 C 20 %
1106 21-05-2020 16:15:18 34.7 C 20 %
1107 21-05-2020 16:25:18 35.2 C 20 %
1108 21-05-2020 16:35:18 34.4 C 20 %
1109 21-05-2020 16:45:17 34.2 C 20 %
1110 21-05-2020 16:55:17 35.8 C 20 %
1111 21-05-2020 17:05:17 36.1 C 20 %
1112 21-05-2020 17:15:18 34.3 C 20 %
1113 21-05-2020 17:25:18 34.4 C 20 %
1114 21-05-2020 17:35:18 33.1 C 20 %
1115 21-05-2020 17:45:17 33.3 C 20 %
1116 21-05-2020 17:55:17 31.4 C 20 %
1117 21-05-2020 18:05:18 33.3 C 20 %
1118 21-05-2020 18:15:17 30 C 20 %
1119 21-05-2020 18:25:17 28.3 C 20 %
1120 21-05-2020 18:35:17 27.8 C 20 %
1121 21-05-2020 18:45:17 27.9 C 20 %
1122 21-05-2020 18:55:17 27.9 C 20 %
1123 21-05-2020 19:05:17 27.8 C 20 %
1124 21-05-2020 19:15:17 27.7 C 20 %
1125 21-05-2020 19:25:17 27.7 C 20 %
Sensor: Nr:Datum:Temp:Feuchte:
Aussen-T/F 1126 21-05-2020 19:35:17 27.2 C 20 %
1127 21-05-2020 19:45:17 26.7 C 20 %
1128 21-05-2020 19:55:17 26.3 C 20 %
1129 21-05-2020 20:05:18 25.7 C 20 %
1130 21-05-2020 20:15:17 24.3 C 20 %
1131 21-05-2020 20:25:17 24 C 20 %
1132 21-05-2020 20:35:17 24.3 C 20 %
1133 21-05-2020 20:45:18 23.5 C 20 %
1134 21-05-2020 20:55:18 22.5 C 21 %
1135 21-05-2020 21:05:17 21.9 C 23 %
1136 21-05-2020 21:15:17 21.1 C 24 %
1137 21-05-2020 21:25:17 21.1 C 24 %
1138 21-05-2020 21:35:18 20.4 C 25 %
1139 21-05-2020 21:45:17 20 C 25 %
1140 21-05-2020 21:55:17 19.8 C 26 %
1141 21-05-2020 22:05:17 19.6 C 27 %
1142 21-05-2020 22:15:17 19.6 C 27 %
1143 21-05-2020 22:25:17 19.1 C 28 %
1144 21-05-2020 22:35:17 18.9 C 28 %
1145 21-05-2020 22:45:18 19 C 28 %
1146 21-05-2020 22:55:18 19.3 C 27 %
1147 21-05-2020 23:05:18 19.7 C 27 %
1148 21-05-2020 23:15:17 19.3 C 27 %
1149 21-05-2020 23:25:17 19 C 27 %
1150 21-05-2020 23:35:17 18.4 C 29 %
Sensor: Nr:Datum:Temp:Feuchte:
Aussen-T/F 1151 21-05-2020 23:45:17 18.1 C 29 %
1152 21-05-2020 23:55:17 17.8 C 30 %
1153 22-05-2020 00:05:18 17.8 C 30 %
1154 22-05-2020 00:15:17 17.7 C 30 %
1155 22-05-2020 00:25:18 17.3 C 30 %
1156 22-05-2020 00:35:17 16.9 C 31 %
1157 22-05-2020 00:45:17 16.7 C 31 %
1158 22-05-2020 00:55:17 16.3 C 32 %
1159 22-05-2020 01:05:18 16.1 C 32 %
1160 22-05-2020 01:15:18 16 C 32 %
1161 22-05-2020 01:25:18 15.9 C 33 %
1162 22-05-2020 01:35:17 15.6 C 33 %
1163 22-05-2020 01:45:18 15.4 C 34 %
1164 22-05-2020 01:55:18 15.3 C 35 %
1165 22-05-2020 02:05:17 15.1 C 35 %
1166 22-05-2020 02:15:18 15 C 35 %
1167 22-05-2020 02:25:18 15.2 C 35 %
1168 22-05-2020 02:35:18 15 C 35 %
1169 22-05-2020 02:45:17 14.8 C 36 %
1170 22-05-2020 02:55:17 14.7 C 36 %
1171 22-05-2020 03:05:17 14.5 C 36 %
1172 22-05-2020 03:15:18 14.5 C 36 %
1173 22-05-2020 03:25:18 14.4 C 36 %
1174 22-05-2020 03:35:17 14 C 37 %
1175 22-05-2020 03:45:17 14 C 37 %
Sensor: Nr:Datum:Temp:Feuchte:
Aussen-T/F 1176 22-05-2020 03:55:17 13.5 C 38 %
1177 22-05-2020 04:05:17 13.3 C 38 %
1178 22-05-2020 04:15:17 13.3 C 39 %
1179 22-05-2020 04:25:17 13.1 C 39 %
1180 22-05-2020 04:35:17 13 C 40 %
1181 22-05-2020 04:45:18 13 C 40 %
1182 22-05-2020 04:55:18 12.7 C 41 %
1183 22-05-2020 05:05:17 12.8 C 41 %
1184 22-05-2020 05:15:17 12.8 C 41 %
1185 22-05-2020 05:25:17 12.5 C 41 %
1186 22-05-2020 05:35:17 12.3 C 41 %
1187 22-05-2020 05:45:17 12.3 C 42 %
1188 22-05-2020 05:55:17 12.4 C 42 %
1189 22-05-2020 06:05:17 12.7 C 42 %
1190 22-05-2020 06:15:18 12.8 C 42 %
1191 22-05-2020 06:25:18 13.3 C 41 %
1192 22-05-2020 06:35:17 13.7 C 41 %
1193 22-05-2020 06:45:17 14.4 C 40 %
1194 22-05-2020 06:55:17 15 C 37 %
1195 22-05-2020 07:05:18 15.2 C 36 %
1196 22-05-2020 07:15:17 15.5 C 36 %
1197 22-05-2020 07:25:17 15.6 C 36 %
1198 22-05-2020 07:35:17 15.8 C 36 %
1199 22-05-2020 07:45:17 16.4 C 35 %
1200 22-05-2020 07:55:17 17.1 C 35 %
Sensor: Nr:Datum:Temp:Feuchte:
Aussen-T/F 1201 22-05-2020 08:05:18 17.6 C 34 %
1202 22-05-2020 08:15:18 18.1 C 32 %
1203 22-05-2020 08:25:18 18.8 C 32 %
1204 22-05-2020 08:35:18 19.3 C 31 %
1205 22-05-2020 08:45:18 19.5 C 31 %
1206 22-05-2020 08:55:18 20 C 30 %
1207 22-05-2020 09:05:17 20 C 30 %
1208 22-05-2020 09:15:17 20.4 C 30 %
1209 22-05-2020 09:25:17 21 C 29 %
1210 22-05-2020 09:35:17 21 C 28 %
1211 22-05-2020 09:45:17 21.4 C 28 %
1212 22-05-2020 09:55:17 22.4 C 27 %
1213 22-05-2020 10:05:18 22.7 C 26 %
1214 22-05-2020 10:15:17 22.7 C 26 %
1215 22-05-2020 10:25:18 23.5 C 25 %
1216 22-05-2020 10:35:17 23.7 C 25 %
1217 22-05-2020 10:45:18 24.3 C 25 %
1218 22-05-2020 10:55:18 24.7 C 24 %
1219 22-05-2020 11:05:18 24.5 C 24 %
1220 22-05-2020 11:15:17 24.8 C 23 %
1221 22-05-2020 11:25:17 24.8 C 23 %
1222 22-05-2020 11:35:17 25.3 C 22 %
1223 22-05-2020 11:45:17 25.4 C 22 %
1224 22-05-2020 11:55:17 25.7 C 21 %
1225 22-05-2020 12:05:17 25.6 C 21 %
Sensor: Nr:Datum:Temp:Feuchte:
Aussen-T/F 1226 22-05-2020 12:15:17 25.5 C 21 %
1227 22-05-2020 12:25:17 25.5 C 21 %
1228 22-05-2020 12:35:18 25.4 C 21 %
1229 22-05-2020 12:45:18 25.1 C 21 %
1230 22-05-2020 12:55:18 25.3 C 21 %
1231 22-05-2020 13:05:17 25.4 C 22 %
1232 22-05-2020 13:15:18 25.9 C 21 %
1233 22-05-2020 13:25:18 25.9 C 21 %
1234 22-05-2020 13:35:17 26.1 C 21 %
1235 22-05-2020 13:45:17 27.5 C 20 %
1236 22-05-2020 13:55:17 27.7 C 20 %
1237 22-05-2020 14:05:17 27.7 C 20 %
1238 22-05-2020 14:15:18 27.7 C 20 %
1239 22-05-2020 14:25:18 27.5 C 20 %
1240 22-05-2020 14:35:17 26.8 C 20 %
1241 22-05-2020 14:45:17 27.2 C 20 %
1242 22-05-2020 14:55:17 27.5 C 20 %
1243 22-05-2020 15:05:18 27.9 C 20 %
1244 22-05-2020 15:15:18 28.4 C 20 %
1245 22-05-2020 15:25:18 27.7 C 20 %
1246 22-05-2020 15:35:18 26.5 C 20 %
1247 22-05-2020 15:45:17 26.8 C 20 %
1248 22-05-2020 15:55:17 26.6 C 20 %
1249 22-05-2020 16:05:18 26.5 C 20 %
1250 22-05-2020 16:15:17 26.5 C 20 %
Sensor: Nr:Datum:Temp:Feuchte:
Aussen-T/F 1251 22-05-2020 16:25:17 27.3 C 20 %
1252 22-05-2020 16:35:17 27.1 C 20 %
1253 22-05-2020 16:45:18 27.3 C 20 %
1254 22-05-2020 16:55:18 27 C 20 %
1255 22-05-2020 17:05:17 26.5 C 20 %
1256 22-05-2020 17:15:17 27 C 20 %
1257 22-05-2020 17:25:17 27.3 C 20 %
1258 22-05-2020 17:35:18 27.2 C 20 %
1259 22-05-2020 17:45:17 26.3 C 20 %
1260 22-05-2020 17:55:17 26.4 C 20 %
1261 22-05-2020 18:05:17 26.2 C 20 %
1262 22-05-2020 18:15:18 25.7 C 20 %
1263 22-05-2020 18:25:18 24.5 C 22 %
1264 22-05-2020 18:35:17 24.3 C 23 %
1265 22-05-2020 18:45:18 24.1 C 23 %
1266 22-05-2020 18:55:18 24 C 23 %
1267 22-05-2020 19:05:17 25 C 21 %
1268 22-05-2020 19:15:17 25.4 C 21 %
1269 22-05-2020 19:25:17 25.1 C 21 %
1270 22-05-2020 19:35:17 24.6 C 22 %
1271 22-05-2020 19:45:18 23.8 C 23 %
1272 22-05-2020 19:55:18 23.4 C 23 %
1273 22-05-2020 20:05:17 22.6 C 25 %
1274 22-05-2020 20:15:17 21.2 C 28 %
1275 22-05-2020 20:25:17 19.4 C 31 %
Sensor: Nr:Datum:Temp:Feuchte:
Aussen-T/F 1276 22-05-2020 20:35:17 19 C 34 %
1277 22-05-2020 20:45:17 18.4 C 35 %
1278 22-05-2020 20:55:17 18.2 C 35 %
1279 22-05-2020 21:05:18 17.7 C 36 %
1280 22-05-2020 21:15:18 17.5 C 39 %
1281 22-05-2020 21:25:18 17.5 C 39 %
1282 22-05-2020 21:35:17 17.3 C 40 %
1283 22-05-2020 21:45:17 17.3 C 41 %
1284 22-05-2020 21:55:17 17.2 C 41 %
1285 22-05-2020 22:05:18 17.2 C 41 %
1286 22-05-2020 22:15:17 17.2 C 41 %
1287 22-05-2020 22:25:17 17.2 C 41 %
1288 22-05-2020 22:35:17 17.1 C 41 %
1289 22-05-2020 22:45:18 17.1 C 41 %
1290 22-05-2020 22:55:18 17.1 C 41 %
1291 22-05-2020 23:05:17 17 C 41 %
1292 22-05-2020 23:15:17 17 C 41 %
1293 22-05-2020 23:25:17 16.9 C 41 %
1294 22-05-2020 23:35:18 16.8 C 41 %
1295 22-05-2020 23:45:18 16.7 C 41 %
1296 22-05-2020 23:55:18 16.6 C 41 %
1297 23-05-2020 00:05:18 16.6 C 41 %
1298 23-05-2020 00:15:17 16.5 C 41 %
1299 23-05-2020 00:25:17 16.6 C 41 %
1300 23-05-2020 00:35:18 16.5 C 41 %
Sensor: Nr:Datum:Temp:Feuchte:
Aussen-T/F 1301 23-05-2020 00:45:17 16.4 C 41 %
1302 23-05-2020 00:55:17 16.3 C 41 %
1303 23-05-2020 01:05:18 16.3 C 41 %
1304 23-05-2020 01:15:18 16.4 C 41 %
1305 23-05-2020 01:25:18 16.3 C 41 %
1306 23-05-2020 01:35:18 16 C 41 %
1307 23-05-2020 01:45:17 14.4 C 41 %
1308 23-05-2020 01:55:17 14.1 C 42 %
1309 23-05-2020 02:05:18 14.1 C 42 %
1310 23-05-2020 02:15:18 13.8 C 43 %
1311 23-05-2020 02:25:18 13.8 C 43 %
1312 23-05-2020 02:35:17 13.6 C 43 %
1313 23-05-2020 02:45:18 13.7 C 43 %
1314 23-05-2020 02:55:18 13.6 C 43 %
1315 23-05-2020 03:05:17 13.5 C 43 %
1316 23-05-2020 03:15:17 13.4 C 43 %
1317 23-05-2020 03:25:17 13.3 C 43 %
1318 23-05-2020 03:35:18 13.4 C 43 %
1319 23-05-2020 03:45:17 13.3 C 43 %
1320 23-05-2020 03:55:17 13.6 C 43 %
1321 23-05-2020 04:05:17 13.6 C 43 %
1322 23-05-2020 04:15:17 13.6 C 43 %
1323 23-05-2020 04:25:17 13.6 C 42 %
1324 23-05-2020 04:35:17 13.6 C 42 %
1325 23-05-2020 04:45:17 13 C 41 %
Sensor: Nr:Datum:Temp:Feuchte:
Aussen-T/F 1326 23-05-2020 04:55:18 12.6 C 40 %
1327 23-05-2020 05:05:18 12.2 C 41 %
1328 23-05-2020 05:15:18 11.9 C 43 %
1329 23-05-2020 05:25:18 12 C 41 %
1330 23-05-2020 05:35:17 11.8 C 42 %
1331 23-05-2020 05:45:17 11.6 C 43 %
1332 23-05-2020 05:55:17 11.5 C 43 %
1333 23-05-2020 06:05:17 11.4 C 44 %
1334 23-05-2020 06:15:17 11.6 C 43 %
1335 23-05-2020 06:25:17 11.7 C 44 %
1336 23-05-2020 06:35:18 11.7 C 44 %
1337 23-05-2020 06:45:17 12 C 43 %
1338 23-05-2020 06:55:17 11.9 C 44 %
1339 23-05-2020 07:05:18 11.7 C 44 %
1340 23-05-2020 07:15:18 12.1 C 43 %
1341 23-05-2020 07:25:18 12.2 C 43 %
1342 23-05-2020 07:35:18 12.5 C 43 %
1343 23-05-2020 07:45:17 12.9 C 42 %
1344 23-05-2020 07:55:18 12.9 C 42 %
1345 23-05-2020 08:05:18 12.8 C 42 %
1346 23-05-2020 08:15:18 13 C 40 %
1347 23-05-2020 08:25:18 13.2 C 40 %
1348 23-05-2020 08:35:17 13.4 C 40 %
1349 23-05-2020 08:45:17 13.5 C 39 %
1350 23-05-2020 08:55:17 13.6 C 38 %
Sensor: Nr:Datum:Temp:Feuchte:
Aussen-T/F 1351 23-05-2020 09:05:18 13.4 C 37 %
1352 23-05-2020 09:15:18 13.1 C 39 %
1353 23-05-2020 09:25:18 12.8 C 40 %
1354 23-05-2020 09:35:18 13.2 C 40 %
1355 23-05-2020 09:45:17 13.3 C 39 %
1356 23-05-2020 09:55:17 13 C 38 %
1357 23-05-2020 10:05:18 13.1 C 39 %
1358 23-05-2020 10:15:18 13 C 40 %
1359 23-05-2020 10:25:18 12.5 C 40 %
1360 23-05-2020 10:35:17 11.7 C 38 %
1361 23-05-2020 10:45:17 11 C 37 %
1362 23-05-2020 10:55:17 10.7 C 39 %
1363 23-05-2020 11:05:17 10.9 C 41 %
1364 23-05-2020 11:15:17 11 C 41 %
1365 23-05-2020 11:25:18 11.5 C 39 %
1366 23-05-2020 11:35:17 12.1 C 38 %
1367 23-05-2020 11:45:18 12.3 C 38 %
1368 23-05-2020 11:55:18 12 C 37 %
1369 23-05-2020 12:05:17 11.7 C 38 %
1370 23-05-2020 12:15:17 11.6 C 39 %
1371 23-05-2020 12:25:17 11.5 C 38 %
1372 23-05-2020 12:35:18 11.5 C 38 %
1373 23-05-2020 12:45:18 11.5 C 39 %
1374 23-05-2020 12:55:18 12.1 C 38 %
1375 23-05-2020 13:05:18 12.5 C 38 %
Sensor: Nr:Datum:Temp:Feuchte:
Aussen-T/F 1376 23-05-2020 13:15:17 12.8 C 36 %
1377 23-05-2020 13:25:17 13 C 35 %
1378 23-05-2020 13:35:17 13.2 C 35 %
1379 23-05-2020 13:45:17 13.1 C 35 %
1380 23-05-2020 13:55:17 13.7 C 35 %
1381 23-05-2020 14:05:17 13.3 C 34 %
1382 23-05-2020 14:15:18 13.8 C 34 %
1383 23-05-2020 14:25:18 13.9 C 34 %
1384 23-05-2020 14:35:18 15.9 C 31 %
1385 23-05-2020 14:45:17 15.8 C 31 %
1386 23-05-2020 14:55:17 15.5 C 31 %
1387 23-05-2020 15:05:18 15.8 C 31 %
1388 23-05-2020 15:15:17 16.5 C 30 %
1389 23-05-2020 15:25:17 15.9 C 30 %
1390 23-05-2020 15:35:17 15.8 C 30 %
1391 23-05-2020 15:45:17 16.1 C 29 %
1392 23-05-2020 15:55:17 16.7 C 28 %
1393 23-05-2020 16:05:17 18.5 C 27 %
1394 23-05-2020 16:15:17 17 C 27 %
1395 23-05-2020 16:25:17 17.5 C 27 %
1396 23-05-2020 16:35:17 16.6 C 26 %
1397 23-05-2020 16:45:17 17 C 26 %
1398 23-05-2020 16:55:17 17.2 C 26 %
1399 23-05-2020 17:05:18 16.5 C 27 %
1400 23-05-2020 17:15:17 16.4 C 28 %
Sensor: Nr:Datum:Temp:Feuchte:
Aussen-T/F 1401 23-05-2020 17:25:17 15.8 C 29 %
1402 23-05-2020 17:35:17 14.9 C 31 %
1403 23-05-2020 17:45:17 15.9 C 30 %
1404 23-05-2020 17:55:17 17.1 C 27 %
1405 23-05-2020 18:05:17 18.1 C 26 %
1406 23-05-2020 18:15:17 17.9 C 27 %
1407 23-05-2020 18:25:17 15.8 C 29 %
1408 23-05-2020 18:35:17 14.7 C 31 %
1409 23-05-2020 18:45:17 14.3 C 34 %
1410 23-05-2020 18:55:17 15 C 31 %
1411 23-05-2020 19:05:18 15.3 C 30 %
1412 23-05-2020 19:15:17 15 C 31 %
1413 23-05-2020 19:25:17 14.6 C 32 %
1414 23-05-2020 19:35:17 14.7 C 32 %
1415 23-05-2020 19:45:17 14.8 C 32 %
1416 23-05-2020 19:55:17 15.1 C 31 %
1417 23-05-2020 20:05:17 14.5 C 32 %
1418 23-05-2020 20:15:17 14.4 C 32 %
1419 23-05-2020 20:25:17 14.2 C 32 %
1420 23-05-2020 20:35:18 14.1 C 33 %
1421 23-05-2020 20:45:17 14 C 33 %
1422 23-05-2020 20:55:17 13.7 C 34 %
1423 23-05-2020 21:05:18 13.4 C 34 %
1424 23-05-2020 21:15:17 13.1 C 35 %
1425 23-05-2020 21:25:17 12.8 C 35 %
Sensor: Nr:Datum:Temp:Feuchte:
Aussen-T/F 1426 23-05-2020 21:35:17 12.8 C 35 %
1427 23-05-2020 21:45:17 12.6 C 35 %
1428 23-05-2020 21:55:17 12 C 36 %
1429 23-05-2020 22:05:18 12.1 C 36 %
1430 23-05-2020 22:15:17 11.9 C 37 %
1431 23-05-2020 22:25:17 11.6 C 37 %
1432 23-05-2020 22:35:17 11.6 C 37 %
1433 23-05-2020 22:45:18 11.2 C 37 %
1434 23-05-2020 22:55:18 11.3 C 37 %
1435 23-05-2020 23:05:17 11.2 C 37 %
1436 23-05-2020 23:15:17 10.9 C 39 %
1437 23-05-2020 23:25:17 10.9 C 40 %
1438 23-05-2020 23:35:17 11 C 38 %
1439 23-05-2020 23:45:17 11 C 39 %
1440 23-05-2020 23:55:17 10.6 C 40 %
1441 24-05-2020 00:05:17 10.5 C 40 %
1442 24-05-2020 00:15:17 10.4 C 40 %
1443 24-05-2020 00:25:17 10.5 C 40 %
1444 24-05-2020 00:35:18 10.2 C 40 %
1445 24-05-2020 00:45:17 10.5 C 39 %
1446 24-05-2020 00:55:17 10.4 C 39 %
1447 24-05-2020 01:05:18 10.2 C 39 %
1448 24-05-2020 01:15:17 10.1 C 39 %
1449 24-05-2020 01:25:17 10.2 C 38 %
1450 24-05-2020 01:35:18 10.1 C 38 %
Sensor: Nr:Datum:Temp:Feuchte:
Aussen-T/F 1451 24-05-2020 01:45:17 10 C 38 %
1452 24-05-2020 01:55:17 9.7 C 39 %
1453 24-05-2020 02:05:18 10.4 C 37 %
1454 24-05-2020 02:15:17 10.6 C 36 %
1455 24-05-2020 02:25:17 10.5 C 36 %
1456 24-05-2020 02:35:18 10.5 C 36 %
1457 24-05-2020 02:45:17 10.5 C 36 %
1458 24-05-2020 02:55:17 10.5 C 36 %
1459 24-05-2020 03:05:17 10.5 C 36 %
1460 24-05-2020 03:15:18 10.4 C 36 %
1461 24-05-2020 03:25:18 10.6 C 35 %
1462 24-05-2020 03:35:17 10.7 C 35 %
1463 24-05-2020 03:45:18 10.6 C 35 %
1464 24-05-2020 03:55:18 10.7 C 35 %
1465 24-05-2020 04:05:18 10.5 C 35 %
1466 24-05-2020 04:15:17 10.3 C 35 %
1467 24-05-2020 04:25:17 10.2 C 35 %
1468 24-05-2020 04:35:18 10.2 C 35 %
1469 24-05-2020 04:45:17 10.1 C 35 %
1470 24-05-2020 04:55:17 10.2 C 35 %
1471 24-05-2020 05:05:17 10.1 C 35 %
1472 24-05-2020 05:15:17 10.1 C 35 %
1473 24-05-2020 05:25:17 10 C 35 %
1474 24-05-2020 05:35:17 10 C 35 %
1475 24-05-2020 05:45:18 10.1 C 35 %
Sensor: Nr:Datum:Temp:Feuchte:
Aussen-T/F 1476 24-05-2020 05:55:18 10.1 C 35 %
1477 24-05-2020 06:05:18 10 C 35 %
1478 24-05-2020 06:15:17 10.1 C 35 %
1479 24-05-2020 06:25:17 10.1 C 36 %
1480 24-05-2020 06:35:17 10 C 36 %
1481 24-05-2020 06:45:18 10 C 36 %
1482 24-05-2020 06:55:18 10 C 36 %
1483 24-05-2020 07:05:17 10 C 36 %
1484 24-05-2020 07:15:17 10 C 36 %
1485 24-05-2020 07:25:17 9.8 C 37 %
1486 24-05-2020 07:35:18 9.9 C 37 %
1487 24-05-2020 07:45:17 10.2 C 36 %
1488 24-05-2020 07:55:17 10.4 C 36 %
1489 24-05-2020 08:05:18 10.6 C 36 %
1490 24-05-2020 08:15:17 10.8 C 36 %
1491 24-05-2020 08:25:17 11.1 C 35 %
1492 24-05-2020 08:35:18 11.4 C 35 %
1493 24-05-2020 08:45:17 11.7 C 35 %
1494 24-05-2020 08:55:17 12.1 C 34 %
1495 24-05-2020 09:05:18 12.5 C 34 %
1496 24-05-2020 09:15:17 12.8 C 33 %
1497 24-05-2020 09:25:17 13.2 C 32 %
1498 24-05-2020 09:35:17 13.5 C 32 %
1499 24-05-2020 09:45:18 14.2 C 31 %
1500 24-05-2020 09:55:18 14.1 C 31 %
Sensor: Nr:Datum:Temp:Feuchte:
Aussen-T/F 1501 24-05-2020 10:05:18 15.1 C 30 %
1502 24-05-2020 10:15:18 14.5 C 30 %
1503 24-05-2020 10:25:18 14.5 C 30 %
1504 24-05-2020 10:35:18 14.4 C 30 %
1505 24-05-2020 10:45:17 15.6 C 28 %
1506 24-05-2020 10:55:17 15.5 C 26 %
1507 24-05-2020 11:05:17 15.6 C 26 %
1508 24-05-2020 11:15:18 15.9 C 25 %
1509 24-05-2020 11:25:18 15.6 C 25 %
1510 24-05-2020 11:35:18 16.7 C 25 %
1511 24-05-2020 11:45:17 16.6 C 24 %
1512 24-05-2020 11:55:17 17.5 C 23 %
1513 24-05-2020 12:05:17 17.9 C 22 %
1514 24-05-2020 12:15:17 16.9 C 22 %
1515 24-05-2020 12:25:17 17.2 C 21 %
1516 24-05-2020 12:35:17 18.5 C 21 %
1517 24-05-2020 12:45:17 19.1 C 20 %
1518 24-05-2020 12:55:17 18.1 C 20 %
1519 24-05-2020 13:05:18 18.2 C 20 %
1520 24-05-2020 13:15:17 18.7 C 20 %
1521 24-05-2020 13:25:17 18.9 C 20 %
1522 24-05-2020 13:35:17 18.5 C 20 %
1523 24-05-2020 13:45:17 18.4 C 20 %
1524 24-05-2020 13:55:17 17.6 C 20 %
1525 24-05-2020 14:05:17 17.4 C 20 %
Sensor: Nr:Datum:Temp:Feuchte:
Aussen-T/F 1526 24-05-2020 14:15:18 17.3 C 21 %
1527 24-05-2020 14:25:18 17.2 C 21 %
1528 24-05-2020 14:35:18 17.3 C 21 %
1529 24-05-2020 14:45:18 17.4 C 21 %
1530 24-05-2020 14:55:18 17.5 C 21 %
1531 24-05-2020 15:05:17 17.5 C 21 %
1532 24-05-2020 15:15:17 17.4 C 21 %
1533 24-05-2020 15:25:17 17 C 21 %
1534 24-05-2020 15:35:18 16.8 C 23 %
1535 24-05-2020 15:45:17 16.9 C 24 %
1536 24-05-2020 15:55:17 17 C 23 %
1537 24-05-2020 16:05:18 16.9 C 23 %
1538 24-05-2020 16:15:18 16.7 C 25 %
1539 24-05-2020 16:25:18 16.7 C 24 %
1540 24-05-2020 16:35:18 16.8 C 24 %
1541 24-05-2020 16:45:18 16.8 C 24 %
1542 24-05-2020 16:55:18 16.8 C 25 %
1543 24-05-2020 17:05:17 16.8 C 25 %
1544 24-05-2020 17:15:17 16.8 C 25 %
1545 24-05-2020 17:25:17 16.8 C 25 %
1546 24-05-2020 17:35:18 16.7 C 25 %
1547 24-05-2020 17:45:18 16.8 C 25 %
1548 24-05-2020 17:55:18 16.7 C 26 %
1549 24-05-2020 18:05:17 16.8 C 26 %
1550 24-05-2020 18:15:17 16.6 C 26 %
Sensor: Nr:Datum:Temp:Feuchte:
Aussen-T/F 1551 24-05-2020 18:25:17 16.2 C 27 %
1552 24-05-2020 18:35:18 14.8 C 31 %
1553 24-05-2020 18:45:17 13.9 C 36 %
1554 24-05-2020 18:55:18 13.9 C 37 %
1555 24-05-2020 19:05:17 14 C 36 %
1556 24-05-2020 19:15:17 14 C 36 %
1557 24-05-2020 19:25:17 14 C 36 %
1558 24-05-2020 19:35:18 14.1 C 36 %
1559 24-05-2020 19:45:17 14.1 C 37 %
1560 24-05-2020 19:55:17 14 C 37 %
1561 24-05-2020 20:05:17 14 C 36 %
1562 24-05-2020 20:15:18 14.3 C 35 %
1563 24-05-2020 20:25:18 15.2 C 33 %
1564 24-05-2020 20:35:18 15.3 C 33 %
1565 24-05-2020 20:45:17 15.1 C 33 %
1566 24-05-2020 20:55:18 14.8 C 34 %
1567 24-05-2020 21:05:18 14.4 C 35 %
1568 24-05-2020 21:15:18 14 C 35 %
1569 24-05-2020 21:25:18 14.1 C 35 %
1570 24-05-2020 21:35:18 14.4 C 35 %
1571 24-05-2020 21:45:17 14.3 C 35 %
1572 24-05-2020 21:55:17 14.2 C 35 %
1573 24-05-2020 22:05:17 14.2 C 35 %
1574 24-05-2020 22:15:17 14.2 C 35 %
1575 24-05-2020 22:25:17 14 C 35 %
Sensor: Nr:Datum:Temp:Feuchte:
Aussen-T/F 1576 24-05-2020 22:35:18 14 C 35 %
1577 24-05-2020 22:45:18 14 C 35 %
1578 24-05-2020 22:55:18 14 C 35 %
1579 24-05-2020 23:05:18 14 C 35 %
1580 24-05-2020 23:15:17 13.7 C 36 %
1581 24-05-2020 23:25:17 13.5 C 37 %
1582 24-05-2020 23:35:17 13.5 C 36 %
1583 24-05-2020 23:45:17 13.7 C 36 %
1584 24-05-2020 23:55:17 13.5 C 37 %
1585 25-05-2020 00:05:17 13.2 C 37 %
1586 25-05-2020 00:15:17 13.1 C 37 %
1587 25-05-2020 00:25:17 13.5 C 38 %
1588 25-05-2020 00:35:18 13 C 38 %
1589 25-05-2020 00:45:17 12.9 C 39 %
1590 25-05-2020 00:55:17 13 C 38 %
1591 25-05-2020 01:05:18 12.8 C 39 %
1592 25-05-2020 01:15:17 12.7 C 39 %
1593 25-05-2020 01:25:17 12.7 C 39 %
1594 25-05-2020 01:35:17 12.8 C 39 %
1595 25-05-2020 01:45:18 12.7 C 39 %
1596 25-05-2020 01:55:18 12.6 C 39 %
1597 25-05-2020 02:05:18 12.8 C 39 %
1598 25-05-2020 02:15:18 12.9 C 39 %
1599 25-05-2020 02:25:18 13 C 38 %
1600 25-05-2020 02:35:18 13 C 38 %
Sensor: Nr:Datum:Temp:Feuchte:
Aussen-T/F 1601 25-05-2020 02:45:18 13.1 C 37 %
1602 25-05-2020 02:55:18 13 C 37 %
1603 25-05-2020 03:05:18 13.5 C 37 %
1604 25-05-2020 03:15:18 13.3 C 37 %
1605 25-05-2020 03:25:18 13.4 C 37 %
1606 25-05-2020 03:35:18 13.4 C 37 %
1607 25-05-2020 03:45:17 13.3 C 37 %
1608 25-05-2020 03:55:17 13.3 C 37 %
1609 25-05-2020 04:05:18 13.2 C 37 %
1610 25-05-2020 04:15:17 13.2 C 37 %
1611 25-05-2020 04:25:17 13.2 C 37 %
1612 25-05-2020 04:35:18 13.3 C 37 %
1613 25-05-2020 04:45:18 13.2 C 37 %
1614 25-05-2020 04:55:18 13.3 C 37 %
1615 25-05-2020 05:05:18 13.1 C 37 %
1616 25-05-2020 05:15:18 13.3 C 37 %
1617 25-05-2020 05:25:18 13.2 C 37 %
1618 25-05-2020 05:35:18 13.3 C 37 %
1619 25-05-2020 05:45:17 13.1 C 37 %
1620 25-05-2020 05:55:18 13.1 C 37 %
1621 25-05-2020 06:05:18 13.1 C 37 %
1622 25-05-2020 06:15:17 13.3 C 37 %
1623 25-05-2020 06:25:17 13.2 C 37 %
1624 25-05-2020 06:35:18 13.3 C 37 %
1625 25-05-2020 06:45:18 13.5 C 37 %
Sensor: Nr:Datum:Temp:Feuchte:
Aussen-T/F 1626 25-05-2020 06:55:18 13.5 C 37 %
1627 25-05-2020 07:05:18 13.6 C 37 %
1628 25-05-2020 07:15:17 13.7 C 37 %
1629 25-05-2020 07:25:17 13.9 C 36 %
1630 25-05-2020 07:35:18 14.2 C 35 %
1631 25-05-2020 07:45:17 14.2 C 35 %
1632 25-05-2020 07:55:17 14.4 C 35 %
1633 25-05-2020 08:05:17 14.6 C 35 %
1634 25-05-2020 08:15:17 14.8 C 35 %
1635 25-05-2020 08:25:17 15.5 C 34 %
1636 25-05-2020 08:35:17 15.4 C 34 %
1637 25-05-2020 08:45:17 15.8 C 33 %
1638 25-05-2020 08:55:17 15.6 C 33 %
1639 25-05-2020 09:05:18 16 C 32 %
1640 25-05-2020 09:15:17 16.2 C 32 %
1641 25-05-2020 09:25:17 16.2 C 32 %
1642 25-05-2020 09:35:17 16.1 C 32 %
1643 25-05-2020 09:45:18 16.4 C 32 %
1644 25-05-2020 09:55:18 16.3 C 32 %
1645 25-05-2020 10:05:17 16.7 C 32 %
1646 25-05-2020 10:15:17 16.2 C 31 %
1647 25-05-2020 10:25:17 16.4 C 32 %
1648 25-05-2020 10:35:17 17 C 31 %
1649 25-05-2020 10:45:17 16.8 C 31 %
1650 25-05-2020 10:55:17 17 C 31 %
Sensor: Nr:Datum:Temp:Feuchte:
Aussen-T/F 1651 25-05-2020 11:05:18 17.2 C 31 %
1652 25-05-2020 11:15:17 17.3 C 31 %
1653 25-05-2020 11:25:17 17.8 C 31 %
1654 25-05-2020 11:35:17 18.5 C 29 %
1655 25-05-2020 11:45:17 18.5 C 29 %
1656 25-05-2020 11:55:17 17.5 C 30 %
1657 25-05-2020 12:05:18 17.5 C 30 %
1658 25-05-2020 12:15:17 19.1 C 28 %
1659 25-05-2020 12:25:17 18.7 C 28 %
1660 25-05-2020 12:35:17 18.5 C 28 %
1661 25-05-2020 12:45:17 17.6 C 29 %
1662 25-05-2020 12:55:17 18.3 C 28 %
1663 25-05-2020 13:05:18 18.7 C 28 %
1664 25-05-2020 13:15:18 19.4 C 27 %
1665 25-05-2020 13:25:18 18.7 C 27 %
1666 25-05-2020 13:35:17 18.2 C 27 %
1667 25-05-2020 13:45:18 18.6 C 27 %
1668 25-05-2020 13:55:18 19.3 C 26 %
1669 25-05-2020 14:05:18 20.3 C 25 %
1670 25-05-2020 14:15:17 18.6 C 26 %
1671 25-05-2020 14:25:17 18.5 C 26 %
1672 25-05-2020 14:35:17 20 C 25 %
1673 25-05-2020 14:45:17 19.5 C 26 %
1674 25-05-2020 14:55:17 18.7 C 26 %
1675 25-05-2020 15:05:17 18.9 C 26 %
Sensor: Nr:Datum:Temp:Feuchte:
Aussen-T/F 1676 25-05-2020 15:15:17 19.6 C 25 %
1677 25-05-2020 15:25:17 20.3 C 25 %
1678 25-05-2020 15:35:18 19.5 C 25 %
1679 25-05-2020 15:45:17 20.4 C 25 %
1680 25-05-2020 15:55:17 20.9 C 23 %
1681 25-05-2020 16:05:18 22 C 21 %
1682 25-05-2020 16:15:17 23.4 C 20 %
1683 25-05-2020 16:25:17 22.9 C 20 %
1684 25-05-2020 16:35:18 22.1 C 20 %
1685 25-05-2020 16:45:18 21.6 C 20 %
1686 25-05-2020 16:55:18 21.7 C 20 %
1687 25-05-2020 17:05:17 26.6 C 20 %
1688 25-05-2020 17:15:17 24.8 C 20 %
1689 25-05-2020 17:25:17 24.4 C 20 %
1690 25-05-2020 17:35:18 22.3 C 20 %
1691 25-05-2020 17:45:17 20.7 C 20 %
1692 25-05-2020 17:55:17 21.5 C 20 %
1693 25-05-2020 18:05:17 23.4 C 20 %
1694 25-05-2020 18:15:18 25.4 C 20 %
1695 25-05-2020 18:25:18 22.3 C 20 %
1696 25-05-2020 18:35:18 20.9 C 20 %
1697 25-05-2020 18:45:17 19.2 C 22 %
1698 25-05-2020 18:55:17 19.9 C 22 %
1699 25-05-2020 19:05:17 20.1 C 21 %
1700 25-05-2020 19:15:18 19.8 C 21 %
Sensor: Nr:Datum:Temp:Feuchte:
Aussen-T/F 1701 25-05-2020 19:25:18 19.7 C 21 %
1702 25-05-2020 19:35:17 19.4 C 21 %
1703 25-05-2020 19:45:18 18.9 C 22 %
1704 25-05-2020 19:55:18 18.5 C 22 %
1705 25-05-2020 20:05:18 18.7 C 22 %
1706 25-05-2020 20:15:17 18.4 C 22 %
1707 25-05-2020 20:25:17 18.1 C 23 %
1708 25-05-2020 20:35:17 18 C 23 %
1709 25-05-2020 20:45:18 17.9 C 24 %
1710 25-05-2020 20:55:18 17.4 C 24 %
1711 25-05-2020 21:05:17 16.9 C 25 %
1712 25-05-2020 21:15:17 16 C 26 %
1713 25-05-2020 21:25:17 15.3 C 28 %
1714 25-05-2020 21:35:17 14.7 C 30 %
1715 25-05-2020 21:45:17 14.2 C 31 %
1716 25-05-2020 21:55:17 14.2 C 31 %
1717 25-05-2020 22:05:17 14.1 C 31 %
1718 25-05-2020 22:15:17 14 C 31 %
1719 25-05-2020 22:25:17 14 C 31 %
1720 25-05-2020 22:35:17 13.6 C 32 %
1721 25-05-2020 22:45:18 13 C 33 %
1722 25-05-2020 22:55:18 12.9 C 34 %
1723 25-05-2020 23:05:18 12.9 C 34 %
1724 25-05-2020 23:15:17 12.4 C 35 %
1725 25-05-2020 23:25:17 12.1 C 35 %
Sensor: Nr:Datum:Temp:Feuchte:
Aussen-T/F 1726 25-05-2020 23:35:18 11.6 C 36 %
1727 25-05-2020 23:45:17 11.3 C 37 %
1728 25-05-2020 23:55:17 11.1 C 37 %
1729 26-05-2020 00:05:18 10.7 C 39 %
1730 26-05-2020 00:15:17 10.4 C 40 %
1731 26-05-2020 00:25:17 10.2 C 40 %
1732 26-05-2020 00:35:17 10.1 C 40 %
1733 26-05-2020 00:45:17 9.9 C 41 %
1734 26-05-2020 00:55:17 9.6 C 41 %
1735 26-05-2020 01:05:17 9.4 C 41 %
1736 26-05-2020 01:15:18 9.2 C 42 %
1737 26-05-2020 01:25:18 9 C 42 %
1738 26-05-2020 01:35:18 8.8 C 43 %
1739 26-05-2020 01:45:18 8.6 C 43 %
1740 26-05-2020 01:55:18 8.4 C 44 %
1741 26-05-2020 02:05:17 8.4 C 44 %
1742 26-05-2020 02:15:17 8.2 C 44 %
1743 26-05-2020 02:25:18 8 C 44 %
1744 26-05-2020 02:35:18 7.9 C 45 %
1745 26-05-2020 02:45:17 7.9 C 45 %
1746 26-05-2020 02:55:17 7.7 C 45 %
1747 26-05-2020 03:05:17 7.5 C 45 %
1748 26-05-2020 03:15:17 7.6 C 46 %
1749 26-05-2020 03:25:17 7.8 C 46 %
1750 26-05-2020 03:35:17 7.5 C 45 %
Sensor: Nr:Datum:Temp:Feuchte:
Aussen-T/F 1751 26-05-2020 03:45:17 7.5 C 46 %
1752 26-05-2020 03:55:17 7.4 C 46 %
1753 26-05-2020 04:05:17 7.3 C 46 %
1754 26-05-2020 04:15:17 7.2 C 46 %
1755 26-05-2020 04:25:18 7.4 C 46 %
1756 26-05-2020 04:35:17 7.3 C 46 %
1757 26-05-2020 04:45:18 7.2 C 46 %
1758 26-05-2020 04:55:18 7.2 C 46 %
1759 26-05-2020 05:05:18 7.1 C 46 %
1760 26-05-2020 05:15:17 6.9 C 46 %
1761 26-05-2020 05:25:17 6.9 C 46 %
1762 26-05-2020 05:35:18 6.8 C 46 %
1763 26-05-2020 05:45:18 6.9 C 46 %
1764 26-05-2020 05:55:18 6.9 C 46 %
1765 26-05-2020 06:05:17 6.9 C 46 %
1766 26-05-2020 06:15:18 6.9 C 46 %
1767 26-05-2020 06:25:18 6.9 C 46 %
1768 26-05-2020 06:35:17 6.8 C 46 %
1769 26-05-2020 06:45:17 7 C 46 %
1770 26-05-2020 06:55:17 7 C 46 %
1771 26-05-2020 07:05:17 7.3 C 46 %
1772 26-05-2020 07:15:17 7.4 C 46 %
1773 26-05-2020 07:25:17 7.6 C 46 %
1774 26-05-2020 07:35:18 7.8 C 46 %
1775 26-05-2020 07:45:17 7.9 C 46 %
Sensor: Nr:Datum:Temp:Feuchte:
Aussen-T/F 1776 26-05-2020 07:55:17 8.1 C 45 %
1777 26-05-2020 08:05:17 8.3 C 45 %
1778 26-05-2020 08:15:17 8.5 C 45 %
1779 26-05-2020 08:25:17 8.9 C 45 %
1780 26-05-2020 08:35:17 9.2 C 45 %
1781 26-05-2020 08:45:17 9.6 C 44 %
1782 26-05-2020 08:55:17 10 C 42 %
1783 26-05-2020 09:05:17 10.4 C 42 %
1784 26-05-2020 09:15:17 11 C 40 %
1785 26-05-2020 09:25:17 11.6 C 40 %
1786 26-05-2020 09:35:17 12.2 C 38 %
1787 26-05-2020 09:45:18 13.5 C 36 %
1788 26-05-2020 09:55:18 14.1 C 35 %
1789 26-05-2020 10:05:17 14.9 C 35 %
1790 26-05-2020 10:15:17 15.3 C 31 %
1791 26-05-2020 10:25:18 15.6 C 31 %
1792 26-05-2020 10:35:18 16.4 C 28 %
1793 26-05-2020 10:45:17 16.5 C 27 %
1794 26-05-2020 10:55:17 17.1 C 27 %
1795 26-05-2020 11:05:17 17.9 C 27 %
1796 26-05-2020 11:15:17 17.6 C 26 %
1797 26-05-2020 11:25:17 18.8 C 24 %
1798 26-05-2020 11:35:17 19 C 24 %
1799 26-05-2020 11:45:18 19.2 C 24 %
1800 26-05-2020 11:55:18 19.7 C 22 %
Sensor: Nr:Datum:Temp:Feuchte:
Aussen-T/F 1801 26-05-2020 12:05:17 19.8 C 21 %
1802 26-05-2020 12:15:17 19.5 C 21 %
1803 26-05-2020 12:25:17 19.9 C 21 %
1804 26-05-2020 12:35:17 20.1 C 20 %
1805 26-05-2020 12:45:18 20.5 C 20 %
1806 26-05-2020 12:55:18 20.2 C 20 %
1807 26-05-2020 13:05:17 19.7 C 20 %
1808 26-05-2020 13:15:17 20.3 C 20 %
1809 26-05-2020 13:25:17 20.6 C 20 %
1810 26-05-2020 13:35:18 22.9 C 20 %
1811 26-05-2020 13:45:18 24.7 C 20 %
1812 26-05-2020 13:55:18 23.4 C 20 %
1813 26-05-2020 14:05:17 24.5 C 20 %
1814 26-05-2020 14:15:17 26.9 C 20 %
1815 26-05-2020 14:25:17 28.2 C 20 %
1816 26-05-2020 14:35:17 28.3 C 20 %
1817 26-05-2020 14:45:17 27.6 C 20 %
1818 26-05-2020 14:55:17 26.6 C 20 %
1819 26-05-2020 15:05:17 28.7 C 20 %
1820 26-05-2020 15:15:17 24.1 C 20 %
1821 26-05-2020 15:25:17 29.9 C 20 %
1822 26-05-2020 15:35:17 28.4 C 20 %
1823 26-05-2020 15:45:17 28 C 20 %
1824 26-05-2020 15:55:17 24.8 C 20 %
1825 26-05-2020 16:05:17 25.5 C 20 %
Sensor: Nr:Datum:Temp:Feuchte:
Aussen-T/F 1826 26-05-2020 16:15:17 28 C 20 %
1827 26-05-2020 16:25:17 26.9 C 20 %
1828 26-05-2020 16:35:17 27.8 C 20 %
1829 26-05-2020 16:45:18 25.2 C 20 %
1830 26-05-2020 16:55:18 26.4 C 20 %
1831 26-05-2020 17:05:18 26.2 C 20 %
1832 26-05-2020 17:15:17 28.3 C 20 %
1833 26-05-2020 17:25:17 24.2 C 20 %
1834 26-05-2020 17:35:17 26.7 C 20 %
1835 26-05-2020 17:45:17 27.5 C 20 %
1836 26-05-2020 17:55:17 28.7 C 20 %
1837 26-05-2020 18:05:18 26.3 C 20 %
1838 26-05-2020 18:15:17 25 C 20 %
1839 26-05-2020 18:25:17 23.3 C 20 %
1840 26-05-2020 18:35:17 23.7 C 20 %
1841 26-05-2020 18:45:18 22.9 C 20 %
1842 26-05-2020 18:55:18 22 C 20 %
1843 26-05-2020 19:05:17 21.8 C 20 %
1844 26-05-2020 19:15:18 21.8 C 20 %
1845 26-05-2020 19:25:18 21.5 C 20 %
1846 26-05-2020 19:35:17 21 C 20 %
1847 26-05-2020 19:45:17 20.8 C 20 %
1848 26-05-2020 19:55:17 20.8 C 20 %
1849 26-05-2020 20:05:17 20.7 C 20 %
1850 26-05-2020 20:15:18 20.3 C 20 %
Sensor: Nr:Datum:Temp:Feuchte:
Aussen-T/F 1851 26-05-2020 20:25:18 19.8 C 20 %
1852 26-05-2020 20:35:18 19.4 C 20 %
1853 26-05-2020 20:45:17 18.2 C 22 %
1854 26-05-2020 20:55:17 17.3 C 25 %
1855 26-05-2020 21:05:17 17 C 25 %
1856 26-05-2020 21:15:17 16.5 C 25 %
1857 26-05-2020 21:25:17 16.1 C 25 %
1858 26-05-2020 21:35:18 15.8 C 25 %
1859 26-05-2020 21:45:18 15.4 C 26 %
1860 26-05-2020 21:55:18 15.2 C 26 %
1861 26-05-2020 22:05:17 15 C 26 %
1862 26-05-2020 22:15:17 15.2 C 26 %
1863 26-05-2020 22:25:17 15 C 27 %
1864 26-05-2020 22:35:17 14.6 C 29 %
1865 26-05-2020 22:45:18 14.2 C 29 %
1866 26-05-2020 22:55:18 13.8 C 30 %
1867 26-05-2020 23:05:18 13.1 C 31 %
1868 26-05-2020 23:15:17 13.1 C 31 %
1869 26-05-2020 23:25:17 12.5 C 33 %
1870 26-05-2020 23:35:18 12.3 C 33 %
1871 26-05-2020 23:45:17 12 C 34 %
1872 26-05-2020 23:55:17 11.7 C 35 %
1873 27-05-2020 00:05:18 11.5 C 35 %
1874 27-05-2020 00:15:17 11.5 C 36 %
1875 27-05-2020 00:25:17 11.4 C 36 %
Sensor: Nr:Datum:Temp:Feuchte:
Aussen-T/F 1876 27-05-2020 00:35:17 11.1 C 36 %
1877 27-05-2020 00:45:18 10.9 C 37 %
1878 27-05-2020 00:55:18 10.9 C 37 %
1879 27-05-2020 01:05:18 10.5 C 37 %
1880 27-05-2020 01:15:18 10.2 C 38 %
1881 27-05-2020 01:25:18 10 C 38 %
1882 27-05-2020 01:35:17 9.7 C 39 %
1883 27-05-2020 01:45:17 9.7 C 39 %
1884 27-05-2020 01:55:18 9.5 C 39 %
1885 27-05-2020 02:05:17 9.5 C 40 %
1886 27-05-2020 02:15:17 9.4 C 40 %
1887 27-05-2020 02:25:18 9.1 C 40 %
1888 27-05-2020 02:35:17 9.1 C 40 %
1889 27-05-2020 02:45:17 9.4 C 40 %
1890 27-05-2020 02:55:17 9.4 C 40 %
1891 27-05-2020 03:05:18 9.1 C 40 %
1892 27-05-2020 03:15:18 8.9 C 41 %
1893 27-05-2020 03:25:18 8.9 C 41 %
1894 27-05-2020 03:35:18 8.6 C 41 %
1895 27-05-2020 03:45:17 8.4 C 41 %
1896 27-05-2020 03:55:17 8.4 C 42 %
1897 27-05-2020 04:05:17 8.4 C 42 %
1898 27-05-2020 04:15:18 8.4 C 42 %
1899 27-05-2020 04:25:18 8.2 C 42 %
1900 27-05-2020 04:35:18 8.2 C 43 %
Sensor: Nr:Datum:Temp:Feuchte:
Aussen-T/F 1901 27-05-2020 04:45:17 8 C 43 %
1902 27-05-2020 04:55:17 7.8 C 44 %
1903 27-05-2020 05:05:18 7.7 C 44 %
1904 27-05-2020 05:15:17 7.5 C 44 %
1905 27-05-2020 05:25:17 7.4 C 45 %
1906 27-05-2020 05:35:18 7.4 C 45 %
1907 27-05-2020 05:45:17 7.4 C 45 %
1908 27-05-2020 05:55:17 7.2 C 45 %
1909 27-05-2020 06:05:17 7.5 C 46 %
1910 27-05-2020 06:15:17 7.7 C 45 %
1911 27-05-2020 06:25:17 7.6 C 45 %
1912 27-05-2020 06:35:18 7.6 C 45 %
1913 27-05-2020 06:45:17 7.7 C 45 %
1914 27-05-2020 06:55:17 7.7 C 45 %
1915 27-05-2020 07:05:17 8 C 45 %
1916 27-05-2020 07:15:17 8.2 C 44 %
1917 27-05-2020 07:25:18 8.4 C 44 %
1918 27-05-2020 07:35:17 8.6 C 44 %
1919 27-05-2020 07:45:17 8.7 C 44 %
1920 27-05-2020 07:55:17 8.9 C 44 %
1921 27-05-2020 08:05:18 9.1 C 43 %
1922 27-05-2020 08:15:18 9.4 C 43 %
1923 27-05-2020 08:25:18 9.8 C 42 %
1924 27-05-2020 08:35:18 10.2 C 41 %
1925 27-05-2020 08:45:17 10.7 C 40 %
Sensor: Nr:Datum:Temp:Feuchte:
Aussen-T/F 1926 27-05-2020 08:55:17 10.8 C 40 %
1927 27-05-2020 09:05:17 11.1 C 39 %
1928 27-05-2020 09:15:17 12.2 C 37 %
1929 27-05-2020 09:25:17 12.7 C 37 %
1930 27-05-2020 09:35:17 13.7 C 36 %
1931 27-05-2020 09:45:18 14.7 C 35 %
1932 27-05-2020 09:55:18 15 C 33 %
1933 27-05-2020 10:05:17 15.5 C 32 %
1934 27-05-2020 10:15:17 15.8 C 32 %
1935 27-05-2020 10:25:17 16.8 C 31 %
1936 27-05-2020 10:35:17 17.3 C 30 %
1937 27-05-2020 10:45:17 18.2 C 28 %
1938 27-05-2020 10:55:17 19.3 C 23 %
1939 27-05-2020 11:05:18 19.9 C 24 %
1940 27-05-2020 11:15:17 20.4 C 21 %
1941 27-05-2020 11:25:17 20.4 C 20 %
1942 27-05-2020 11:35:17 20.2 C 20 %
1943 27-05-2020 11:45:17 20.9 C 20 %
1944 27-05-2020 11:55:17 20.7 C 20 %
1945 27-05-2020 12:05:18 21.2 C 20 %
1946 27-05-2020 12:15:18 21.5 C 20 %
1947 27-05-2020 12:25:18 21.8 C 20 %
1948 27-05-2020 12:35:18 21.8 C 20 %
1949 27-05-2020 12:45:17 22.6 C 20 %
1950 27-05-2020 12:55:17 23.4 C 20 %
Sensor: Nr:Datum:Temp:Feuchte:
Aussen-T/F 1951 27-05-2020 13:05:17 22.3 C 20 %
1952 27-05-2020 13:15:17 22.4 C 20 %
1953 27-05-2020 13:25:17 23.3 C 20 %
1954 27-05-2020 13:35:17 25.5 C 20 %
1955 27-05-2020 13:45:17 27.4 C 20 %
1956 27-05-2020 13:55:17 29.8 C 20 %
1957 27-05-2020 14:05:17 29.1 C 20 %
1958 27-05-2020 14:15:17 28.9 C 20 %
1959 27-05-2020 14:25:17 30.4 C 20 %
1960 27-05-2020 14:35:17 30.1 C 20 %
1961 27-05-2020 14:45:17 32.8 C 20 %
1962 27-05-2020 14:55:17 32.7 C 20 %
1963 27-05-2020 15:05:17 32 C 20 %
1964 27-05-2020 15:15:17 33.5 C 20 %
1965 27-05-2020 15:25:17 32 C 20 %
1966 27-05-2020 15:35:17 31.9 C 20 %
1967 27-05-2020 15:45:17 33 C 20 %
1968 27-05-2020 15:55:17 32.7 C 20 %
1969 27-05-2020 16:05:18 33 C 20 %
1970 27-05-2020 16:15:17 30.4 C 20 %
1971 27-05-2020 16:25:17 30.5 C 20 %
1972 27-05-2020 16:35:18 33.2 C 20 %
1973 27-05-2020 16:45:18 34.4 C 20 %
1974 27-05-2020 16:55:18 32.6 C 20 %
1975 27-05-2020 17:05:17 31.6 C 20 %
Sensor: Nr:Datum:Temp:Feuchte:
Aussen-T/F 1976 27-05-2020 17:15:18 32.7 C 20 %
1977 27-05-2020 17:25:18 32.4 C 20 %
1978 27-05-2020 17:35:17 30.2 C 20 %
1979 27-05-2020 17:45:17 32.4 C 20 %
1980 27-05-2020 17:55:17 32.1 C 20 %
1981 27-05-2020 18:05:17 31.3 C 20 %
1982 27-05-2020 18:15:17 30.8 C 20 %
1983 27-05-2020 18:25:17 26.9 C 20 %
1984 27-05-2020 18:35:17 24.9 C 20 %
1985 27-05-2020 18:45:17 24.6 C 20 %
1986 27-05-2020 18:55:17 24 C 20 %
1987 27-05-2020 19:05:17 24.4 C 20 %
1988 27-05-2020 19:15:17 24.9 C 20 %
1989 27-05-2020 19:25:17 24.5 C 20 %
1990 27-05-2020 19:35:17 24.1 C 20 %
1991 27-05-2020 19:45:17 23.7 C 20 %
1992 27-05-2020 19:55:17 23.6 C 20 %
1993 27-05-2020 20:05:17 23.5 C 20 %
1994 27-05-2020 20:15:17 23.5 C 20 %
1995 27-05-2020 20:25:17 22.8 C 20 %
1996 27-05-2020 20:35:17 22.8 C 20 %
1997 27-05-2020 20:45:17 22.1 C 20 %
1998 27-05-2020 20:55:17 21.6 C 20 %
1999 27-05-2020 21:05:18 21 C 20 %
2000 27-05-2020 21:15:17 20.2 C 20 %
Sensor: Nr:Datum:Temp:Feuchte:
Aussen-T/F 2001 27-05-2020 21:25:17 19.4 C 20 %
2002 27-05-2020 21:35:18 18.6 C 22 %
2003 27-05-2020 21:45:18 18.7 C 22 %
2004 27-05-2020 21:55:18 18.7 C 22 %
2005 27-05-2020 22:05:18 18.7 C 22 %
2006 27-05-2020 22:15:17 18.6 C 23 %
2007 27-05-2020 22:25:17 17.9 C 24 %
2008 27-05-2020 22:35:17 17.7 C 25 %
2009 27-05-2020 22:45:18 17.5 C 25 %
2010 27-05-2020 22:55:18 17.5 C 25 %
2011 27-05-2020 23:05:17 17.5 C 25 %
2012 27-05-2020 23:15:17 16.9 C 26 %
2013 27-05-2020 23:25:17 16.5 C 27 %
2014 27-05-2020 23:35:18 16.4 C 27 %
2015 27-05-2020 23:45:17 16.1 C 28 %
2016 27-05-2020 23:55:17 16 C 28 %
2017 28-05-2020 00:05:18 16 C 29 %
2018 28-05-2020 00:15:17 16 C 29 %
2019 28-05-2020 00:25:17 15.8 C 30 %
2020 28-05-2020 00:35:18 16.2 C 29 %
2021 28-05-2020 00:45:18 15.9 C 30 %
2022 28-05-2020 00:55:18 15.7 C 30 %
2023 28-05-2020 01:05:18 16.2 C 28 %
2024 28-05-2020 01:15:17 16.2 C 29 %
2025 28-05-2020 01:25:17 15.9 C 30 %
Sensor: Nr:Datum:Temp:Feuchte:
Aussen-T/F 2026 28-05-2020 01:35:18 15.8 C 30 %
2027 28-05-2020 01:45:18 16 C 29 %
2028 28-05-2020 01:55:18 15.6 C 30 %
2029 28-05-2020 02:05:17 15.7 C 30 %
2030 28-05-2020 02:15:17 15.5 C 30 %
2031 28-05-2020 02:25:17 15.6 C 30 %
2032 28-05-2020 02:35:18 15.5 C 30 %
2033 28-05-2020 02:45:17 15.5 C 30 %
2034 28-05-2020 02:55:17 15.5 C 30 %
2035 28-05-2020 03:05:17 15.4 C 31 %
2036 28-05-2020 03:15:18 15.2 C 31 %
2037 28-05-2020 03:25:18 15.2 C 31 %
2038 28-05-2020 03:35:18 15 C 31 %
2039 28-05-2020 03:45:17 14.9 C 32 %
2040 28-05-2020 03:55:17 15.2 C 31 %
2041 28-05-2020 04:05:17 15.2 C 31 %
2042 28-05-2020 04:15:18 15 C 31 %
2043 28-05-2020 04:25:18 14.9 C 32 %
2044 28-05-2020 04:35:18 14.7 C 31 %
2045 28-05-2020 04:45:17 14.1 C 32 %
2046 28-05-2020 04:55:17 13.8 C 32 %
2047 28-05-2020 05:05:17 13.8 C 32 %
2048 28-05-2020 05:15:18 13.3 C 31 %
2049 28-05-2020 05:25:18 12.9 C 33 %
2050 28-05-2020 05:35:17 12.9 C 32 %
Sensor: Nr:Datum:Temp:Feuchte:
Aussen-T/F 2051 28-05-2020 05:45:18 12.4 C 33 %
2052 28-05-2020 05:55:18 11.9 C 34 %
2053 28-05-2020 06:05:18 11.8 C 34 %
2054 28-05-2020 06:15:18 12.3 C 33 %
2055 28-05-2020 06:25:18 12.4 C 32 %
2056 28-05-2020 06:35:18 12.5 C 32 %
2057 28-05-2020 06:45:17 12.5 C 32 %
2058 28-05-2020 06:55:17 12.3 C 32 %
2059 28-05-2020 07:05:17 12.2 C 32 %
2060 28-05-2020 07:15:17 12.2 C 32 %
2061 28-05-2020 07:25:17 12.1 C 32 %
2062 28-05-2020 07:35:17 12 C 32 %
2063 28-05-2020 07:45:17 12.3 C 32 %
2064 28-05-2020 07:55:17 13 C 30 %
2065 28-05-2020 08:05:18 13.1 C 30 %
2066 28-05-2020 08:15:18 13.3 C 30 %
2067 28-05-2020 08:25:18 13.5 C 30 %
2068 28-05-2020 08:35:17 13.6 C 30 %
2069 28-05-2020 08:45:17 13.9 C 30 %
2070 28-05-2020 08:55:17 14.2 C 29 %
2071 28-05-2020 09:05:18 14.4 C 30 %
2072 28-05-2020 09:15:18 14.8 C 29 %
2073 28-05-2020 09:25:18 15.3 C 27 %
2074 28-05-2020 09:35:18 15.9 C 27 %
2075 28-05-2020 09:45:17 16.1 C 26 %
Sensor: Nr:Datum:Temp:Feuchte:
Aussen-T/F 2076 28-05-2020 09:55:17 16.4 C 26 %
2077 28-05-2020 10:05:17 16.9 C 26 %
2078 28-05-2020 10:15:18 17.1 C 25 %
2079 28-05-2020 10:25:18 17.6 C 25 %
2080 28-05-2020 10:35:17 18.1 C 24 %
2081 28-05-2020 10:45:18 18 C 22 %
2082 28-05-2020 10:55:18 18.4 C 20 %
2083 28-05-2020 11:05:18 18.9 C 20 %
2084 28-05-2020 11:15:17 19.1 C 20 %
2085 28-05-2020 11:25:17 19.3 C 20 %
2086 28-05-2020 11:35:18 20 C 20 %
2087 28-05-2020 11:45:18 19.7 C 20 %
2088 28-05-2020 11:55:18 20 C 20 %
2089 28-05-2020 12:05:17 20.5 C 20 %
2090 28-05-2020 12:15:17 20 C 20 %
2091 28-05-2020 12:25:17 20.3 C 20 %
2092 28-05-2020 12:35:17 20.4 C 20 %
2093 28-05-2020 12:45:17 21.9 C 20 %
2094 28-05-2020 12:55:17 21.6 C 20 %
2095 28-05-2020 13:05:17 21.5 C 20 %
2096 28-05-2020 13:15:18 22 C 20 %
2097 28-05-2020 13:25:18 22.9 C 20 %
2098 28-05-2020 13:35:18 24.3 C 20 %
2099 28-05-2020 13:45:17 25.3 C 20 %
2100 28-05-2020 13:55:18 28.1 C 20 %
Sensor: Nr:Datum:Temp:Feuchte:
Aussen-T/F 2101 28-05-2020 14:05:17 28.2 C 20 %
2102 28-05-2020 14:15:17 27.3 C 20 %
2103 28-05-2020 14:25:17 28.1 C 20 %
2104 28-05-2020 14:35:18 28.6 C 20 %
2105 28-05-2020 14:45:17 30 C 20 %
2106 28-05-2020 14:55:17 31.3 C 20 %
2107 28-05-2020 15:05:18 28.6 C 20 %
2108 28-05-2020 15:15:17 30.1 C 20 %
2109 28-05-2020 15:25:17 32.3 C 20 %
2110 28-05-2020 15:35:17 28 C 20 %
2111 28-05-2020 15:45:18 28 C 20 %
2112 28-05-2020 15:55:18 30 C 20 %
2113 28-05-2020 16:05:18 28.7 C 20 %
2114 28-05-2020 16:15:18 29.2 C 20 %
2115 28-05-2020 16:25:18 30.2 C 20 %
2116 28-05-2020 16:35:17 28.5 C 20 %
2117 28-05-2020 16:45:17 29 C 20 %
2118 28-05-2020 16:55:17 28.8 C 20 %
2119 28-05-2020 17:05:18 27 C 20 %
2120 28-05-2020 17:15:17 27.3 C 20 %
2121 28-05-2020 17:25:17 29.4 C 20 %
2122 28-05-2020 17:35:18 28.1 C 20 %
2123 28-05-2020 17:45:18 27.1 C 20 %
2124 28-05-2020 17:55:18 26.9 C 20 %
2125 28-05-2020 18:05:17 28.4 C 20 %
Sensor: Nr:Datum:Temp:Feuchte:
Aussen-T/F 2126 28-05-2020 18:15:18 27.2 C 20 %
2127 28-05-2020 18:25:18 24 C 20 %
2128 28-05-2020 18:35:18 23.2 C 20 %
2129 28-05-2020 18:45:17 22.9 C 20 %
2130 28-05-2020 18:55:17 22.3 C 20 %
2131 28-05-2020 19:05:17 22.1 C 20 %
2132 28-05-2020 19:15:17 22 C 20 %
2133 28-05-2020 19:25:17 21.7 C 20 %
2134 28-05-2020 19:35:18 21.5 C 20 %
2135 28-05-2020 19:45:17 21.3 C 20 %
2136 28-05-2020 19:55:17 21 C 20 %
2137 28-05-2020 20:05:17 20.9 C 20 %
2138 28-05-2020 20:15:18 20.6 C 20 %
2139 28-05-2020 20:25:18 20.3 C 20 %
2140 28-05-2020 20:35:18 20.2 C 20 %
2141 28-05-2020 20:45:17 20 C 20 %
2142 28-05-2020 20:55:17 19.7 C 20 %
2143 28-05-2020 21:05:18 19.1 C 20 %
2144 28-05-2020 21:15:17 18.9 C 20 %
2145 28-05-2020 21:25:17 18.6 C 20 %
2146 28-05-2020 21:35:17 17 C 20 %
2147 28-05-2020 21:45:17 15.8 C 20 %
2148 28-05-2020 21:55:17 15 C 20 %
2149 28-05-2020 22:05:18 14.7 C 20 %
2150 28-05-2020 22:15:18 14.7 C 20 %
Sensor: Nr:Datum:Temp:Feuchte:
Aussen-T/F 2151 28-05-2020 22:25:18 14.3 C 20 %
2152 28-05-2020 22:35:17 14.3 C 20 %
2153 28-05-2020 22:45:17 14.1 C 20 %
2154 28-05-2020 22:55:17 13.7 C 20 %
2155 28-05-2020 23:05:18 13.5 C 20 %
2156 28-05-2020 23:15:17 12.5 C 24 %
2157 28-05-2020 23:25:17 12.2 C 25 %
2158 28-05-2020 23:35:17 12.6 C 25 %
2159 28-05-2020 23:45:17 12.1 C 25 %
2160 28-05-2020 23:55:17 12.2 C 25 %
2161 29-05-2020 00:05:17 12 C 25 %
2162 29-05-2020 00:15:18 12 C 25 %
2163 29-05-2020 00:25:18 11.6 C 27 %
2164 29-05-2020 00:35:18 11 C 27 %
2165 29-05-2020 00:45:17 10.8 C 29 %
2166 29-05-2020 00:55:17 10.5 C 30 %
2167 29-05-2020 01:05:17 10.2 C 30 %
2168 29-05-2020 01:15:17 9.8 C 31 %
2169 29-05-2020 01:25:17 9.8 C 31 %
2170 29-05-2020 01:35:17 9.5 C 32 %
2171 29-05-2020 01:45:18 9.3 C 32 %
2172 29-05-2020 01:55:18 9.2 C 33 %
2173 29-05-2020 02:05:17 9.2 C 32 %
2174 29-05-2020 02:15:18 9 C 33 %
2175 29-05-2020 02:25:18 8.7 C 34 %
Sensor: Nr:Datum:Temp:Feuchte:
Aussen-T/F 2176 29-05-2020 02:35:17 8.6 C 34 %
2177 29-05-2020 02:45:17 8.2 C 35 %
2178 29-05-2020 02:55:17 8.2 C 35 %
2179 29-05-2020 03:05:17 7.9 C 36 %
2180 29-05-2020 03:15:17 7.8 C 36 %
2181 29-05-2020 03:25:17 7.6 C 36 %
2182 29-05-2020 03:35:18 7.6 C 36 %
2183 29-05-2020 03:45:17 7.6 C 36 %
2184 29-05-2020 03:55:17 7.5 C 36 %
2185 29-05-2020 04:05:17 7.2 C 37 %
2186 29-05-2020 04:15:18 7 C 37 %
2187 29-05-2020 04:25:18 6.8 C 39 %
2188 29-05-2020 04:35:18 6.7 C 39 %
2189 29-05-2020 04:45:17 6.5 C 39 %
2190 29-05-2020 04:55:17 6.4 C 40 %
2191 29-05-2020 05:05:18 6.4 C 40 %
2192 29-05-2020 05:15:17 6.5 C 40 %
2193 29-05-2020 05:25:18 6.3 C 40 %
2194 29-05-2020 05:35:17 6.2 C 40 %
2195 29-05-2020 05:45:17 6.2 C 41 %
2196 29-05-2020 05:55:17 6.2 C 41 %
2197 29-05-2020 06:05:18 6.4 C 41 %
2198 29-05-2020 06:15:17 6.4 C 41 %
2199 29-05-2020 06:25:17 6.4 C 41 %
2200 29-05-2020 06:35:18 6.5 C 41 %
Sensor: Nr:Datum:Temp:Feuchte:
Aussen-T/F 2201 29-05-2020 06:45:17 6.5 C 41 %
2202 29-05-2020 06:55:17 6.7 C 41 %
2203 29-05-2020 07:05:18 6.9 C 41 %
2204 29-05-2020 07:15:17 7.2 C 41 %
2205 29-05-2020 07:25:17 7.1 C 41 %
2206 29-05-2020 07:35:17 7.4 C 41 %
2207 29-05-2020 07:45:17 7.6 C 41 %
2208 29-05-2020 07:55:17 7.8 C 41 %
2209 29-05-2020 08:05:17 8.1 C 40 %
2210 29-05-2020 08:15:17 8.6 C 40 %
2211 29-05-2020 08:25:17 9 C 39 %
2212 29-05-2020 08:35:18 9.6 C 38 %
2213 29-05-2020 08:45:17 10.1 C 37 %
2214 29-05-2020 08:55:17 10.7 C 36 %
2215 29-05-2020 09:05:17 11.1 C 36 %
2216 29-05-2020 09:15:18 11.8 C 35 %
2217 29-05-2020 09:25:18 12.5 C 34 %
2218 29-05-2020 09:35:17 13.9 C 31 %
2219 29-05-2020 09:45:18 14.6 C 30 %
2220 29-05-2020 09:55:18 15.8 C 27 %
2221 29-05-2020 10:05:18 16.4 C 26 %
2222 29-05-2020 10:15:18 16.7 C 25 %
2223 29-05-2020 10:25:18 17.3 C 25 %
2224 29-05-2020 10:35:17 17.8 C 24 %
2225 29-05-2020 10:45:17 18.7 C 21 %
Sensor: Nr:Datum:Temp:Feuchte:
Aussen-T/F 2226 29-05-2020 10:55:17 19.1 C 20 %
2227 29-05-2020 11:05:17 19.2 C 20 %
2228 29-05-2020 11:15:18 19.9 C 20 %
2229 29-05-2020 11:25:18 20.6 C 20 %
2230 29-05-2020 11:35:18 20.8 C 20 %
2231 29-05-2020 11:45:18 20.3 C 20 %
2232 29-05-2020 11:55:18 20 C 20 %
2233 29-05-2020 12:05:17 20.3 C 20 %
2234 29-05-2020 12:15:18 20.8 C 20 %
2235 29-05-2020 12:25:18 21.2 C 20 %
2236 29-05-2020 12:35:17 20.6 C 20 %
2237 29-05-2020 12:45:17 21.8 C 20 %
2238 29-05-2020 12:55:18 22.6 C 20 %
2239 29-05-2020 13:05:18 22.2 C 20 %
2240 29-05-2020 13:15:17 22.5 C 20 %
2241 29-05-2020 13:25:18 22.7 C 20 %
2242 29-05-2020 13:35:17 24.7 C 20 %
2243 29-05-2020 13:45:17 25.7 C 20 %
2244 29-05-2020 13:55:17 26.9 C 20 %
2245 29-05-2020 14:05:17 27.3 C 20 %
2246 29-05-2020 14:15:17 26.2 C 20 %
2247 29-05-2020 14:25:17 27.7 C 20 %
2248 29-05-2020 14:35:18 25.3 C 20 %
2249 29-05-2020 14:45:17 28.9 C 20 %
2250 29-05-2020 14:55:17 28.2 C 20 %
Sensor: Nr:Datum:Temp:Feuchte:
Aussen-T/F 2251 29-05-2020 15:05:17 32 C 20 %
2252 29-05-2020 15:15:18 28 C 20 %
2253 29-05-2020 15:25:18 28.4 C 20 %
2254 29-05-2020 15:35:18 31 C 20 %
2255 29-05-2020 15:45:17 26.5 C 20 %
2256 29-05-2020 15:55:17 29.4 C 20 %
2257 29-05-2020 16:05:17 27.6 C 20 %
2258 29-05-2020 16:15:17 29 C 20 %
2259 29-05-2020 16:25:17 28.9 C 20 %
2260 29-05-2020 16:35:18 27.4 C 20 %
2261 29-05-2020 16:45:17 29 C 20 %
2262 29-05-2020 16:55:17 28 C 20 %
2263 29-05-2020 17:05:17 27.2 C 20 %
2264 29-05-2020 17:15:18 28.8 C 20 %
2265 29-05-2020 17:25:18 28.8 C 20 %
2266 29-05-2020 17:35:18 26.2 C 20 %
2267 29-05-2020 17:45:18 25.7 C 20 %
2268 29-05-2020 17:55:18 27.1 C 20 %
2269 29-05-2020 18:05:17 27 C 20 %
2270 29-05-2020 18:15:18 26.1 C 20 %
2271 29-05-2020 18:25:18 23.7 C 20 %
2272 29-05-2020 18:35:18 23.2 C 20 %
2273 29-05-2020 18:45:17 22.9 C 20 %
2274 29-05-2020 18:55:17 22.5 C 20 %
2275 29-05-2020 19:05:17 22.5 C 20 %
Sensor: Nr:Datum:Temp:Feuchte:
Aussen-T/F 2276 29-05-2020 19:15:17 22.1 C 20 %
2277 29-05-2020 19:25:17 22 C 20 %
2278 29-05-2020 19:35:18 21.8 C 20 %
2279 29-05-2020 19:45:17 21.7 C 20 %
2280 29-05-2020 19:55:17 21.5 C 20 %
2281 29-05-2020 20:05:17 21.3 C 20 %
2282 29-05-2020 20:15:17 21.2 C 20 %
2283 29-05-2020 20:25:17 20.8 C 20 %
2284 29-05-2020 20:35:17 20.5 C 20 %
2285 29-05-2020 20:45:17 20.2 C 20 %
2286 29-05-2020 20:55:17 19.4 C 20 %
2287 29-05-2020 21:05:18 18.2 C 20 %
2288 29-05-2020 21:15:17 17.4 C 20 %
2289 29-05-2020 21:25:18 16.8 C 20 %
2290 29-05-2020 21:35:17 16.4 C 20 %
2291 29-05-2020 21:45:17 16.1 C 20 %
2292 29-05-2020 21:55:17 16 C 20 %
2293 29-05-2020 22:05:18 15.8 C 20 %
2294 29-05-2020 22:15:17 15.4 C 20 %
2295 29-05-2020 22:25:17 15.1 C 20 %
2296 29-05-2020 22:35:18 14.9 C 20 %
2297 29-05-2020 22:45:17 14.7 C 20 %
2298 29-05-2020 22:55:17 14.5 C 20 %
2299 29-05-2020 23:05:18 14.5 C 20 %
2300 29-05-2020 23:15:18 13.9 C 20 %
Sensor: Nr:Datum:Temp:Feuchte:
Aussen-T/F 2301 29-05-2020 23:25:18 13.8 C 20 %
2302 29-05-2020 23:35:17 13.7 C 20 %
2303 29-05-2020 23:45:17 13.7 C 20 %
2304 29-05-2020 23:55:17 13.5 C 20 %
2305 30-05-2020 00:05:17 13.6 C 20 %
2306 30-05-2020 00:15:17 13.3 C 21 %
2307 30-05-2020 00:25:17 12.9 C 24 %
2308 30-05-2020 00:35:18 12.9 C 24 %
2309 30-05-2020 00:45:17 12.8 C 24 %
2310 30-05-2020 00:55:17 12.8 C 24 %
2311 30-05-2020 01:05:17 12.7 C 25 %
2312 30-05-2020 01:15:17 12.8 C 24 %
2313 30-05-2020 01:25:18 12.2 C 25 %
2314 30-05-2020 01:35:18 12.2 C 25 %
2315 30-05-2020 01:45:17 11.6 C 26 %
2316 30-05-2020 01:55:17 11.5 C 26 %
2317 30-05-2020 02:05:17 11.4 C 26 %
2318 30-05-2020 02:15:17 11.5 C 27 %
2319 30-05-2020 02:25:17 11.3 C 27 %
2320 30-05-2020 02:35:17 11.3 C 27 %
2321 30-05-2020 02:45:17 11.3 C 27 %
2322 30-05-2020 02:55:17 11.2 C 26 %
2323 30-05-2020 03:05:17 11.1 C 27 %
2324 30-05-2020 03:15:17 10.9 C 27 %
2325 30-05-2020 03:25:17 10.4 C 28 %
Sensor: Nr:Datum:Temp:Feuchte:
Aussen-T/F 2326 30-05-2020 03:35:18 10.4 C 28 %
2327 30-05-2020 03:45:17 10.1 C 29 %
2328 30-05-2020 03:55:17 10.1 C 29 %
2329 30-05-2020 04:05:17 9.8 C 30 %
2330 30-05-2020 04:15:17 9.4 C 31 %
2331 30-05-2020 04:25:17 9.1 C 31 %
2332 30-05-2020 04:35:18 9.1 C 32 %
2333 30-05-2020 04:45:18 8.8 C 33 %
2334 30-05-2020 04:55:18 8.6 C 33 %
2335 30-05-2020 05:05:17 8.4 C 34 %
2336 30-05-2020 05:15:17 8.2 C 34 %
2337 30-05-2020 05:25:17 8 C 35 %
2338 30-05-2020 05:35:17 7.8 C 36 %
2339 30-05-2020 05:45:17 7.6 C 36 %
2340 30-05-2020 05:55:17 7.6 C 36 %
2341 30-05-2020 06:05:17 7.5 C 36 %
2342 30-05-2020 06:15:18 7.5 C 37 %
2343 30-05-2020 06:25:18 7.5 C 38 %
2344 30-05-2020 06:35:17 7.7 C 38 %
2345 30-05-2020 06:45:17 7.9 C 38 %
2346 30-05-2020 06:55:18 8 C 38 %
2347 30-05-2020 07:05:18 8.1 C 38 %
2348 30-05-2020 07:15:17 8.1 C 38 %
2349 30-05-2020 07:25:17 8.5 C 38 %
2350 30-05-2020 07:35:17 8.5 C 38 %
Sensor: Nr:Datum:Temp:Feuchte:
Aussen-T/F 2351 30-05-2020 07:45:17 8.8 C 38 %
2352 30-05-2020 07:55:17 9 C 38 %
2353 30-05-2020 08:05:17 9.6 C 37 %
2354 30-05-2020 08:15:17 9.8 C 37 %
2355 30-05-2020 08:25:17 10.4 C 36 %
2356 30-05-2020 08:35:18 11.1 C 35 %
2357 30-05-2020 08:45:17 11.5 C 35 %
2358 30-05-2020 08:55:17 11.9 C 35 %
2359 30-05-2020 09:05:18 12.7 C 33 %
2360 30-05-2020 09:15:17 13.2 C 31 %
2361 30-05-2020 09:25:17 14.2 C 30 %
2362 30-05-2020 09:35:17 15.5 C 26 %
2363 30-05-2020 09:45:17 17 C 22 %
2364 30-05-2020 09:55:17 17.8 C 21 %
2365 30-05-2020 10:05:17 18.3 C 20 %
2366 30-05-2020 10:15:17 18.7 C 20 %
2367 30-05-2020 10:25:17 18.7 C 20 %
2368 30-05-2020 10:35:18 19.1 C 20 %
2369 30-05-2020 10:45:17 19.7 C 20 %
2370 30-05-2020 10:55:17 20.1 C 20 %
2371 30-05-2020 11:05:18 19.9 C 20 %
2372 30-05-2020 11:15:17 19.6 C 20 %
2373 30-05-2020 11:25:17 19.7 C 20 %
2374 30-05-2020 11:35:18 20.2 C 20 %
2375 30-05-2020 11:45:17 20.3 C 20 %
Sensor: Nr:Datum:Temp:Feuchte:
Aussen-T/F 2376 30-05-2020 11:55:17 20.1 C 20 %
2377 30-05-2020 12:05:18 20.9 C 20 %
2378 30-05-2020 12:15:17 20.7 C 20 %
2379 30-05-2020 12:25:17 21.3 C 20 %
2380 30-05-2020 12:35:17 21.6 C 20 %
2381 30-05-2020 12:45:18 22.3 C 20 %
2382 30-05-2020 12:55:18 23.4 C 20 %
2383 30-05-2020 13:05:18 21.7 C 20 %
2384 30-05-2020 13:15:17 22.8 C 20 %
2385 30-05-2020 13:25:17 24.1 C 20 %
2386 30-05-2020 13:35:17 23.9 C 20 %
2387 30-05-2020 13:45:18 23.8 C 20 %
2388 30-05-2020 13:55:18 27.1 C 20 %
2389 30-05-2020 14:05:17 26.5 C 20 %
2390 30-05-2020 14:15:17 26.3 C 20 %
2391 30-05-2020 14:25:17 24.6 C 20 %
2392 30-05-2020 14:35:17 26.8 C 20 %
2393 30-05-2020 14:45:17 29.1 C 20 %
2394 30-05-2020 14:55:17 26.8 C 20 %
2395 30-05-2020 15:05:17 28.1 C 20 %
2396 30-05-2020 15:15:17 25.6 C 20 %
2397 30-05-2020 15:25:17 27.3 C 20 %
2398 30-05-2020 15:35:18 24.2 C 20 %
2399 30-05-2020 15:45:17 25 C 20 %
2400 30-05-2020 15:55:17 25.6 C 20 %
Sensor: Nr:Datum:Temp:Feuchte:
Aussen-T/F 2401 30-05-2020 16:05:18 26.1 C 20 %
2402 30-05-2020 16:15:17 26 C 20 %
2403 30-05-2020 16:25:17 25.7 C 20 %
2404 30-05-2020 16:35:17 23.7 C 20 %
2405 30-05-2020 16:45:17 25.7 C 20 %
2406 30-05-2020 16:55:17 26.9 C 20 %
2407 30-05-2020 17:05:17 22.7 C 20 %
2408 30-05-2020 17:15:17 25.4 C 20 %
2409 30-05-2020 17:25:17 26.3 C 20 %
2410 30-05-2020 17:35:18 24.7 C 20 %
2411 30-05-2020 17:45:17 24.7 C 20 %
2412 30-05-2020 17:55:17 22.3 C 20 %
2413 30-05-2020 18:05:17 24.7 C 20 %
2414 30-05-2020 18:15:17 22.7 C 20 %
2415 30-05-2020 18:25:17 22.3 C 20 %
2416 30-05-2020 18:35:17 22.3 C 20 %
2417 30-05-2020 18:45:17 22 C 20 %
2418 30-05-2020 18:55:17 22 C 20 %
2419 30-05-2020 19:05:17 21.9 C 20 %
2420 30-05-2020 19:15:18 20.9 C 20 %
2421 30-05-2020 19:25:18 20.9 C 20 %
2422 30-05-2020 19:35:17 20.5 C 20 %
2423 30-05-2020 19:45:18 19.9 C 20 %
2424 30-05-2020 19:55:18 19.3 C 20 %
2425 30-05-2020 20:05:17 19.7 C 20 %
Sensor: Nr:Datum:Temp:Feuchte:
Aussen-T/F 2426 30-05-2020 20:15:17 19.4 C 20 %
2427 30-05-2020 20:25:17 19.3 C 20 %
2428 30-05-2020 20:35:18 18.9 C 20 %
2429 30-05-2020 20:45:17 18.4 C 20 %
2430 30-05-2020 20:55:17 18.2 C 20 %
2431 30-05-2020 21:05:17 17 C 20 %
2432 30-05-2020 21:15:17 16.4 C 20 %
2433 30-05-2020 21:25:17 15.8 C 20 %
2434 30-05-2020 21:35:18 15.2 C 20 %
2435 30-05-2020 21:45:17 15 C 20 %
2436 30-05-2020 21:55:17 14.8 C 20 %
2437 30-05-2020 22:05:17 14.5 C 20 %
2438 30-05-2020 22:15:17 14.1 C 20 %
2439 30-05-2020 22:25:17 13.8 C 20 %
2440 30-05-2020 22:35:17 13.8 C 20 %
2441 30-05-2020 22:45:18 14.2 C 20 %
2442 30-05-2020 22:55:18 14 C 20 %
2443 30-05-2020 23:05:17 13.6 C 20 %
2444 30-05-2020 23:15:17 13.6 C 20 %
2445 30-05-2020 23:25:17 13.4 C 20 %
2446 30-05-2020 23:35:17 13.3 C 20 %
2447 30-05-2020 23:45:17 13.3 C 20 %
2448 30-05-2020 23:55:17 13.1 C 20 %
2449 31-05-2020 00:05:17 12.9 C 23 %
2450 31-05-2020 00:15:17 12.5 C 24 %
Sensor: Nr:Datum:Temp:Feuchte:
Aussen-T/F 2451 31-05-2020 00:25:17 12 C 25 %
2452 31-05-2020 00:35:17 11.4 C 27 %
2453 31-05-2020 00:45:17 11.2 C 27 %
2454 31-05-2020 00:55:17 10.5 C 30 %
2455 31-05-2020 01:05:17 10.6 C 30 %
2456 31-05-2020 01:15:17 10.1 C 30 %
2457 31-05-2020 01:25:17 9.9 C 31 %
2458 31-05-2020 01:35:17 9.8 C 32 %
2459 31-05-2020 01:45:17 9.7 C 32 %
2460 31-05-2020 01:55:17 9.4 C 32 %
2461 31-05-2020 02:05:17 9.1 C 33 %
2462 31-05-2020 02:15:17 8.9 C 34 %
2463 31-05-2020 02:25:17 8.7 C 34 %
2464 31-05-2020 02:35:18 8.6 C 35 %
2465 31-05-2020 02:45:18 8.5 C 35 %
2466 31-05-2020 02:55:18 8.3 C 35 %
2467 31-05-2020 03:05:17 8.1 C 35 %
2468 31-05-2020 03:15:17 8 C 35 %
2469 31-05-2020 03:25:17 7.8 C 36 %
2470 31-05-2020 03:35:17 8 C 36 %
2471 31-05-2020 03:45:17 8.5 C 36 %
2472 31-05-2020 03:55:17 9 C 35 %
2473 31-05-2020 04:05:18 9.2 C 35 %
2474 31-05-2020 04:15:17 9.2 C 35 %
2475 31-05-2020 04:25:18 9 C 35 %
Sensor: Nr:Datum:Temp:Feuchte:
Aussen-T/F 2476 31-05-2020 04:35:17 8.9 C 36 %
2477 31-05-2020 04:45:17 8.9 C 36 %
2478 31-05-2020 04:55:18 9 C 35 %
2479 31-05-2020 05:05:18 9.2 C 35 %
2480 31-05-2020 05:15:17 9.3 C 35 %
2481 31-05-2020 05:25:17 9.4 C 35 %
2482 31-05-2020 05:35:17 9.5 C 36 %
2483 31-05-2020 05:45:17 9.4 C 36 %
2484 31-05-2020 05:55:17 9.2 C 36 %
2485 31-05-2020 06:05:17 8.6 C 36 %
2486 31-05-2020 06:15:18 8.1 C 37 %
2487 31-05-2020 06:25:18 8 C 38 %
2488 31-05-2020 06:35:17 8 C 38 %
2489 31-05-2020 06:45:18 7.9 C 39 %
2490 31-05-2020 06:55:18 7.8 C 39 %
2491 31-05-2020 07:05:17 7.8 C 40 %
2492 31-05-2020 07:15:18 7.8 C 40 %
2493 31-05-2020 07:25:18 8 C 40 %
2494 31-05-2020 07:35:17 8.2 C 40 %
2495 31-05-2020 07:45:18 8.5 C 40 %
2496 31-05-2020 07:55:18 9.2 C 39 %
2497 31-05-2020 08:05:17 10.2 C 36 %
2498 31-05-2020 08:15:17 10.8 C 36 %
2499 31-05-2020 08:25:17 11.1 C 35 %
2500 31-05-2020 08:35:17 11.5 C 35 %
Sensor: Nr:Datum:Temp:Feuchte:
Aussen-T/F 2501 31-05-2020 08:45:17 11.8 C 35 %
2502 31-05-2020 08:55:17 12.1 C 34 %
2503 31-05-2020 09:05:17 12.7 C 33 %
2504 31-05-2020 09:15:18 13.2 C 31 %
2505 31-05-2020 09:25:18 13.7 C 32 %
2506 31-05-2020 09:35:17 14.4 C 30 %
2507 31-05-2020 09:46:17 15.2 C 27 %
2508 31-05-2020 09:56:17 16.1 C 25 %
2509 31-05-2020 10:05:18 16.2 C 23 %
2510 31-05-2020 10:15:17 17 C 23 %
2511 31-05-2020 10:25:17 16.9 C 21 %
2512 31-05-2020 10:35:17 17.1 C 20 %
2513 31-05-2020 10:46:17 17.6 C 20 %
2514 31-05-2020 10:56:17 17.5 C 20 %
2515 31-05-2020 11:05:17 17.8 C 20 %
2516 31-05-2020 11:16:17 18.7 C 20 %
2517 31-05-2020 11:25:17 18.9 C 20 %
2518 31-05-2020 11:35:17 19 C 20 %
2519 31-05-2020 11:46:17 19 C 20 %
2520 31-05-2020 11:56:17 18.4 C 20 %
2521 31-05-2020 12:05:17 19.2 C 20 %
2522 31-05-2020 12:15:17 19.1 C 20 %
2523 31-05-2020 12:25:17 19.6 C 20 %
2524 31-05-2020 12:35:18 19.5 C 20 %
2525 31-05-2020 12:45:17 20.7 C 20 %
Sensor: Nr:Datum:Temp:Feuchte:
Aussen-T/F 2526 31-05-2020 12:55:17 21.9 C 20 %
2527 31-05-2020 13:05:18 21 C 20 %
2528 31-05-2020 13:15:18 21.2 C 20 %
2529 31-05-2020 13:25:18 24.2 C 20 %
2530 31-05-2020 13:35:17 24.1 C 20 %
2531 31-05-2020 13:46:17 24.1 C 20 %
2532 31-05-2020 13:56:17 25.2 C 20 %
2533 31-05-2020 14:05:17 25.9 C 20 %
2534 31-05-2020 14:15:17 24.9 C 20 %
2535 31-05-2020 14:25:17 24.2 C 20 %
2536 31-05-2020 14:36:17 26.9 C 20 %
2537 31-05-2020 14:46:17 24.7 C 20 %
2538 31-05-2020 14:56:17 25.6 C 20 %
2539 31-05-2020 15:05:17 25.6 C 20 %
2540 31-05-2020 15:15:17 26.1 C 20 %
2541 31-05-2020 15:25:17 26.7 C 20 %
2542 31-05-2020 15:35:18 26.7 C 20 %
2543 31-05-2020 15:46:17 27.6 C 20 %
2544 31-05-2020 15:56:17 25.2 C 20 %
2545 31-05-2020 16:05:18 25.9 C 20 %
2546 31-05-2020 16:15:18 25.3 C 20 %
2547 31-05-2020 16:25:18 25.2 C 20 %
2548 31-05-2020 16:36:17 25 C 20 %
2549 31-05-2020 16:46:17 24.7 C 20 %
2550 31-05-2020 16:56:17 25.8 C 20 %
Sensor: Nr:Datum:Temp:Feuchte:
Aussen-T/F 2551 31-05-2020 17:06:17 24.8 C 20 %
2552 31-05-2020 17:16:17 23.7 C 20 %
2553 31-05-2020 17:26:17 24.7 C 20 %
2554 31-05-2020 17:36:17 24.8 C 20 %
2555 31-05-2020 17:46:17 23.7 C 20 %
2556 31-05-2020 17:56:17 25.2 C 20 %
2557 31-05-2020 18:05:18 25.5 C 20 %
2558 31-05-2020 18:15:18 25.2 C 20 %
2559 31-05-2020 18:25:18 23.7 C 20 %
2560 31-05-2020 18:36:17 22 C 20 %
2561 31-05-2020 18:46:17 21.6 C 20 %
2562 31-05-2020 18:56:17 21 C 20 %
2563 31-05-2020 19:06:17 21.2 C 20 %
2564 31-05-2020 19:15:18 20.9 C 20 %
2565 31-05-2020 19:25:18 20.8 C 20 %
2566 31-05-2020 19:36:17 20.7 C 20 %
2567 31-05-2020 19:46:17 20.6 C 20 %
2568 31-05-2020 19:56:17 20.4 C 20 %
2569 31-05-2020 20:06:17 20.1 C 20 %
2570 31-05-2020 20:16:17 20.1 C 20 %
2571 31-05-2020 20:26:17 19.9 C 20 %
2572 31-05-2020 20:36:17 19.6 C 20 %
2573 31-05-2020 20:46:17 19.5 C 20 %
2574 31-05-2020 20:56:18 19 C 20 %
2575 31-05-2020 21:05:18 18.4 C 20 %
Sensor: Nr:Datum:Temp:Feuchte:
Aussen-T/F 2576 31-05-2020 21:15:18 17.5 C 20 %
2577 31-05-2020 21:25:18 17.1 C 20 %
2578 31-05-2020 21:36:17 16.8 C 20 %
2579 31-05-2020 21:46:17 16.6 C 20 %
2580 31-05-2020 21:56:17 16.2 C 20 %
2581 31-05-2020 22:06:17 15.8 C 21 %
2582 31-05-2020 22:16:17 15.1 C 22 %
2583 31-05-2020 22:26:17 15.2 C 22 %
2584 31-05-2020 22:36:17 15 C 22 %
2585 31-05-2020 22:45:18 14.7 C 24 %
2586 31-05-2020 22:55:18 14.7 C 24 %
2587 31-05-2020 23:06:17 14.5 C 25 %
2588 31-05-2020 23:16:18 14.5 C 25 %
2589 31-05-2020 23:26:18 14.2 C 25 %
2590 31-05-2020 23:35:18 14.1 C 25 %
2591 31-05-2020 23:46:17 14.1 C 25 %
2592 31-05-2020 23:56:17 13.8 C 26 %
2593 01-06-2020 00:06:18 13.6 C 26 %
2594 01-06-2020 00:16:18 13.3 C 26 %
2595 01-06-2020 00:26:18 12.9 C 28 %
2596 01-06-2020 00:36:18 12.7 C 28 %
2597 01-06-2020 00:46:18 12.6 C 29 %
2598 01-06-2020 00:56:18 12.3 C 29 %
2599 01-06-2020 01:06:17 12.4 C 29 %
2600 01-06-2020 01:16:17 12 C 30 %
Sensor: Nr:Datum:Temp:Feuchte:
Aussen-T/F 2601 01-06-2020 01:26:17 11.4 C 31 %
2602 01-06-2020 01:36:18 10.8 C 33 %
2603 01-06-2020 01:46:18 10.6 C 34 %
2604 01-06-2020 01:56:18 10.5 C 34 %
2605 01-06-2020 02:06:18 10.4 C 34 %
2606 01-06-2020 02:16:17 10.2 C 35 %
2607 01-06-2020 02:26:17 10.2 C 35 %
2608 01-06-2020 02:36:18 10 C 35 %
2609 01-06-2020 02:46:17 10.1 C 35 %
2610 01-06-2020 02:56:17 9.8 C 36 %
2611 01-06-2020 03:06:18 9.7 C 36 %
2612 01-06-2020 03:16:17 9.4 C 37 %
2613 01-06-2020 03:26:17 9.3 C 37 %
2614 01-06-2020 03:36:18 9.2 C 37 %
2615 01-06-2020 03:46:17 9.1 C 37 %
2616 01-06-2020 03:56:17 9 C 37 %
2617 01-06-2020 04:06:17 9 C 37 %
2618 01-06-2020 04:16:18 8.7 C 38 %
2619 01-06-2020 04:26:18 8.6 C 39 %
2620 01-06-2020 04:36:17 8.4 C 39 %
2621 01-06-2020 04:46:17 8.4 C 39 %
2622 01-06-2020 04:56:17 8.1 C 40 %
2623 01-06-2020 05:06:17 8 C 40 %
2624 01-06-2020 05:16:17 8 C 40 %
2625 01-06-2020 05:26:17 7.9 C 40 %
Sensor: Nr:Datum:Temp:Feuchte:
Aussen-T/F 2626 01-06-2020 05:36:17 7.8 C 41 %
2627 01-06-2020 05:46:17 7.8 C 41 %
2628 01-06-2020 05:56:17 7.9 C 41 %
2629 01-06-2020 06:06:17 7.9 C 41 %
2630 01-06-2020 06:16:17 8 C 41 %
2631 01-06-2020 06:26:17 8.2 C 41 %
2632 01-06-2020 06:36:18 8.2 C 41 %
2633 01-06-2020 06:46:17 8.3 C 41 %
2634 01-06-2020 06:56:17 8.5 C 41 %
2635 01-06-2020 07:06:17 8.7 C 41 %
2636 01-06-2020 07:16:17 8.8 C 42 %
2637 01-06-2020 07:26:17 8.9 C 42 %
2638 01-06-2020 07:36:17 9.1 C 41 %
2639 01-06-2020 07:46:17 9.3 C 41 %
2640 01-06-2020 07:56:17 9.8 C 41 %
2641 01-06-2020 08:06:17 10.2 C 40 %
2642 01-06-2020 08:16:17 10.5 C 40 %
2643 01-06-2020 08:26:17 11.2 C 38 %
2644 01-06-2020 08:36:16 11.7 C 37 %
2645 01-06-2020 08:46:16 12.4 C 36 %
2646 01-06-2020 08:56:16 13 C 35 %
2647 01-06-2020 09:06:17 14.1 C 33 %
2648 01-06-2020 09:16:17 15.4 C 30 %
2649 01-06-2020 09:26:18 15.9 C 30 %
2650 01-06-2020 09:36:17 16.6 C 29 %
Sensor: Nr:Datum:Temp:Feuchte:
Aussen-T/F 2651 01-06-2020 09:46:16 17.4 C 27 %
2652 01-06-2020 09:56:16 17.7 C 27 %
2653 01-06-2020 10:06:17 18.4 C 26 %
2654 01-06-2020 10:16:17 19 C 25 %
2655 01-06-2020 10:26:17 19.4 C 25 %
2656 01-06-2020 10:36:16 20 C 22 %
2657 01-06-2020 10:46:17 20.6 C 22 %
2658 01-06-2020 10:56:17 20.9 C 21 %
2659 01-06-2020 11:06:16 21.6 C 20 %
2660 01-06-2020 11:16:16 21.6 C 20 %
2661 01-06-2020 11:26:16 22.2 C 20 %
2662 01-06-2020 11:36:17 22.3 C 20 %
2663 01-06-2020 11:46:16 22.9 C 20 %
2664 01-06-2020 11:56:16 23.2 C 20 %
2665 01-06-2020 12:06:17 23.6 C 20 %
2666 01-06-2020 12:16:17 23.7 C 20 %
2667 01-06-2020 12:26:18 24.1 C 20 %
2668 01-06-2020 12:36:17 24.4 C 20 %
2669 01-06-2020 12:46:17 27.4 C 20 %
2670 01-06-2020 12:56:17 27.7 C 20 %
2671 01-06-2020 13:06:17 28 C 20 %
2672 01-06-2020 13:16:17 28.3 C 20 %
2673 01-06-2020 13:26:17 29.2 C 20 %
2674 01-06-2020 13:36:17 28.3 C 20 %
2675 01-06-2020 13:46:16 29.7 C 20 %
Sensor: Nr:Datum:Temp:Feuchte:
Aussen-T/F 2676 01-06-2020 13:56:16 30.7 C 20 %
2677 01-06-2020 14:06:16 32.6 C 20 %
2678 01-06-2020 14:16:16 32.4 C 20 %
2679 01-06-2020 14:26:16 32.5 C 20 %
2680 01-06-2020 14:36:17 30.2 C 20 %
2681 01-06-2020 14:46:16 32.1 C 20 %
2682 01-06-2020 14:56:16 34.4 C 20 %
2683 01-06-2020 15:06:17 31.5 C 20 %
2684 01-06-2020 15:16:17 33.3 C 20 %
2685 01-06-2020 15:26:17 31.1 C 20 %
2686 01-06-2020 15:36:16 32.1 C 20 %
2687 01-06-2020 15:46:16 30.4 C 20 %
2688 01-06-2020 15:56:16 32.1 C 20 %
2689 01-06-2020 16:06:17 33.2 C 20 %
2690 01-06-2020 16:16:16 32.8 C 20 %
2691 01-06-2020 16:26:16 32.4 C 20 %
2692 01-06-2020 16:36:17 34.5 C 20 %
2693 01-06-2020 16:46:17 30.6 C 20 %
2694 01-06-2020 16:56:17 34.2 C 20 %
2695 01-06-2020 17:06:17 30.5 C 20 %
2696 01-06-2020 17:16:16 33 C 20 %
2697 01-06-2020 17:26:16 31.1 C 20 %
2698 01-06-2020 17:36:17 29.7 C 20 %
2699 01-06-2020 17:46:17 32.4 C 20 %
2700 01-06-2020 17:56:17 31.8 C 20 %
Sensor: Nr:Datum:Temp:Feuchte:
Aussen-T/F 2701 01-06-2020 18:06:17 32.2 C 20 %
2702 01-06-2020 18:16:16 30.7 C 20 %
2703 01-06-2020 18:26:16 27.6 C 20 %
2704 01-06-2020 18:36:16 27.5 C 20 %
2705 01-06-2020 18:46:17 26.4 C 20 %
2706 01-06-2020 18:56:17 26.3 C 20 %
2707 01-06-2020 19:06:16 26 C 20 %
2708 01-06-2020 19:16:17 25.9 C 20 %
2709 01-06-2020 19:26:17 25.9 C 20 %
2710 01-06-2020 19:36:16 25.4 C 20 %
2711 01-06-2020 19:46:16 25.5 C 20 %
2712 01-06-2020 19:56:16 25.3 C 20 %
2713 01-06-2020 20:06:16 25.1 C 20 %
2714 01-06-2020 20:16:16 24.8 C 20 %
2715 01-06-2020 20:26:16 24.7 C 20 %
2716 01-06-2020 20:36:16 24.4 C 20 %
2717 01-06-2020 20:46:17 23 C 20 %
2718 01-06-2020 20:56:17 22.1 C 20 %
2719 01-06-2020 21:06:16 21.5 C 20 %
2720 01-06-2020 21:16:16 21.3 C 20 %
2721 01-06-2020 21:26:16 20.8 C 20 %
2722 01-06-2020 21:36:16 20.2 C 20 %
2723 01-06-2020 21:46:16 20 C 20 %
2724 01-06-2020 21:56:16 19.6 C 20 %
2725 01-06-2020 22:06:16 19.3 C 20 %
Sensor: Nr:Datum:Temp:Feuchte:
Aussen-T/F 2726 01-06-2020 22:16:16 18.7 C 20 %
2727 01-06-2020 22:26:16 18.5 C 20 %
2728 01-06-2020 22:36:16 17.7 C 20 %
2729 01-06-2020 22:46:16 17.1 C 20 %
2730 01-06-2020 22:56:16 16.4 C 21 %
2731 01-06-2020 23:06:16 16.2 C 22 %
2732 01-06-2020 23:16:16 16.1 C 22 %
2733 01-06-2020 23:26:17 16 C 22 %
2734 01-06-2020 23:36:16 16.2 C 22 %
2735 01-06-2020 23:46:16 16.3 C 22 %
2736 01-06-2020 23:56:16 16.4 C 21 %
2737 02-06-2020 00:06:17 16.4 C 22 %
2738 02-06-2020 00:16:16 16.5 C 22 %
2739 02-06-2020 00:26:16 16.6 C 21 %
2740 02-06-2020 00:36:16 16.4 C 22 %
2741 02-06-2020 00:46:16 16.2 C 22 %
2742 02-06-2020 00:56:16 16.2 C 22 %
2743 02-06-2020 01:06:16 16 C 22 %
2744 02-06-2020 01:16:15 15.8 C 24 %
2745 02-06-2020 01:26:15 15.7 C 24 %
2746 02-06-2020 01:36:16 14.7 C 26 %
2747 02-06-2020 01:46:16 14.6 C 26 %
2748 02-06-2020 01:56:16 14.6 C 26 %
2749 02-06-2020 02:06:16 14.4 C 26 %
2750 02-06-2020 02:16:16 14.1 C 27 %
Sensor: Nr:Datum:Temp:Feuchte:
Aussen-T/F 2751 02-06-2020 02:26:16 13.7 C 28 %
2752 02-06-2020 02:36:16 13.5 C 29 %
2753 02-06-2020 02:46:18 13.2 C 30 %
2754 02-06-2020 02:56:18 13 C 30 %
2755 02-06-2020 03:06:17 12.6 C 31 %
2756 02-06-2020 03:16:18 12.1 C 32 %
2757 02-06-2020 03:26:18 11.9 C 33 %
2758 02-06-2020 03:36:17 11.5 C 35 %
2759 02-06-2020 03:46:17 11.3 C 35 %
2760 02-06-2020 03:56:17 11.3 C 35 %
2761 02-06-2020 04:06:17 11 C 35 %
2762 02-06-2020 04:16:17 10.8 C 36 %
2763 02-06-2020 04:26:17 10.7 C 36 %
2764 02-06-2020 04:36:18 10.5 C 37 %
2765 02-06-2020 04:46:18 10.6 C 37 %
2766 02-06-2020 04:56:18 10.5 C 38 %
2767 02-06-2020 05:06:18 10.4 C 38 %
2768 02-06-2020 05:16:18 10.2 C 38 %
2769 02-06-2020 05:26:18 10 C 38 %
2770 02-06-2020 05:36:18 10 C 38 %
2771 02-06-2020 05:46:17 10.1 C 38 %
2772 02-06-2020 05:56:17 10.2 C 39 %
2773 02-06-2020 06:06:17 10.3 C 39 %
2774 02-06-2020 06:16:18 10.5 C 39 %
2775 02-06-2020 06:26:18 10.6 C 39 %
Sensor: Nr:Datum:Temp:Feuchte:
Aussen-T/F 2776 02-06-2020 06:36:17 10.6 C 39 %
2777 02-06-2020 06:46:17 10.8 C 39 %
2778 02-06-2020 06:56:17 10.9 C 39 %
2779 02-06-2020 07:06:18 10.8 C 39 %
2780 02-06-2020 07:16:18 11 C 38 %
2781 02-06-2020 07:26:18 11.2 C 38 %
2782 02-06-2020 07:36:17 11.3 C 38 %
2783 02-06-2020 07:46:18 11.5 C 38 %
2784 02-06-2020 07:56:18 11.4 C 38 %
2785 02-06-2020 08:06:17 11.7 C 38 %
2786 02-06-2020 08:16:17 12.1 C 37 %
2787 02-06-2020 08:26:17 12.6 C 37 %
2788 02-06-2020 08:36:17 13 C 36 %
2789 02-06-2020 08:46:18 13.7 C 35 %
2790 02-06-2020 08:56:18 14.1 C 35 %
2791 02-06-2020 09:06:17 14.7 C 34 %
2792 02-06-2020 09:16:17 15.9 C 32 %
2793 02-06-2020 09:26:17 16.4 C 31 %
2794 02-06-2020 09:36:17 17.3 C 30 %
2795 02-06-2020 09:46:17 18.3 C 29 %
2796 02-06-2020 09:56:17 19 C 27 %
2797 02-06-2020 10:06:17 19.5 C 27 %
2798 02-06-2020 10:16:18 20.2 C 25 %
2799 02-06-2020 10:26:18 20.9 C 23 %
2800 02-06-2020 10:36:17 21.9 C 20 %
Sensor: Nr:Datum:Temp:Feuchte:
Aussen-T/F 2801 02-06-2020 10:46:17 22.3 C 20 %
2802 02-06-2020 10:56:17 22.9 C 20 %
2803 02-06-2020 11:06:18 23.3 C 20 %
2804 02-06-2020 11:16:17 23.8 C 20 %
2805 02-06-2020 11:26:17 24.2 C 20 %
2806 02-06-2020 11:36:17 24.6 C 20 %
2807 02-06-2020 11:46:17 25 C 20 %
2808 02-06-2020 11:56:17 25.3 C 20 %
2809 02-06-2020 12:06:17 25.7 C 20 %
2810 02-06-2020 12:16:17 25.4 C 20 %
2811 02-06-2020 12:26:17 25.8 C 20 %
2812 02-06-2020 12:36:17 26.4 C 20 %
2813 02-06-2020 12:46:17 27.2 C 20 %
2814 02-06-2020 12:56:17 29.7 C 20 %
2815 02-06-2020 13:06:17 29.8 C 20 %
2816 02-06-2020 13:16:17 29.2 C 20 %
2817 02-06-2020 13:26:17 30.6 C 20 %
2818 02-06-2020 13:36:18 30.6 C 20 %
2819 02-06-2020 13:46:18 30.5 C 20 %
2820 02-06-2020 13:56:18 31.3 C 20 %
2821 02-06-2020 14:06:17 33.2 C 20 %
2822 02-06-2020 14:16:18 32.8 C 20 %
2823 02-06-2020 14:26:18 33.5 C 20 %
2824 02-06-2020 14:36:17 32.8 C 20 %
2825 02-06-2020 14:46:17 32.7 C 20 %
Sensor: Nr:Datum:Temp:Feuchte:
Aussen-T/F 2826 02-06-2020 14:56:17 35.1 C 20 %
2827 02-06-2020 15:06:18 34.3 C 20 %
2828 02-06-2020 15:16:17 37.5 C 20 %
2829 02-06-2020 15:26:17 34.4 C 20 %
2830 02-06-2020 15:36:18 37 C 20 %
2831 02-06-2020 15:46:17 34.3 C 20 %
2832 02-06-2020 15:56:17 34.6 C 20 %
2833 02-06-2020 16:06:17 35.6 C 20 %
2834 02-06-2020 16:16:17 34.8 C 20 %
2835 02-06-2020 16:26:18 34.9 C 20 %
2836 02-06-2020 16:36:18 35.5 C 20 %
2837 02-06-2020 16:46:18 36 C 20 %
2838 02-06-2020 16:56:18 35.4 C 20 %
2839 02-06-2020 17:06:18 36.7 C 20 %
2840 02-06-2020 17:16:18 36 C 20 %
2841 02-06-2020 17:26:18 38.8 C 20 %
2842 02-06-2020 17:36:18 37.6 C 20 %
2843 02-06-2020 17:46:17 34.8 C 20 %
2844 02-06-2020 17:56:17 33.8 C 20 %
2845 02-06-2020 18:06:18 31.5 C 20 %
2846 02-06-2020 18:16:17 31.8 C 20 %
2847 02-06-2020 18:26:17 30.4 C 20 %
2848 02-06-2020 18:36:18 29.5 C 20 %
2849 02-06-2020 18:46:17 29 C 20 %
2850 02-06-2020 18:56:17 29.3 C 20 %
Sensor: Nr:Datum:Temp:Feuchte:
Aussen-T/F 2851 02-06-2020 19:06:17 28.4 C 20 %
2852 02-06-2020 19:16:17 28.5 C 20 %
2853 02-06-2020 19:26:18 28.3 C 20 %
2854 02-06-2020 19:36:18 27.3 C 20 %
2855 02-06-2020 19:46:17 26.5 C 20 %
2856 02-06-2020 19:56:17 25.3 C 20 %
2857 02-06-2020 20:06:18 25 C 20 %
2858 02-06-2020 20:16:17 24.5 C 20 %
2859 02-06-2020 20:26:18 24.1 C 20 %
2860 02-06-2020 20:36:18 23.6 C 20 %
2861 02-06-2020 20:46:17 22.8 C 20 %
2862 02-06-2020 20:56:17 22.5 C 20 %
2863 02-06-2020 21:06:17 22.2 C 20 %
2864 02-06-2020 21:16:17 21.8 C 20 %
2865 02-06-2020 21:26:17 21.4 C 20 %
2866 02-06-2020 21:36:18 21 C 20 %
2867 02-06-2020 21:46:17 20.4 C 20 %
2868 02-06-2020 21:56:17 19.9 C 20 %
2869 02-06-2020 22:06:17 20 C 20 %
2870 02-06-2020 22:16:17 19.5 C 20 %
2871 02-06-2020 22:26:17 18.8 C 21 %
2872 02-06-2020 22:36:18 18.6 C 21 %
2873 02-06-2020 22:46:17 18.1 C 22 %
2874 02-06-2020 22:56:17 17.8 C 24 %
2875 02-06-2020 23:06:18 17.6 C 23 %
Sensor: Nr:Datum:Temp:Feuchte:
Aussen-T/F 2876 02-06-2020 23:16:17 17.4 C 25 %
2877 02-06-2020 23:26:17 17.5 C 24 %
2878 02-06-2020 23:36:17 17.6 C 24 %
2879 02-06-2020 23:46:17 17.7 C 24 %
2880 02-06-2020 23:56:17 17.1 C 25 %
2881 03-06-2020 00:06:17 16.7 C 25 %
2882 03-06-2020 00:16:18 16.2 C 26 %
2883 03-06-2020 00:26:18 16 C 26 %
2884 03-06-2020 00:36:18 15.7 C 27 %
2885 03-06-2020 00:46:18 15.5 C 27 %
2886 03-06-2020 00:56:18 15.3 C 27 %
2887 03-06-2020 01:06:18 15.2 C 27 %
2888 03-06-2020 01:16:17 16.8 C 26 %
2889 03-06-2020 01:26:17 16.2 C 27 %
2890 03-06-2020 01:36:18 15.8 C 28 %
2891 03-06-2020 01:46:18 15.9 C 28 %
2892 03-06-2020 01:56:18 16 C 28 %
2893 03-06-2020 02:06:17 15.9 C 28 %
2894 03-06-2020 02:16:18 15.9 C 28 %
2895 03-06-2020 02:26:18 15.6 C 29 %
2896 03-06-2020 02:36:17 15 C 30 %
2897 03-06-2020 02:46:18 14.5 C 31 %
2898 03-06-2020 02:56:18 14.3 C 32 %
2899 03-06-2020 03:06:18 14.4 C 32 %
2900 03-06-2020 03:16:17 14.7 C 32 %
Sensor: Nr:Datum:Temp:Feuchte:
Aussen-T/F 2901 03-06-2020 03:26:17 14.5 C 32 %
2902 03-06-2020 03:36:18 14.2 C 32 %
2903 03-06-2020 03:46:17 14.3 C 32 %
2904 03-06-2020 03:56:17 14 C 33 %
2905 03-06-2020 04:06:18 13.7 C 34 %
2906 03-06-2020 04:16:18 13.8 C 34 %
2907 03-06-2020 04:26:18 14.1 C 33 %
2908 03-06-2020 04:36:18 14.1 C 33 %
2909 03-06-2020 04:46:18 14.4 C 33 %
2910 03-06-2020 04:56:18 14.5 C 33 %
2911 03-06-2020 05:06:18 14.3 C 33 %
2912 03-06-2020 05:16:17 13.9 C 34 %
2913 03-06-2020 05:26:17 13.9 C 34 %
2914 03-06-2020 05:36:17 13.7 C 34 %
2915 03-06-2020 05:46:17 13.6 C 34 %
2916 03-06-2020 05:56:17 13.4 C 35 %
2917 03-06-2020 06:06:17 13.4 C 35 %
2918 03-06-2020 06:16:17 13.5 C 35 %
2919 03-06-2020 06:26:17 13.5 C 35 %
2920 03-06-2020 06:36:17 13.7 C 35 %
2921 03-06-2020 06:46:18 13.8 C 35 %
2922 03-06-2020 06:56:18 13.8 C 35 %
2923 03-06-2020 07:06:18 14.1 C 35 %
2924 03-06-2020 07:16:18 14.2 C 35 %
2925 03-06-2020 07:26:18 14.3 C 35 %
Sensor: Nr:Datum:Temp:Feuchte:
Aussen-T/F 2926 03-06-2020 07:36:18 14.7 C 35 %
2927 03-06-2020 07:46:18 15.5 C 33 %
2928 03-06-2020 07:56:18 15.6 C 33 %
2929 03-06-2020 08:06:17 15.6 C 33 %
2930 03-06-2020 08:16:17 15.6 C 33 %
2931 03-06-2020 08:26:17 16.1 C 33 %
2932 03-06-2020 08:36:18 17.1 C 32 %
2933 03-06-2020 08:46:17 17.8 C 31 %
2934 03-06-2020 08:56:17 18.1 C 30 %
2935 03-06-2020 09:06:18 19 C 28 %
2936 03-06-2020 09:16:18 19.5 C 27 %
2937 03-06-2020 09:26:18 19.7 C 28 %
2938 03-06-2020 09:36:17 20.5 C 26 %
2939 03-06-2020 09:46:17 20.6 C 25 %
2940 03-06-2020 09:56:17 21 C 25 %
2941 03-06-2020 10:06:17 21.3 C 23 %
2942 03-06-2020 10:16:18 21.7 C 23 %
2943 03-06-2020 10:26:18 22.2 C 20 %
2944 03-06-2020 10:36:17 22.8 C 20 %
2945 03-06-2020 10:46:17 23.2 C 20 %
2946 03-06-2020 10:56:17 23.6 C 20 %
2947 03-06-2020 11:06:17 24.2 C 20 %
2948 03-06-2020 11:16:17 24.3 C 20 %
2949 03-06-2020 11:26:17 24.5 C 20 %
2950 03-06-2020 11:36:17 24.8 C 20 %
Sensor: Nr:Datum:Temp:Feuchte:
Aussen-T/F 2951 03-06-2020 11:46:17 25.3 C 20 %
2952 03-06-2020 11:56:17 25.6 C 20 %
2953 03-06-2020 12:06:18 25.9 C 20 %
2954 03-06-2020 12:16:17 26.3 C 20 %
2955 03-06-2020 12:26:18 26.2 C 20 %
2956 03-06-2020 12:36:17 27.8 C 20 %
2957 03-06-2020 12:46:17 28.6 C 20 %
2958 03-06-2020 12:56:17 29.5 C 20 %
2959 03-06-2020 13:06:17 28.9 C 20 %
2960 03-06-2020 13:16:17 31 C 20 %
2961 03-06-2020 13:26:17 29.8 C 20 %
2962 03-06-2020 13:36:17 27.3 C 20 %
2963 03-06-2020 13:46:17 26.7 C 20 %
2964 03-06-2020 13:56:17 26 C 20 %
2965 03-06-2020 14:06:18 25.6 C 20 %
2966 03-06-2020 14:16:17 23.8 C 20 %
2967 03-06-2020 14:26:17 22.7 C 20 %
2968 03-06-2020 14:36:17 23 C 20 %
2969 03-06-2020 14:46:17 22.9 C 20 %
2970 03-06-2020 14:56:17 23.6 C 20 %
2971 03-06-2020 15:06:17 28.1 C 20 %
2972 03-06-2020 15:16:18 27.2 C 20 %
2973 03-06-2020 15:26:18 25.6 C 20 %
2974 03-06-2020 15:36:17 24.6 C 20 %
2975 03-06-2020 15:46:17 26.7 C 20 %
Sensor: Nr:Datum:Temp:Feuchte:
Aussen-T/F 2976 03-06-2020 15:56:17 32.7 C 20 %
2977 03-06-2020 16:06:17 33.2 C 20 %
2978 03-06-2020 16:16:17 33.7 C 20 %
2979 03-06-2020 16:26:17 33.8 C 20 %
2980 03-06-2020 16:36:17 34.6 C 20 %
2981 03-06-2020 16:46:18 35.2 C 20 %
2982 03-06-2020 16:56:18 33.4 C 20 %
2983 03-06-2020 17:06:17 33.3 C 20 %
2984 03-06-2020 17:16:17 32.4 C 20 %
2985 03-06-2020 17:26:18 31.7 C 20 %
2986 03-06-2020 17:36:18 32.1 C 20 %
2987 03-06-2020 17:46:17 28.5 C 20 %
2988 03-06-2020 17:56:17 27.5 C 20 %
2989 03-06-2020 18:06:17 27.4 C 20 %
2990 03-06-2020 18:16:17 27 C 20 %
2991 03-06-2020 18:26:17 26.5 C 20 %
2992 03-06-2020 18:36:17 25.9 C 20 %
2993 03-06-2020 18:46:17 25.7 C 20 %
2994 03-06-2020 18:56:17 26.5 C 20 %
2995 03-06-2020 19:06:17 26.4 C 20 %
2996 03-06-2020 19:16:17 26.5 C 20 %
2997 03-06-2020 19:26:17 26.1 C 20 %
2998 03-06-2020 19:36:17 25.7 C 20 %
2999 03-06-2020 19:46:17 24.7 C 20 %
3000 03-06-2020 19:56:17 24.9 C 20 %
Sensor: Nr:Datum:Temp:Feuchte:
Aussen-T/F 3001 03-06-2020 20:06:17 24.8 C 20 %
3002 03-06-2020 20:16:18 24.5 C 20 %
3003 03-06-2020 20:26:18 24.2 C 20 %
3004 03-06-2020 20:36:18 24 C 20 %
3005 03-06-2020 20:46:17 23.5 C 20 %
3006 03-06-2020 20:56:17 22.8 C 20 %
3007 03-06-2020 21:06:18 21.2 C 20 %
3008 03-06-2020 21:16:18 20.6 C 20 %
3009 03-06-2020 21:26:18 20.2 C 20 %
3010 03-06-2020 21:36:17 19.7 C 20 %
3011 03-06-2020 21:46:18 19.8 C 20 %
3012 03-06-2020 21:56:18 19.6 C 20 %
3013 03-06-2020 22:06:17 19.4 C 21 %
3014 03-06-2020 22:16:17 19.4 C 21 %
3015 03-06-2020 22:26:17 18.9 C 23 %
3016 03-06-2020 22:36:18 18.2 C 25 %
3017 03-06-2020 22:46:18 18.1 C 25 %
3018 03-06-2020 22:56:18 17.4 C 26 %
3019 03-06-2020 23:06:18 16.9 C 27 %
3020 03-06-2020 23:16:18 17.1 C 27 %
3021 03-06-2020 23:26:18 17 C 27 %
3022 03-06-2020 23:36:17 17.5 C 27 %
3023 03-06-2020 23:46:17 17.5 C 27 %
3024 03-06-2020 23:56:17 17.8 C 29 %
3025 04-06-2020 00:06:18 18.6 C 27 %
Sensor: Nr:Datum:Temp:Feuchte:
Aussen-T/F 3026 04-06-2020 00:16:18 18.7 C 27 %
3027 04-06-2020 00:26:18 18.8 C 27 %
3028 04-06-2020 00:36:17 18.9 C 27 %
3029 04-06-2020 00:46:18 18.7 C 27 %
3030 04-06-2020 00:56:18 18.7 C 27 %
3031 04-06-2020 01:06:17 18.7 C 28 %
3032 04-06-2020 01:16:17 17.1 C 32 %
3033 04-06-2020 01:26:17 16 C 36 %
3034 04-06-2020 01:36:17 15.7 C 39 %
3035 04-06-2020 01:46:17 15.4 C 40 %
3036 04-06-2020 01:56:17 15.3 C 40 %
3037 04-06-2020 02:06:17 15.2 C 41 %
3038 04-06-2020 02:16:17 15 C 41 %
3039 04-06-2020 02:26:17 14.7 C 41 %
3040 04-06-2020 02:36:18 14.5 C 41 %
3041 04-06-2020 02:46:17 14.4 C 42 %
3042 04-06-2020 02:56:17 14.4 C 43 %
3043 04-06-2020 03:06:17 14.5 C 43 %
3044 04-06-2020 03:16:18 14.6 C 43 %
3045 04-06-2020 03:26:18 14.5 C 42 %
3046 04-06-2020 03:36:17 14.6 C 42 %
3047 04-06-2020 03:46:17 14.6 C 42 %
3048 04-06-2020 03:56:17 14.6 C 42 %
3049 04-06-2020 04:06:17 14.5 C 42 %
3050 04-06-2020 04:16:17 14.4 C 42 %
Sensor: Nr:Datum:Temp:Feuchte:
Aussen-T/F 3051 04-06-2020 04:26:17 14.5 C 42 %
3052 04-06-2020 04:36:17 14.4 C 42 %
3053 04-06-2020 04:46:18 14.4 C 42 %
3054 04-06-2020 04:56:18 14.4 C 42 %
3055 04-06-2020 05:06:17 14.4 C 42 %
3056 04-06-2020 05:16:18 14.3 C 42 %
3057 04-06-2020 05:26:18 14.2 C 42 %
3058 04-06-2020 05:36:18 14.2 C 42 %
3059 04-06-2020 05:46:18 14.1 C 42 %
3060 04-06-2020 05:56:18 14.1 C 42 %
3061 04-06-2020 06:06:18 14.1 C 42 %
3062 04-06-2020 06:16:17 14.1 C 42 %
3063 04-06-2020 06:26:17 14.2 C 41 %
3064 04-06-2020 06:36:18 14.1 C 41 %
3065 04-06-2020 06:46:17 14.2 C 41 %
3066 04-06-2020 06:56:17 14.2 C 41 %
3067 04-06-2020 07:06:17 14.2 C 41 %
3068 04-06-2020 07:16:18 14.3 C 41 %
3069 04-06-2020 07:26:18 14.3 C 41 %
3070 04-06-2020 07:36:17 14.4 C 41 %
3071 04-06-2020 07:46:17 14.3 C 41 %
3072 04-06-2020 07:56:17 14.3 C 41 %
3073 04-06-2020 08:06:18 14.3 C 41 %
3074 04-06-2020 08:16:17 14.2 C 41 %
3075 04-06-2020 08:26:17 14.2 C 41 %
Sensor: Nr:Datum:Temp:Feuchte:
Aussen-T/F 3076 04-06-2020 08:36:17 14.3 C 41 %
3077 04-06-2020 08:46:17 14.3 C 42 %
3078 04-06-2020 08:56:17 14.4 C 42 %
3079 04-06-2020 09:06:18 14.7 C 42 %
3080 04-06-2020 09:16:17 14.9 C 42 %
3081 04-06-2020 09:26:17 14.7 C 42 %
3082 04-06-2020 09:36:17 14.8 C 42 %
3083 04-06-2020 09:46:17 14.7 C 42 %
3084 04-06-2020 09:56:17 14.8 C 42 %
3085 04-06-2020 10:06:17 15 C 41 %
3086 04-06-2020 10:16:17 15 C 41 %
3087 04-06-2020 10:26:17 15.4 C 40 %
3088 04-06-2020 10:36:18 15.9 C 39 %
3089 04-06-2020 10:46:18 15.9 C 38 %
3090 04-06-2020 10:56:18 15.4 C 40 %
3091 04-06-2020 11:06:17 15.5 C 40 %
3092 04-06-2020 11:16:17 15.7 C 41 %
3093 04-06-2020 11:26:17 16.4 C 39 %
3094 04-06-2020 11:36:18 17.1 C 36 %
3095 04-06-2020 11:46:18 17.3 C 35 %
3096 04-06-2020 11:56:18 16.5 C 36 %
3097 04-06-2020 12:06:17 15.8 C 38 %
3098 04-06-2020 12:16:17 15.3 C 40 %
3099 04-06-2020 12:26:17 15.3 C 40 %
3100 04-06-2020 12:36:17 16 C 38 %
Sensor: Nr:Datum:Temp:Feuchte:
Aussen-T/F 3101 04-06-2020 12:46:17 16.9 C 36 %
3102 04-06-2020 12:56:17 17.1 C 35 %
3103 04-06-2020 13:06:17 17.8 C 35 %
3104 04-06-2020 13:16:18 17.7 C 33 %
3105 04-06-2020 13:26:18 17.2 C 35 %
3106 04-06-2020 13:36:18 17.1 C 35 %
3107 04-06-2020 13:46:18 15.7 C 37 %
3108 04-06-2020 13:56:18 14.9 C 39 %
3109 04-06-2020 14:06:18 14.7 C 40 %
3110 04-06-2020 14:16:17 14.7 C 40 %
3111 04-06-2020 14:26:17 14.8 C 41 %
3112 04-06-2020 14:36:18 14.6 C 40 %
3113 04-06-2020 14:46:17 14.5 C 40 %
3114 04-06-2020 14:56:17 14.4 C 40 %
3115 04-06-2020 15:06:17 14.7 C 40 %
3116 04-06-2020 15:16:17 14.9 C 39 %
3117 04-06-2020 15:26:17 15.2 C 38 %
3118 04-06-2020 15:36:18 15.2 C 38 %
3119 04-06-2020 15:46:18 15.3 C 38 %
3120 04-06-2020 15:56:18 15.3 C 36 %
3121 04-06-2020 16:06:17 15.6 C 37 %
3122 04-06-2020 16:16:17 15.6 C 37 %
3123 04-06-2020 16:26:17 15.3 C 37 %
3124 04-06-2020 16:36:18 15.2 C 37 %
3125 04-06-2020 16:46:18 15.4 C 37 %
Sensor: Nr:Datum:Temp:Feuchte:
Aussen-T/F 3126 04-06-2020 16:56:18 15.6 C 36 %
3127 04-06-2020 17:06:17 15.1 C 37 %
3128 04-06-2020 17:16:17 14.8 C 37 %
3129 04-06-2020 17:26:17 14.5 C 37 %
3130 04-06-2020 17:36:17 14.3 C 38 %
3131 04-06-2020 17:46:17 14.1 C 37 %
3132 04-06-2020 17:56:17 14.1 C 37 %
3133 04-06-2020 18:06:17 13.6 C 38 %
3134 04-06-2020 18:16:18 13.2 C 38 %
3135 04-06-2020 18:26:18 12.8 C 41 %
3136 04-06-2020 18:36:18 12.6 C 41 %
3137 04-06-2020 18:46:17 12.7 C 42 %
3138 04-06-2020 18:56:18 12.7 C 43 %
3139 04-06-2020 19:06:17 12.4 C 42 %
3140 04-06-2020 19:16:18 12.6 C 42 %
3141 04-06-2020 19:26:18 12.6 C 44 %
3142 04-06-2020 19:36:18 12.2 C 42 %
3143 04-06-2020 19:46:17 12.4 C 44 %
3144 04-06-2020 19:56:17 12.3 C 44 %
3145 04-06-2020 20:06:17 12.3 C 44 %
3146 04-06-2020 20:16:17 12.2 C 43 %
3147 04-06-2020 20:26:17 12.4 C 41 %
3148 04-06-2020 20:36:17 12.4 C 40 %
3149 04-06-2020 20:46:17 12.4 C 41 %
3150 04-06-2020 20:56:17 12.2 C 41 %
Sensor: Nr:Datum:Temp:Feuchte:
Aussen-T/F 3151 04-06-2020 21:06:17 11.9 C 42 %
3152 04-06-2020 21:16:18 11.6 C 41 %
3153 04-06-2020 21:26:18 11.7 C 41 %
3154 04-06-2020 21:36:18 11.4 C 41 %
3155 04-06-2020 21:46:18 11.3 C 42 %
3156 04-06-2020 21:56:18 11.2 C 44 %
3157 04-06-2020 22:06:17 11.1 C 44 %
3158 04-06-2020 22:16:17 11.1 C 44 %
3159 04-06-2020 22:26:17 11 C 44 %
3160 04-06-2020 22:36:17 10.9 C 45 %
3161 04-06-2020 22:46:18 11 C 44 %
3162 04-06-2020 22:56:18 10.7 C 45 %
3163 04-06-2020 23:06:17 10.6 C 45 %
3164 04-06-2020 23:16:17 10.5 C 45 %
3165 04-06-2020 23:26:18 10.5 C 45 %
3166 04-06-2020 23:36:18 10.5 C 45 %
3167 04-06-2020 23:46:17 10.5 C 45 %
3168 04-06-2020 23:56:18 10.6 C 45 %
3169 05-06-2020 00:06:17 10.7 C 45 %
3170 05-06-2020 00:16:17 10.8 C 45 %
3171 05-06-2020 00:26:17 11.1 C 39 %
3172 05-06-2020 00:36:18 10.8 C 40 %
3173 05-06-2020 00:46:17 10.9 C 41 %
3174 05-06-2020 00:56:17 10.7 C 40 %
3175 05-06-2020 01:06:18 11 C 39 %
Sensor: Nr:Datum:Temp:Feuchte:
Aussen-T/F 3176 05-06-2020 01:16:18 11 C 39 %
3177 05-06-2020 01:26:18 10.7 C 41 %
3178 05-06-2020 01:36:17 11 C 39 %
3179 05-06-2020 01:46:18 11 C 38 %
3180 05-06-2020 01:56:18 11 C 38 %
3181 05-06-2020 02:06:18 10.9 C 38 %
3182 05-06-2020 02:16:17 11 C 37 %
3183 05-06-2020 02:26:17 10.7 C 38 %
3184 05-06-2020 02:36:17 10.5 C 38 %
3185 05-06-2020 02:46:18 10.4 C 39 %
3186 05-06-2020 02:56:18 10.2 C 40 %
3187 05-06-2020 03:06:17 10.2 C 40 %
3188 05-06-2020 03:16:18 10.3 C 39 %
3189 05-06-2020 03:26:18 10.3 C 39 %
3190 05-06-2020 03:36:18 10.2 C 39 %
3191 05-06-2020 03:46:17 10.1 C 39 %
3192 05-06-2020 03:56:17 9.5 C 42 %
3193 05-06-2020 04:06:18 9 C 42 %
3194 05-06-2020 04:16:17 8.6 C 44 %
3195 05-06-2020 04:26:18 8.3 C 45 %
3196 05-06-2020 04:36:17 8.5 C 45 %
3197 05-06-2020 04:46:18 8.3 C 45 %
3198 05-06-2020 04:56:18 8.2 C 45 %
3199 05-06-2020 05:06:17 8.4 C 45 %
3200 05-06-2020 05:16:17 8.6 C 44 %
Sensor: Nr:Datum:Temp:Feuchte:
Aussen-T/F 3201 05-06-2020 05:26:17 8.7 C 44 %
3202 05-06-2020 05:36:17 8.7 C 45 %
3203 05-06-2020 05:46:17 8.8 C 43 %
3204 05-06-2020 05:56:18 8.7 C 44 %
3205 05-06-2020 06:06:17 9.2 C 41 %
3206 05-06-2020 06:16:17 9.3 C 41 %
3207 05-06-2020 06:26:18 9.6 C 40 %
3208 05-06-2020 06:36:17 9.6 C 40 %
3209 05-06-2020 06:46:17 9.7 C 40 %
3210 05-06-2020 06:56:17 9.8 C 40 %
3211 05-06-2020 07:06:17 9.8 C 40 %
3212 05-06-2020 07:16:18 9.9 C 40 %
3213 05-06-2020 07:26:18 10.2 C 39 %
3214 05-06-2020 07:36:18 10.5 C 38 %
3215 05-06-2020 07:46:18 10.8 C 38 %
3216 05-06-2020 07:56:18 10.7 C 38 %
3217 05-06-2020 08:06:18 10.6 C 38 %
3218 05-06-2020 08:16:18 10.4 C 38 %
3219 05-06-2020 08:26:18 10.5 C 38 %
3220 05-06-2020 08:36:18 10.8 C 39 %
3221 05-06-2020 08:46:18 11.1 C 37 %
3222 05-06-2020 08:56:18 11.4 C 37 %
3223 05-06-2020 09:06:17 11.8 C 37 %
3224 05-06-2020 09:16:17 11.7 C 36 %
3225 05-06-2020 09:26:17 12.1 C 35 %
Sensor: Nr:Datum:Temp:Feuchte:
Aussen-T/F 3226 05-06-2020 09:36:17 12.4 C 35 %
3227 05-06-2020 09:46:18 12.3 C 35 %
3228 05-06-2020 09:56:18 12.3 C 35 %
3229 05-06-2020 10:06:17 12.6 C 35 %
3230 05-06-2020 10:16:17 13 C 34 %
3231 05-06-2020 10:26:17 13.1 C 33 %
3232 05-06-2020 10:36:18 13.8 C 33 %
3233 05-06-2020 10:46:18 15.1 C 31 %
3234 05-06-2020 10:56:18 15.8 C 30 %
3235 05-06-2020 11:06:17 16.2 C 28 %
3236 05-06-2020 11:16:17 14.3 C 29 %
3237 05-06-2020 11:26:17 13.9 C 30 %
3238 05-06-2020 11:36:18 13.9 C 30 %
3239 05-06-2020 11:46:17 13.7 C 30 %
3240 05-06-2020 11:56:17 13.9 C 30 %
3241 05-06-2020 12:06:18 15.2 C 28 %
3242 05-06-2020 12:16:17 15.4 C 28 %
3243 05-06-2020 12:26:17 15.6 C 27 %
3244 05-06-2020 12:36:17 15.3 C 28 %
3245 05-06-2020 12:46:17 16.3 C 27 %
3246 05-06-2020 12:56:17 15.6 C 27 %
3247 05-06-2020 13:06:17 14.8 C 29 %
3248 05-06-2020 13:16:17 14 C 29 %
3249 05-06-2020 13:26:17 14 C 29 %
3250 05-06-2020 13:36:17 13.8 C 30 %
Sensor: Nr:Datum:Temp:Feuchte:
Aussen-T/F 3251 05-06-2020 13:46:17 14.2 C 30 %
3252 05-06-2020 13:56:17 14.6 C 30 %
3253 05-06-2020 14:06:18 14.5 C 30 %
3254 05-06-2020 14:16:17 13.2 C 32 %
3255 05-06-2020 14:26:17 12.7 C 34 %
3256 05-06-2020 14:36:17 12.5 C 36 %
3257 05-06-2020 14:46:17 12.5 C 37 %
3258 05-06-2020 14:56:17 12.6 C 38 %
3259 05-06-2020 15:06:18 13.4 C 36 %
3260 05-06-2020 15:16:17 13.7 C 36 %
3261 05-06-2020 15:26:17 14.3 C 35 %
3262 05-06-2020 15:36:17 14.3 C 34 %
3263 05-06-2020 15:46:17 13.9 C 35 %
3264 05-06-2020 15:56:17 13.4 C 36 %
3265 05-06-2020 16:06:18 13.5 C 36 %
3266 05-06-2020 16:16:18 12.3 C 39 %
3267 05-06-2020 16:26:18 11.8 C 43 %
3268 05-06-2020 16:36:17 11.5 C 41 %
3269 05-06-2020 16:46:18 10.9 C 42 %
3270 05-06-2020 16:56:18 10.6 C 42 %
3271 05-06-2020 17:06:18 10.8 C 42 %
3272 05-06-2020 17:16:18 12.5 C 38 %
3273 05-06-2020 17:26:18 15.1 C 31 %
3274 05-06-2020 17:36:18 13.7 C 35 %
3275 05-06-2020 17:46:18 13 C 36 %
Sensor: Nr:Datum:Temp:Feuchte:
Aussen-T/F 3276 05-06-2020 17:56:18 12.2 C 39 %
3277 05-06-2020 18:06:17 11.6 C 38 %
3278 05-06-2020 18:16:18 11 C 41 %
3279 05-06-2020 18:26:18 10.3 C 40 %
3280 05-06-2020 18:36:17 10.4 C 42 %
3281 05-06-2020 18:46:17 10.7 C 40 %
3282 05-06-2020 18:56:17 11 C 39 %
3283 05-06-2020 19:06:18 11.2 C 40 %
3284 05-06-2020 19:16:17 11.4 C 40 %
3285 05-06-2020 19:26:17 11.7 C 41 %
3286 05-06-2020 19:36:18 11.9 C 37 %
3287 05-06-2020 19:46:17 11.7 C 37 %
3288 05-06-2020 19:56:17 11.2 C 38 %
3289 05-06-2020 20:06:17 11.6 C 37 %
3290 05-06-2020 20:16:17 11.1 C 37 %
3291 05-06-2020 20:26:17 10.9 C 38 %
3292 05-06-2020 20:36:17 10.7 C 38 %
3293 05-06-2020 20:46:18 10.7 C 39 %
3294 05-06-2020 20:56:18 10.4 C 40 %
3295 05-06-2020 21:06:18 10.5 C 38 %
3296 05-06-2020 21:16:17 10.5 C 39 %
3297 05-06-2020 21:26:17 10.5 C 38 %
3298 05-06-2020 21:36:17 10.3 C 38 %
3299 05-06-2020 21:46:18 10.3 C 38 %
3300 05-06-2020 21:56:18 10.2 C 38 %
Sensor: Nr:Datum:Temp:Feuchte:
Aussen-T/F 3301 05-06-2020 22:06:18 10.4 C 37 %
3302 05-06-2020 22:16:18 10.1 C 38 %
3303 05-06-2020 22:26:18 9.6 C 40 %
3304 05-06-2020 22:36:18 9.8 C 39 %
3305 05-06-2020 22:46:17 10.2 C 37 %
3306 05-06-2020 22:56:17 9.8 C 39 %
3307 05-06-2020 23:06:17 9.3 C 40 %
3308 05-06-2020 23:16:17 9.4 C 39 %
3309 05-06-2020 23:26:17 9.8 C 38 %
3310 05-06-2020 23:36:18 9.7 C 39 %
3311 05-06-2020 23:46:18 9.8 C 38 %
3312 05-06-2020 23:56:18 9.6 C 39 %
3313 06-06-2020 00:06:18 9.7 C 38 %
3314 06-06-2020 00:16:17 9.8 C 37 %
3315 06-06-2020 00:26:18 9.7 C 37 %
3316 06-06-2020 00:36:17 9.5 C 38 %
3317 06-06-2020 00:46:17 9.4 C 38 %
3318 06-06-2020 00:56:17 9.2 C 38 %
3319 06-06-2020 01:06:18 9.5 C 37 %
3320 06-06-2020 01:16:18 9.3 C 38 %
3321 06-06-2020 01:26:18 8.7 C 40 %
3322 06-06-2020 01:36:18 8.7 C 40 %
3323 06-06-2020 01:46:17 8.1 C 40 %
3324 06-06-2020 01:56:17 8.1 C 41 %
3325 06-06-2020 02:06:17 8.1 C 40 %
Sensor: Nr:Datum:Temp:Feuchte:
Aussen-T/F 3326 06-06-2020 02:16:17 8.2 C 40 %
3327 06-06-2020 02:26:17 8.1 C 40 %
3328 06-06-2020 02:36:17 8.1 C 40 %
3329 06-06-2020 02:46:18 7.9 C 41 %
3330 06-06-2020 02:56:18 7.6 C 42 %
3331 06-06-2020 03:06:17 7.4 C 43 %
3332 06-06-2020 03:16:17 7.5 C 43 %
3333 06-06-2020 03:26:18 7.8 C 43 %
3334 06-06-2020 03:36:17 8 C 42 %
3335 06-06-2020 03:46:18 8.1 C 42 %
3336 06-06-2020 03:56:18 8.1 C 42 %
3337 06-06-2020 04:06:18 8.3 C 42 %
3338 06-06-2020 04:16:18 8.2 C 42 %
3339 06-06-2020 04:26:18 8.5 C 41 %
3340 06-06-2020 04:36:17 8.6 C 41 %
3341 06-06-2020 04:46:17 8.6 C 40 %
3342 06-06-2020 04:56:17 8.4 C 42 %
3343 06-06-2020 05:06:18 8.2 C 42 %
3344 06-06-2020 05:16:18 8.2 C 43 %
3345 06-06-2020 05:26:18 8.2 C 43 %
3346 06-06-2020 05:36:18 8.2 C 42 %
3347 06-06-2020 05:46:17 8.2 C 43 %
3348 06-06-2020 05:56:17 8.5 C 42 %
3349 06-06-2020 06:06:18 8.5 C 42 %
3350 06-06-2020 06:16:17 8.6 C 42 %
Sensor: Nr:Datum:Temp:Feuchte:
Aussen-T/F 3351 06-06-2020 06:26:17 8.7 C 42 %
3352 06-06-2020 06:36:18 9 C 42 %
3353 06-06-2020 06:46:17 9.2 C 42 %
3354 06-06-2020 06:56:17 9.6 C 41 %
3355 06-06-2020 07:06:17 9.7 C 41 %
3356 06-06-2020 07:16:17 10.2 C 40 %
3357 06-06-2020 07:26:17 10.4 C 39 %
3358 06-06-2020 07:36:17 10.6 C 39 %
3359 06-06-2020 07:46:18 10.8 C 38 %
3360 06-06-2020 07:56:18 11.1 C 37 %
3361 06-06-2020 08:06:17 11.3 C 36 %
3362 06-06-2020 08:16:17 11.2 C 36 %
3363 06-06-2020 08:26:17 11.2 C 37 %
3364 06-06-2020 08:36:17 11.3 C 37 %
3365 06-06-2020 08:46:17 11.5 C 37 %
3366 06-06-2020 08:56:18 11.6 C 37 %
3367 06-06-2020 09:06:17 12.3 C 35 %
3368 06-06-2020 09:16:17 12.7 C 35 %
3369 06-06-2020 09:26:17 12.9 C 35 %
3370 06-06-2020 09:36:17 13.3 C 34 %
3371 06-06-2020 09:46:17 13.7 C 33 %
3372 06-06-2020 09:56:18 14.2 C 32 %
3373 06-06-2020 10:06:17 14.4 C 31 %
3374 06-06-2020 10:16:17 14.3 C 31 %
3375 06-06-2020 10:26:17 12.1 C 36 %
Sensor: Nr:Datum:Temp:Feuchte:
Aussen-T/F 3376 06-06-2020 10:36:17 12.1 C 37 %
3377 06-06-2020 10:46:18 11.8 C 38 %
3378 06-06-2020 10:56:18 11.8 C 40 %
3379 06-06-2020 11:06:17 11.8 C 41 %
3380 06-06-2020 11:16:17 11.6 C 44 %
3381 06-06-2020 11:26:17 11.5 C 42 %
3382 06-06-2020 11:36:17 11.6 C 42 %
3383 06-06-2020 11:46:18 11.5 C 42 %
3384 06-06-2020 11:56:18 12.3 C 39 %
3385 06-06-2020 12:06:17 12.7 C 39 %
3386 06-06-2020 12:16:17 12.9 C 39 %
3387 06-06-2020 12:26:17 14 C 36 %
3388 06-06-2020 12:36:17 14.6 C 35 %
3389 06-06-2020 12:46:18 12 C 36 %
3390 06-06-2020 12:56:18 11.7 C 38 %
3391 06-06-2020 13:06:17 11.7 C 39 %
3392 06-06-2020 13:16:17 13.3 C 35 %
3393 06-06-2020 13:26:17 13.3 C 35 %
3394 06-06-2020 13:36:17 13.1 C 34 %
3395 06-06-2020 13:46:18 12.7 C 35 %
3396 06-06-2020 13:56:18 12.6 C 37 %
3397 06-06-2020 14:06:17 16.1 C 33 %
3398 06-06-2020 14:16:17 19.1 C 26 %
3399 06-06-2020 14:26:17 21.2 C 24 %
3400 06-06-2020 14:36:18 21.6 C 23 %
Sensor: Nr:Datum:Temp:Feuchte:
Aussen-T/F 3401 06-06-2020 14:46:17 23.3 C 20 %
3402 06-06-2020 14:56:17 21.6 C 20 %
3403 06-06-2020 15:06:17 19.3 C 24 %
3404 06-06-2020 15:16:17 15 C 30 %
3405 06-06-2020 15:26:17 15.3 C 32 %
3406 06-06-2020 15:36:17 15 C 31 %
3407 06-06-2020 15:46:17 19.8 C 28 %
3408 06-06-2020 15:56:17 23.5 C 21 %
3409 06-06-2020 16:06:18 21.6 C 20 %
3410 06-06-2020 16:16:17 20.1 C 22 %
3411 06-06-2020 16:26:18 20 C 20 %
3412 06-06-2020 16:36:17 20.4 C 20 %
3413 06-06-2020 16:46:18 20.3 C 20 %
3414 06-06-2020 16:56:18 19.5 C 20 %
3415 06-06-2020 17:06:17 18.8 C 20 %
3416 06-06-2020 17:16:17 17.8 C 22 %
3417 06-06-2020 17:26:17 17.2 C 22 %
3418 06-06-2020 17:36:17 16.9 C 22 %
3419 06-06-2020 17:46:17 16.5 C 23 %
3420 06-06-2020 17:56:17 16 C 22 %
3421 06-06-2020 18:06:17 17 C 21 %
3422 06-06-2020 18:16:17 20.3 C 20 %
3423 06-06-2020 18:26:17 18.8 C 20 %
3424 06-06-2020 18:36:18 17.9 C 20 %
3425 06-06-2020 18:46:17 17.9 C 20 %
Sensor: Nr:Datum:Temp:Feuchte:
Aussen-T/F 3426 06-06-2020 18:56:17 17.5 C 20 %
3427 06-06-2020 19:06:17 17.9 C 20 %
3428 06-06-2020 19:16:17 18.2 C 20 %
3429 06-06-2020 19:26:17 17.8 C 21 %
3430 06-06-2020 19:36:17 17.7 C 20 %
3431 06-06-2020 19:46:18 17 C 20 %
3432 06-06-2020 19:56:18 16.9 C 20 %
3433 06-06-2020 20:06:18 16.9 C 20 %
3434 06-06-2020 20:16:17 16.8 C 25 %
3435 06-06-2020 20:26:18 16 C 24 %
3436 06-06-2020 20:36:18 15.4 C 26 %
3437 06-06-2020 20:46:17 14.8 C 27 %
3438 06-06-2020 20:56:17 13.4 C 31 %
3439 06-06-2020 21:06:17 13.1 C 32 %
3440 06-06-2020 21:16:17 12.9 C 33 %
3441 06-06-2020 21:26:17 12.5 C 34 %
3442 06-06-2020 21:36:17 12.4 C 34 %
3443 06-06-2020 21:46:17 12.2 C 34 %
3444 06-06-2020 21:56:18 11.9 C 35 %
3445 06-06-2020 22:06:17 11.8 C 36 %
3446 06-06-2020 22:16:17 11.5 C 37 %
3447 06-06-2020 22:26:17 11.4 C 38 %
3448 06-06-2020 22:36:17 11.2 C 38 %
3449 06-06-2020 22:46:18 10.9 C 39 %
3450 06-06-2020 22:56:18 10.8 C 39 %
Sensor: Nr:Datum:Temp:Feuchte:
Aussen-T/F 3451 06-06-2020 23:06:18 10.4 C 40 %
3452 06-06-2020 23:16:18 10.3 C 40 %
3453 06-06-2020 23:26:18 10.2 C 40 %
3454 06-06-2020 23:36:18 10.1 C 40 %
3455 06-06-2020 23:46:17 10.1 C 40 %
3456 06-06-2020 23:56:17 10.1 C 39 %
3457 07-06-2020 00:06:17 10 C 39 %
3458 07-06-2020 00:16:17 10 C 39 %
3459 07-06-2020 00:26:17 9.9 C 39 %
3460 07-06-2020 00:36:17 10 C 39 %
3461 07-06-2020 00:46:18 9.8 C 40 %
3462 07-06-2020 00:56:18 9.7 C 40 %
3463 07-06-2020 01:06:17 9.7 C 40 %
3464 07-06-2020 01:16:17 9.6 C 40 %
3465 07-06-2020 01:26:17 9.5 C 40 %
3466 07-06-2020 01:36:17 9.6 C 40 %
3467 07-06-2020 01:46:17 9.6 C 41 %
3468 07-06-2020 01:56:17 9.9 C 39 %
3469 07-06-2020 02:06:17 10.1 C 38 %
3470 07-06-2020 02:16:17 10 C 38 %
3471 07-06-2020 02:26:17 9.8 C 39 %
3472 07-06-2020 02:36:17 10.1 C 38 %
3473 07-06-2020 02:46:17 10.1 C 38 %
3474 07-06-2020 02:56:17 9.8 C 39 %
3475 07-06-2020 03:06:17 9.7 C 39 %
Sensor: Nr:Datum:Temp:Feuchte:
Aussen-T/F 3476 07-06-2020 03:16:18 9.5 C 39 %
3477 07-06-2020 03:26:18 9.3 C 39 %
3478 07-06-2020 03:36:18 9.1 C 40 %
3479 07-06-2020 03:46:17 8.4 C 40 %
3480 07-06-2020 03:56:17 8 C 41 %
3481 07-06-2020 04:06:17 7.9 C 42 %
3482 07-06-2020 04:16:17 7.8 C 42 %
3483 07-06-2020 04:26:17 7.5 C 44 %
3484 07-06-2020 04:36:17 7.5 C 45 %
3485 07-06-2020 04:46:17 7.5 C 43 %
3486 07-06-2020 04:56:17 7.7 C 43 %
3487 07-06-2020 05:06:17 7.8 C 43 %
3488 07-06-2020 05:16:18 7.8 C 45 %
3489 07-06-2020 05:26:18 7.5 C 44 %
3490 07-06-2020 05:36:17 7.4 C 44 %
3491 07-06-2020 05:46:18 7.5 C 44 %
3492 07-06-2020 05:56:18 7.4 C 44 %
3493 07-06-2020 06:06:17 7.3 C 44 %
3494 07-06-2020 06:16:17 7.2 C 45 %
3495 07-06-2020 06:26:17 7.1 C 45 %
3496 07-06-2020 06:36:18 7.1 C 45 %
3497 07-06-2020 06:46:18 7.2 C 45 %
3498 07-06-2020 06:56:18 7.3 C 45 %
3499 07-06-2020 07:06:17 7.2 C 45 %
3500 07-06-2020 07:16:17 7.3 C 45 %
Sensor: Nr:Datum:Temp:Feuchte:
Aussen-T/F 3501 07-06-2020 07:26:17 7.5 C 45 %
3502 07-06-2020 07:36:17 7.8 C 45 %
3503 07-06-2020 07:46:17 8 C 44 %
3504 07-06-2020 07:56:17 8.4 C 44 %
3505 07-06-2020 08:06:18 8.7 C 43 %
3506 07-06-2020 08:16:18 9.1 C 41 %
3507 07-06-2020 08:26:18 11.8 C 34 %
3508 07-06-2020 08:36:18 11.8 C 34 %
3509 07-06-2020 08:46:18 12.4 C 32 %
3510 07-06-2020 08:56:18 13.2 C 30 %
3511 07-06-2020 09:06:17 13.5 C 30 %
3512 07-06-2020 09:16:17 13.9 C 30 %
3513 07-06-2020 09:26:17 14.9 C 28 %
3514 07-06-2020 09:36:17 15 C 27 %
3515 07-06-2020 09:46:18 15.2 C 27 %
3516 07-06-2020 09:56:18 16.2 C 27 %
3517 07-06-2020 10:06:18 15.2 C 27 %
3518 07-06-2020 10:16:17 15.6 C 27 %
3519 07-06-2020 10:26:17 15.9 C 27 %
3520 07-06-2020 10:36:17 14.8 C 28 %
3521 07-06-2020 10:46:17 15.4 C 27 %
3522 07-06-2020 10:56:17 15.1 C 27 %
3523 07-06-2020 11:06:18 16.2 C 27 %
3524 07-06-2020 11:16:18 16.2 C 26 %
3525 07-06-2020 11:26:18 15.2 C 27 %
Sensor: Nr:Datum:Temp:Feuchte:
Aussen-T/F 3526 07-06-2020 11:36:18 15.1 C 28 %
3527 07-06-2020 11:46:17 15.3 C 27 %
3528 07-06-2020 11:56:17 15.2 C 27 %
3529 07-06-2020 12:06:17 15.8 C 27 %
3530 07-06-2020 12:16:17 16.9 C 26 %
3531 07-06-2020 12:26:17 17.3 C 26 %
3532 07-06-2020 12:36:17 18.1 C 25 %
3533 07-06-2020 12:46:17 17.6 C 25 %
3534 07-06-2020 12:56:17 17.2 C 25 %
3535 07-06-2020 13:06:17 17.4 C 25 %
3536 07-06-2020 13:16:17 16.4 C 25 %
3537 07-06-2020 13:26:17 17.5 C 25 %
3538 07-06-2020 13:36:17 17.4 C 25 %
3539 07-06-2020 13:46:18 17.8 C 25 %
3540 07-06-2020 13:56:18 18.7 C 23 %
3541 07-06-2020 14:06:18 19.3 C 23 %
3542 07-06-2020 14:16:18 21.3 C 20 %
3543 07-06-2020 14:26:18 18.4 C 22 %
3544 07-06-2020 14:36:18 17 C 24 %
3545 07-06-2020 14:46:17 18.1 C 23 %
3546 07-06-2020 14:56:18 23.4 C 20 %
3547 07-06-2020 15:06:18 20 C 20 %
3548 07-06-2020 15:16:18 20.6 C 20 %
3549 07-06-2020 15:26:18 22.8 C 20 %
3550 07-06-2020 15:36:17 22.3 C 20 %
Sensor: Nr:Datum:Temp:Feuchte:
Aussen-T/F 3551 07-06-2020 15:46:18 21.3 C 20 %
3552 07-06-2020 15:56:18 18.7 C 20 %
3553 07-06-2020 16:06:17 18.1 C 21 %
3554 07-06-2020 16:16:17 18.7 C 21 %
3555 07-06-2020 16:26:18 18.4 C 20 %
3556 07-06-2020 16:36:17 18.8 C 20 %
3557 07-06-2020 16:46:17 19.8 C 20 %
3558 07-06-2020 16:56:17 21.2 C 20 %
3559 07-06-2020 17:06:17 21.6 C 20 %
3560 07-06-2020 17:16:17 22.7 C 20 %
3561 07-06-2020 17:26:17 22.7 C 20 %
3562 07-06-2020 17:36:18 22.4 C 20 %
3563 07-06-2020 17:46:17 24.1 C 20 %
3564 07-06-2020 17:56:17 23.2 C 20 %
3565 07-06-2020 18:06:17 22.8 C 20 %
3566 07-06-2020 18:16:17 20.7 C 20 %
3567 07-06-2020 18:26:17 19.8 C 20 %
3568 07-06-2020 18:36:17 19.7 C 20 %
3569 07-06-2020 18:46:17 19 C 20 %
3570 07-06-2020 18:56:17 19.1 C 20 %
3571 07-06-2020 19:06:17 19.6 C 20 %
3572 07-06-2020 19:16:17 18.7 C 20 %
3573 07-06-2020 19:26:17 18.1 C 24 %
3574 07-06-2020 19:36:17 17.9 C 23 %
3575 07-06-2020 19:46:17 18.1 C 21 %
Sensor: Nr:Datum:Temp:Feuchte:
Aussen-T/F 3576 07-06-2020 19:56:17 17.6 C 26 %
3577 07-06-2020 20:06:17 16.2 C 27 %
3578 07-06-2020 20:16:17 15.9 C 27 %
3579 07-06-2020 20:26:17 15.4 C 27 %
3580 07-06-2020 20:36:17 15.2 C 26 %
3581 07-06-2020 20:46:17 15 C 28 %
3582 07-06-2020 20:56:17 14.2 C 30 %
3583 07-06-2020 21:06:18 13.9 C 31 %
3584 07-06-2020 21:16:17 13.6 C 32 %
3585 07-06-2020 21:26:18 13.4 C 31 %
3586 07-06-2020 21:36:18 13.1 C 32 %
3587 07-06-2020 21:46:17 12.6 C 34 %
3588 07-06-2020 21:56:17 12.4 C 34 %
3589 07-06-2020 22:06:17 12.1 C 35 %
3590 07-06-2020 22:16:17 11.2 C 38 %
3591 07-06-2020 22:26:17 11.1 C 37 %
3592 07-06-2020 22:36:17 11 C 38 %
3593 07-06-2020 22:46:17 10.9 C 38 %
3594 07-06-2020 22:56:17 10.9 C 38 %
3595 07-06-2020 23:06:17 10.9 C 38 %
3596 07-06-2020 23:16:17 11.3 C 37 %
3597 07-06-2020 23:26:17 11.8 C 36 %
3598 07-06-2020 23:36:17 11.8 C 36 %
3599 07-06-2020 23:46:17 11.4 C 37 %
3600 07-06-2020 23:56:17 11.5 C 37 %
Sensor: Nr:Datum:Temp:Feuchte:
Aussen-T/F 3601 08-06-2020 00:06:17 11.6 C 37 %
3602 08-06-2020 00:16:17 11.8 C 36 %
3603 08-06-2020 00:26:17 11.6 C 37 %
3604 08-06-2020 00:36:17 11.6 C 37 %
3605 08-06-2020 00:46:17 11.7 C 37 %
3606 08-06-2020 00:56:17 11.8 C 37 %
3607 08-06-2020 01:06:17 11.6 C 37 %
3608 08-06-2020 01:16:17 11.1 C 40 %
3609 08-06-2020 01:26:18 11 C 41 %
3610 08-06-2020 01:36:18 10.7 C 42 %
3611 08-06-2020 01:46:17 10.4 C 42 %
3612 08-06-2020 01:56:17 10 C 42 %
3613 08-06-2020 02:06:17 9.4 C 43 %
3614 08-06-2020 02:16:17 9.3 C 43 %
3615 08-06-2020 02:26:17 9.1 C 44 %
3616 08-06-2020 02:36:17 8.9 C 44 %
3617 08-06-2020 02:46:17 9 C 44 %
3618 08-06-2020 02:56:17 9 C 44 %
3619 08-06-2020 03:06:18 8.6 C 45 %
3620 08-06-2020 03:16:17 8.4 C 45 %
3621 08-06-2020 03:26:18 8.2 C 45 %
3622 08-06-2020 03:36:17 8 C 45 %
3623 08-06-2020 03:46:17 8.2 C 46 %
3624 08-06-2020 03:56:17 8.6 C 46 %
3625 08-06-2020 04:06:17 8.7 C 46 %
Sensor: Nr:Datum:Temp:Feuchte:
Aussen-T/F 3626 08-06-2020 04:16:18 8.7 C 46 %
3627 08-06-2020 04:26:18 8.7 C 45 %
3628 08-06-2020 04:36:18 8.6 C 45 %
3629 08-06-2020 04:46:17 8.4 C 45 %
3630 08-06-2020 04:56:17 8.4 C 45 %
3631 08-06-2020 05:06:17 8.1 C 45 %
3632 08-06-2020 05:16:17 7.9 C 45 %
3633 08-06-2020 05:26:17 7.6 C 46 %
3634 08-06-2020 05:36:17 7.5 C 46 %
3635 08-06-2020 05:46:17 7.3 C 46 %
3636 08-06-2020 05:56:17 7.6 C 46 %
3637 08-06-2020 06:06:17 7.7 C 46 %
3638 08-06-2020 06:16:17 7.9 C 46 %
3639 08-06-2020 06:26:17 8.2 C 46 %
3640 08-06-2020 06:36:17 8.7 C 46 %
3641 08-06-2020 06:46:18 9.1 C 45 %
3642 08-06-2020 06:56:18 9.3 C 45 %
3643 08-06-2020 07:06:17 9.7 C 44 %
3644 08-06-2020 07:16:17 9.8 C 42 %
3645 08-06-2020 07:26:17 10 C 41 %
3646 08-06-2020 07:36:18 10.2 C 40 %
3647 08-06-2020 07:46:17 10.8 C 41 %
3648 08-06-2020 07:56:17 11.1 C 39 %
3649 08-06-2020 08:06:17 11.3 C 38 %
3650 08-06-2020 08:16:17 12 C 37 %
Sensor: Nr:Datum:Temp:Feuchte:
Aussen-T/F 3651 08-06-2020 08:26:17 12.3 C 36 %
3652 08-06-2020 08:36:17 12.3 C 36 %
3653 08-06-2020 08:46:17 12.8 C 36 %
3654 08-06-2020 08:56:18 13.5 C 34 %
3655 08-06-2020 09:06:17 13.7 C 34 %
3656 08-06-2020 09:16:17 14.7 C 33 %
3657 08-06-2020 09:26:17 14.5 C 32 %
3658 08-06-2020 09:36:17 14.8 C 33 %
3659 08-06-2020 09:46:17 15.2 C 31 %
3660 08-06-2020 09:56:17 15.4 C 31 %
3661 08-06-2020 10:06:17 16 C 31 %
3662 08-06-2020 10:16:18 16.2 C 30 %
3663 08-06-2020 10:26:18 16.8 C 30 %
3664 08-06-2020 10:36:18 16.9 C 30 %
3665 08-06-2020 10:46:18 17.1 C 28 %
3666 08-06-2020 10:56:18 17.3 C 28 %
3667 08-06-2020 11:06:17 17.9 C 28 %
3668 08-06-2020 11:16:17 18.4 C 27 %
3669 08-06-2020 11:26:17 18.6 C 26 %
3670 08-06-2020 11:36:17 18.7 C 26 %
3671 08-06-2020 11:46:17 19.3 C 26 %
3672 08-06-2020 11:56:17 18.9 C 26 %
3673 08-06-2020 12:06:17 21.7 C 23 %
3674 08-06-2020 12:16:17 22.4 C 20 %
3675 08-06-2020 12:26:17 25.5 C 20 %
Sensor: Nr:Datum:Temp:Feuchte:
Aussen-T/F 3676 08-06-2020 12:36:18 26.3 C 20 %
3677 08-06-2020 12:46:18 28.2 C 20 %
3678 08-06-2020 12:56:18 25.4 C 20 %
3679 08-06-2020 13:06:17 20.5 C 20 %
3680 08-06-2020 13:16:17 20.7 C 20 %
3681 08-06-2020 13:26:17 23.2 C 20 %
3682 08-06-2020 13:36:17 22.6 C 20 %
3683 08-06-2020 13:46:18 20.8 C 20 %
3684 08-06-2020 13:56:18 22.1 C 20 %
3685 08-06-2020 14:06:18 26.1 C 20 %
3686 08-06-2020 14:16:17 24 C 20 %
3687 08-06-2020 14:26:17 24.7 C 20 %
3688 08-06-2020 14:36:18 24 C 20 %
3689 08-06-2020 14:46:17 23 C 20 %
3690 08-06-2020 14:56:17 26.1 C 20 %
3691 08-06-2020 15:06:17 24.2 C 20 %
3692 08-06-2020 15:16:17 22.4 C 20 %
3693 08-06-2020 15:26:18 21.5 C 20 %
3694 08-06-2020 15:36:17 20.4 C 20 %
3695 08-06-2020 15:46:17 20.8 C 20 %
3696 08-06-2020 15:56:17 20.5 C 20 %
3697 08-06-2020 16:06:17 20.4 C 20 %
3698 08-06-2020 16:16:17 20.3 C 20 %
3699 08-06-2020 16:26:17 20.6 C 20 %
3700 08-06-2020 16:36:17 21.8 C 20 %
Sensor: Nr:Datum:Temp:Feuchte:
Aussen-T/F 3701 08-06-2020 16:46:17 22.2 C 20 %
3702 08-06-2020 16:56:17 25.4 C 20 %
3703 08-06-2020 17:06:17 22.7 C 20 %
3704 08-06-2020 17:16:17 22 C 20 %
3705 08-06-2020 17:26:17 20.9 C 20 %
3706 08-06-2020 17:36:17 21.3 C 20 %
3707 08-06-2020 17:46:18 21.6 C 20 %
3708 08-06-2020 17:56:18 20.8 C 20 %
3709 08-06-2020 18:06:18 20.8 C 20 %
3710 08-06-2020 18:16:18 24.2 C 20 %
3711 08-06-2020 18:26:18 23.1 C 20 %
3712 08-06-2020 18:36:18 21.4 C 20 %
3713 08-06-2020 18:46:17 21.2 C 20 %
3714 08-06-2020 18:56:17 20.9 C 20 %
3715 08-06-2020 19:06:17 20.1 C 20 %
3716 08-06-2020 19:16:17 19.8 C 20 %
3717 08-06-2020 19:26:17 19.5 C 20 %
3718 08-06-2020 19:36:18 19 C 20 %
3719 08-06-2020 19:46:17 18.8 C 21 %
3720 08-06-2020 19:56:17 19 C 20 %
3721 08-06-2020 20:06:17 18.8 C 21 %
3722 08-06-2020 20:16:18 18.7 C 21 %
3723 08-06-2020 20:26:18 18.1 C 24 %
3724 08-06-2020 20:36:18 18 C 23 %
3725 08-06-2020 20:46:17 17.7 C 25 %
Sensor: Nr:Datum:Temp:Feuchte:
Aussen-T/F 3726 08-06-2020 20:56:17 17 C 27 %
3727 08-06-2020 21:06:18 16.6 C 28 %
3728 08-06-2020 21:16:17 16 C 28 %
3729 08-06-2020 21:26:17 15.6 C 29 %
3730 08-06-2020 21:36:17 15.1 C 29 %
3731 08-06-2020 21:46:17 14.6 C 31 %
3732 08-06-2020 21:56:17 14.3 C 30 %
3733 08-06-2020 22:06:18 13.9 C 32 %
3734 08-06-2020 22:16:18 13.8 C 33 %
3735 08-06-2020 22:26:18 13.4 C 33 %
3736 08-06-2020 22:36:18 13.4 C 33 %
3737 08-06-2020 22:46:18 12.8 C 35 %
3738 08-06-2020 22:56:18 12.4 C 35 %
3739 08-06-2020 23:06:17 12.4 C 35 %
3740 08-06-2020 23:16:17 12.2 C 35 %
3741 08-06-2020 23:26:17 12.2 C 35 %
3742 08-06-2020 23:36:18 12.2 C 35 %
3743 08-06-2020 23:46:17 11.9 C 36 %
3744 08-06-2020 23:56:17 11.9 C 37 %
3745 09-06-2020 00:06:18 11.9 C 37 %
3746 09-06-2020 00:16:17 11.8 C 37 %
3747 09-06-2020 00:26:17 11.7 C 37 %
3748 09-06-2020 00:36:17 11.5 C 37 %
3749 09-06-2020 00:46:17 11.3 C 38 %
3750 09-06-2020 00:56:17 10.8 C 40 %
Sensor: Nr:Datum:Temp:Feuchte:
Aussen-T/F 3751 09-06-2020 01:06:18 10.5 C 41 %
3752 09-06-2020 01:16:17 10.2 C 41 %
3753 09-06-2020 01:26:17 10 C 42 %
3754 09-06-2020 01:36:18 9.8 C 43 %
3755 09-06-2020 01:46:17 9.6 C 44 %
3756 09-06-2020 01:56:17 9.5 C 44 %
3757 09-06-2020 02:06:18 9.6 C 45 %
3758 09-06-2020 02:16:17 9.5 C 44 %
3759 09-06-2020 02:26:17 9.3 C 45 %
3760 09-06-2020 02:36:17 9.4 C 45 %
3761 09-06-2020 02:46:17 9.2 C 45 %
3762 09-06-2020 02:56:17 9.2 C 45 %
3763 09-06-2020 03:06:17 9.3 C 45 %
3764 09-06-2020 03:16:17 9.4 C 45 %
3765 09-06-2020 03:26:17 9.4 C 45 %
3766 09-06-2020 03:36:17 9.5 C 45 %
3767 09-06-2020 03:46:18 9.2 C 45 %
3768 09-06-2020 03:56:18 9.1 C 45 %
3769 09-06-2020 04:06:17 9 C 45 %
3770 09-06-2020 04:16:17 9.2 C 45 %
3771 09-06-2020 04:26:17 9.5 C 45 %
3772 09-06-2020 04:36:17 10.1 C 45 %
3773 09-06-2020 04:46:17 10.5 C 45 %
3774 09-06-2020 04:56:17 10.3 C 44 %
3775 09-06-2020 05:06:18 10.4 C 45 %
Sensor: Nr:Datum:Temp:Feuchte:
Aussen-T/F 3776 09-06-2020 05:16:17 10.8 C 44 %
3777 09-06-2020 05:26:17 10.9 C 44 %
3778 09-06-2020 05:36:17 11 C 43 %
3779 09-06-2020 05:46:17 11.2 C 43 %
3780 09-06-2020 05:56:17 11.4 C 43 %
3781 09-06-2020 06:06:17 11.5 C 43 %
3782 09-06-2020 06:16:17 11.7 C 42 %
3783 09-06-2020 06:26:17 11.6 C 42 %
3784 09-06-2020 06:36:18 11.8 C 42 %
3785 09-06-2020 06:46:17 11.8 C 41 %
3786 09-06-2020 06:56:17 11.9 C 41 %
3787 09-06-2020 07:06:17 12 C 40 %
3788 09-06-2020 07:16:18 12.2 C 40 %
3789 09-06-2020 07:26:18 12.1 C 40 %
3790 09-06-2020 07:36:17 12.3 C 39 %
3791 09-06-2020 07:46:17 12.4 C 39 %
3792 09-06-2020 07:56:17 12.5 C 39 %
3793 09-06-2020 08:06:17 12.3 C 40 %
3794 09-06-2020 08:16:17 12.5 C 39 %
3795 09-06-2020 08:26:17 12.8 C 39 %
3796 09-06-2020 08:36:17 13.1 C 37 %
3797 09-06-2020 08:46:17 13.4 C 37 %
3798 09-06-2020 08:56:18 13.3 C 37 %
3799 09-06-2020 09:06:17 13.6 C 37 %
3800 09-06-2020 09:16:18 13.4 C 37 %
Sensor: Nr:Datum:Temp:Feuchte:
Aussen-T/F 3801 09-06-2020 09:26:18 13.9 C 37 %
3802 09-06-2020 09:36:18 14.5 C 35 %
3803 09-06-2020 09:46:17 15 C 33 %
3804 09-06-2020 09:56:17 15.7 C 33 %
3805 09-06-2020 10:06:17 16.7 C 31 %
3806 09-06-2020 10:16:17 16.8 C 31 %
3807 09-06-2020 10:26:17 16.7 C 31 %
3808 09-06-2020 10:36:17 16.6 C 31 %
3809 09-06-2020 10:46:17 17 C 31 %
3810 09-06-2020 10:56:17 17.8 C 30 %
3811 09-06-2020 11:06:17 18.6 C 30 %
3812 09-06-2020 11:16:18 18 C 29 %
3813 09-06-2020 11:26:18 18.9 C 30 %
3814 09-06-2020 11:36:17 18.8 C 29 %
3815 09-06-2020 11:46:18 19.1 C 28 %
3816 09-06-2020 11:56:18 19.8 C 27 %
3817 09-06-2020 12:06:18 21.6 C 25 %
3818 09-06-2020 12:16:17 21.4 C 25 %
3819 09-06-2020 12:26:17 21.7 C 25 %
3820 09-06-2020 12:36:18 22.9 C 22 %
3821 09-06-2020 12:46:18 24.8 C 20 %
3822 09-06-2020 12:56:18 22.6 C 21 %
3823 09-06-2020 13:06:18 22.1 C 21 %
3824 09-06-2020 13:16:17 17.8 C 33 %
3825 09-06-2020 13:26:17 17 C 38 %
Sensor: Nr:Datum:Temp:Feuchte:
Aussen-T/F 3826 09-06-2020 13:36:17 17.9 C 37 %
3827 09-06-2020 13:46:17 20.6 C 31 %
3828 09-06-2020 13:56:17 23 C 26 %
3829 09-06-2020 14:06:17 24.7 C 23 %
3830 09-06-2020 14:16:17 23.6 C 24 %
3831 09-06-2020 14:26:17 23.2 C 24 %
3832 09-06-2020 14:36:18 21.1 C 25 %
3833 09-06-2020 14:46:17 20.6 C 26 %
3834 09-06-2020 14:56:17 19.3 C 27 %
3835 09-06-2020 15:06:17 18.2 C 30 %
3836 09-06-2020 15:16:17 18.7 C 28 %
3837 09-06-2020 15:26:17 19.1 C 28 %
3838 09-06-2020 15:36:17 18.1 C 29 %
3839 09-06-2020 15:46:18 16.5 C 33 %
3840 09-06-2020 15:56:18 15.3 C 36 %
3841 09-06-2020 16:06:18 14.8 C 41 %
3842 09-06-2020 16:16:17 15 C 42 %
3843 09-06-2020 16:26:17 15.1 C 42 %
3844 09-06-2020 16:36:18 15.1 C 41 %
3845 09-06-2020 16:46:18 15.4 C 41 %
3846 09-06-2020 16:56:18 15.8 C 41 %
3847 09-06-2020 17:06:17 16.1 C 39 %
3848 09-06-2020 17:16:17 16.4 C 36 %
3849 09-06-2020 17:26:17 16.9 C 37 %
3850 09-06-2020 17:36:17 17.1 C 35 %
Sensor: Nr:Datum:Temp:Feuchte:
Aussen-T/F 3851 09-06-2020 17:46:17 17.5 C 35 %
3852 09-06-2020 17:56:17 17.9 C 35 %
3853 09-06-2020 18:06:17 17.4 C 35 %
3854 09-06-2020 18:16:17 16.9 C 36 %
3855 09-06-2020 18:26:17 17 C 37 %
3856 09-06-2020 18:36:18 16.7 C 36 %
3857 09-06-2020 18:46:18 16.6 C 37 %
3858 09-06-2020 18:56:18 16.5 C 39 %
3859 09-06-2020 19:06:18 15.9 C 40 %
3860 09-06-2020 19:16:17 15.3 C 40 %
3861 09-06-2020 19:26:17 15.1 C 40 %
3862 09-06-2020 19:36:17 14.8 C 41 %
3863 09-06-2020 19:46:17 14.6 C 41 %
3864 09-06-2020 19:56:17 14.4 C 41 %
3865 09-06-2020 20:06:18 14.3 C 41 %
3866 09-06-2020 20:16:17 14.3 C 41 %
3867 09-06-2020 20:26:17 14.2 C 41 %
3868 09-06-2020 20:36:17 14.1 C 41 %
3869 09-06-2020 20:46:17 14.1 C 42 %
3870 09-06-2020 20:56:17 14 C 43 %
3871 09-06-2020 21:06:17 14 C 43 %
3872 09-06-2020 21:16:17 14 C 42 %
3873 09-06-2020 21:26:17 13.9 C 43 %
3874 09-06-2020 21:36:17 13.9 C 43 %
3875 09-06-2020 21:46:17 13.8 C 43 %
Sensor: Nr:Datum:Temp:Feuchte:
Aussen-T/F 3876 09-06-2020 21:56:17 13.7 C 43 %
3877 09-06-2020 22:06:18 13.4 C 43 %
3878 09-06-2020 22:16:18 13.3 C 43 %
3879 09-06-2020 22:26:18 13 C 43 %
3880 09-06-2020 22:36:17 13 C 43 %
3881 09-06-2020 22:46:18 12.9 C 44 %
3882 09-06-2020 22:56:18 12.8 C 44 %
3883 09-06-2020 23:06:17 12.9 C 44 %
3884 09-06-2020 23:16:17 13 C 43 %
3885 09-06-2020 23:26:18 13 C 43 %
3886 09-06-2020 23:36:17 13 C 43 %
3887 09-06-2020 23:46:17 13 C 43 %
3888 09-06-2020 23:56:17 13 C 43 %
3889 10-06-2020 00:06:17 13 C 43 %
3890 10-06-2020 00:16:17 12.9 C 43 %
3891 10-06-2020 00:26:18 12.7 C 43 %
3892 10-06-2020 00:36:17 12.6 C 43 %
3893 10-06-2020 00:46:17 12.6 C 44 %
3894 10-06-2020 00:56:17 12.7 C 44 %
3895 10-06-2020 01:06:18 12.6 C 44 %
3896 10-06-2020 01:16:17 12.5 C 44 %
3897 10-06-2020 01:26:17 12.2 C 44 %
3898 10-06-2020 01:36:17 12.1 C 44 %
3899 10-06-2020 01:46:18 12.1 C 44 %
3900 10-06-2020 01:56:18 12.3 C 44 %
Sensor: Nr:Datum:Temp:Feuchte:
Aussen-T/F 3901 10-06-2020 02:06:17 12.2 C 44 %
3902 10-06-2020 02:16:17 12.2 C 44 %
3903 10-06-2020 02:26:17 12.2 C 44 %
3904 10-06-2020 02:36:18 12.2 C 44 %
3905 10-06-2020 02:46:17 12.3 C 44 %
3906 10-06-2020 02:56:17 12.4 C 44 %
3907 10-06-2020 03:06:17 12.4 C 44 %
3908 10-06-2020 03:16:18 12.5 C 44 %
3909 10-06-2020 03:26:18 12.5 C 44 %
3910 10-06-2020 03:36:17 12.4 C 44 %
3911 10-06-2020 03:46:17 12.4 C 44 %
3912 10-06-2020 03:56:17 12.4 C 44 %
3913 10-06-2020 04:06:18 12.3 C 44 %
3914 10-06-2020 04:16:17 12.4 C 44 %
3915 10-06-2020 04:26:17 12.4 C 44 %
3916 10-06-2020 04:36:17 12.4 C 44 %
3917 10-06-2020 04:46:17 12.4 C 44 %
3918 10-06-2020 04:56:18 12.4 C 44 %
3919 10-06-2020 05:06:18 12.5 C 44 %
3920 10-06-2020 05:16:17 12.5 C 44 %
3921 10-06-2020 05:26:17 12.4 C 44 %
3922 10-06-2020 05:36:18 12.4 C 44 %
3923 10-06-2020 05:46:17 12.4 C 44 %
3924 10-06-2020 05:56:17 12.5 C 44 %
3925 10-06-2020 06:06:17 12.6 C 44 %
Sensor: Nr:Datum:Temp:Feuchte:
Aussen-T/F 3926 10-06-2020 06:16:17 12.8 C 44 %
3927 10-06-2020 06:26:17 13 C 43 %
3928 10-06-2020 06:36:17 13.1 C 43 %
3929 10-06-2020 06:46:17 13.3 C 43 %
3930 10-06-2020 06:56:17 13.4 C 42 %
3931 10-06-2020 07:06:17 13.6 C 41 %
3932 10-06-2020 07:16:17 13.6 C 41 %
3933 10-06-2020 07:26:17 13.7 C 41 %
3934 10-06-2020 07:36:17 13.8 C 40 %
3935 10-06-2020 07:46:17 14.1 C 39 %
3936 10-06-2020 07:56:18 14.2 C 39 %
3937 10-06-2020 08:06:17 14.3 C 38 %
3938 10-06-2020 08:16:17 14.5 C 38 %
3939 10-06-2020 08:26:17 14.7 C 38 %
3940 10-06-2020 08:36:17 14.8 C 38 %
3941 10-06-2020 08:46:18 15 C 37 %
3942 10-06-2020 08:56:18 15.6 C 36 %
3943 10-06-2020 09:06:17 16.2 C 35 %
3944 10-06-2020 09:16:17 16.2 C 35 %
3945 10-06-2020 09:26:17 16.4 C 35 %
3946 10-06-2020 09:36:18 16.4 C 35 %
3947 10-06-2020 09:46:17 16.3 C 35 %
3948 10-06-2020 09:56:17 16.3 C 35 %
3949 10-06-2020 10:06:18 16.2 C 35 %
3950 10-06-2020 10:16:17 16.2 C 35 %
Sensor: Nr:Datum:Temp:Feuchte:
Aussen-T/F 3951 10-06-2020 10:26:17 16 C 35 %
3952 10-06-2020 10:36:17 16.2 C 35 %
3953 10-06-2020 10:46:17 16.2 C 35 %
3954 10-06-2020 10:56:17 16.3 C 35 %
3955 10-06-2020 11:06:17 16.1 C 35 %
3956 10-06-2020 11:16:17 15.9 C 35 %
3957 10-06-2020 11:26:17 15.8 C 36 %
3958 10-06-2020 11:36:17 15.8 C 36 %
3959 10-06-2020 11:46:18 15.2 C 36 %
3960 10-06-2020 11:56:18 15.5 C 36 %
3961 10-06-2020 12:06:17 15.5 C 35 %
3962 10-06-2020 12:16:18 15.5 C 35 %
3963 10-06-2020 12:26:18 15.4 C 35 %
3964 10-06-2020 12:36:18 15.8 C 35 %
3965 10-06-2020 12:46:17 15.9 C 35 %
3966 10-06-2020 12:56:17 15.6 C 35 %
3967 10-06-2020 13:06:17 15.8 C 35 %
3968 10-06-2020 13:16:17 15.8 C 35 %
3969 10-06-2020 13:26:17 15.9 C 35 %
3970 10-06-2020 13:36:17 16 C 35 %
3971 10-06-2020 13:46:17 17.1 C 33 %
3972 10-06-2020 13:56:17 17.4 C 32 %
3973 10-06-2020 14:06:18 17.7 C 31 %
3974 10-06-2020 14:16:18 17.6 C 31 %
3975 10-06-2020 14:26:18 17 C 31 %
Sensor: Nr:Datum:Temp:Feuchte:
Aussen-T/F 3976 10-06-2020 14:36:17 17.4 C 31 %
3977 10-06-2020 14:46:17 17.5 C 31 %
3978 10-06-2020 14:56:17 17.8 C 31 %
3979 10-06-2020 15:06:17 17.8 C 31 %
3980 10-06-2020 15:16:18 18.3 C 30 %
3981 10-06-2020 15:26:18 18.9 C 30 %
3982 10-06-2020 15:36:18 19.3 C 29 %
3983 10-06-2020 15:46:17 20.1 C 28 %
3984 10-06-2020 15:56:17 20.3 C 27 %
3985 10-06-2020 16:06:17 20.8 C 26 %
3986 10-06-2020 16:16:17 21 C 26 %
3987 10-06-2020 16:26:17 21.9 C 25 %
3988 10-06-2020 16:36:18 21.5 C 25 %
3989 10-06-2020 16:46:17 21.7 C 25 %
3990 10-06-2020 16:56:17 20.3 C 25 %
3991 10-06-2020 17:06:17 22.1 C 24 %
3992 10-06-2020 17:16:18 21.6 C 25 %
3993 10-06-2020 17:26:18 21.7 C 24 %
3994 10-06-2020 17:36:17 21.7 C 24 %
3995 10-06-2020 17:46:17 20.7 C 25 %
3996 10-06-2020 17:56:17 21.4 C 25 %
3997 10-06-2020 18:06:18 20.7 C 25 %
3998 10-06-2020 18:16:17 21.4 C 23 %
3999 10-06-2020 18:26:17 21.1 C 24 %
4000 10-06-2020 18:36:17 20.9 C 25 %
Sensor: Nr:Datum:Temp:Feuchte:
Aussen-T/F 4001 10-06-2020 18:46:17 21.2 C 25 %
4002 10-06-2020 18:56:17 20.3 C 25 %
4003 10-06-2020 19:06:17 19.8 C 26 %
4004 10-06-2020 19:16:17 19.7 C 26 %
4005 10-06-2020 19:26:17 19.3 C 30 %
4006 10-06-2020 19:36:17 18.9 C 31 %
4007 10-06-2020 19:46:17 18.9 C 31 %
4008 10-06-2020 19:56:17 18.7 C 31 %
4009 10-06-2020 20:06:17 18.7 C 31 %
4010 10-06-2020 20:16:17 18.5 C 31 %
4011 10-06-2020 20:26:17 18.4 C 32 %
4012 10-06-2020 20:36:17 18 C 32 %
4013 10-06-2020 20:46:18 17.5 C 32 %
4014 10-06-2020 20:56:18 17.3 C 33 %
4015 10-06-2020 21:06:17 16.8 C 34 %
4016 10-06-2020 21:16:17 16.6 C 33 %
4017 10-06-2020 21:26:18 16.3 C 33 %
4018 10-06-2020 21:36:17 15.9 C 33 %
4019 10-06-2020 21:46:17 15.8 C 33 %
4020 10-06-2020 21:56:17 15.8 C 33 %
4021 10-06-2020 22:06:17 15.6 C 34 %
4022 10-06-2020 22:16:17 15.4 C 34 %
4023 10-06-2020 22:26:17 15.2 C 34 %
4024 10-06-2020 22:36:17 15.1 C 35 %
4025 10-06-2020 22:46:18 15.2 C 35 %
Sensor: Nr:Datum:Temp:Feuchte:
Aussen-T/F 4026 10-06-2020 22:56:18 15 C 36 %
4027 10-06-2020 23:06:17 15 C 36 %
4028 10-06-2020 23:16:18 14.9 C 37 %
4029 10-06-2020 23:26:18 15 C 35 %
4030 10-06-2020 23:36:18 15.5 C 35 %
4031 10-06-2020 23:46:18 15.7 C 35 %
4032 10-06-2020 23:56:18 15.6 C 35 %
4033 11-06-2020 00:06:18 15.2 C 35 %
4034 11-06-2020 00:16:17 14.6 C 37 %
4035 11-06-2020 00:26:17 14.3 C 38 %
4036 11-06-2020 00:36:17 14 C 39 %
4037 11-06-2020 00:46:18 13.9 C 41 %
4038 11-06-2020 00:56:18 13.9 C 41 %
4039 11-06-2020 01:06:17 13.8 C 41 %
4040 11-06-2020 01:16:17 13.7 C 41 %
4041 11-06-2020 01:26:17 13.6 C 41 %
4042 11-06-2020 01:36:17 13.6 C 41 %
4043 11-06-2020 01:46:18 13.7 C 42 %
4044 11-06-2020 01:56:18 13.6 C 42 %
4045 11-06-2020 02:06:18 13.6 C 42 %
4046 11-06-2020 02:16:18 13.6 C 42 %
4047 11-06-2020 02:26:18 13.4 C 42 %
4048 11-06-2020 02:36:17 13.4 C 43 %
4049 11-06-2020 02:46:17 13.3 C 43 %
4050 11-06-2020 02:56:17 13.2 C 43 %
Sensor: Nr:Datum:Temp:Feuchte:
Aussen-T/F 4051 11-06-2020 03:06:17 13.1 C 43 %
4052 11-06-2020 03:16:17 13 C 43 %
4053 11-06-2020 03:26:17 12.9 C 44 %
4054 11-06-2020 03:36:17 12.8 C 44 %
4055 11-06-2020 03:46:17 12.8 C 44 %
4056 11-06-2020 03:56:17 12.6 C 44 %
4057 11-06-2020 04:06:18 12.6 C 44 %
4058 11-06-2020 04:16:17 12.5 C 44 %
4059 11-06-2020 04:26:17 12.5 C 44 %
4060 11-06-2020 04:36:18 12.4 C 44 %
4061 11-06-2020 04:46:17 12.4 C 44 %
4062 11-06-2020 04:56:17 12.2 C 44 %
4063 11-06-2020 05:06:17 12.2 C 44 %
4064 11-06-2020 05:16:18 12.2 C 44 %
4065 11-06-2020 05:26:18 12.1 C 44 %
4066 11-06-2020 05:36:17 12.2 C 44 %
4067 11-06-2020 05:46:17 12.3 C 44 %
4068 11-06-2020 05:56:17 12.3 C 44 %
4069 11-06-2020 06:06:17 12.5 C 44 %
4070 11-06-2020 06:16:17 12.5 C 44 %
4071 11-06-2020 06:26:17 12.7 C 44 %
4072 11-06-2020 06:36:18 12.8 C 44 %
4073 11-06-2020 06:46:17 12.9 C 44 %
4074 11-06-2020 06:56:17 12.8 C 44 %
4075 11-06-2020 07:06:18 12.9 C 44 %
Sensor: Nr:Datum:Temp:Feuchte:
Aussen-T/F 4076 11-06-2020 07:16:17 13.2 C 43 %
4077 11-06-2020 07:26:17 13.5 C 43 %
4078 11-06-2020 07:36:17 13.3 C 41 %
4079 11-06-2020 07:46:17 13.5 C 42 %
4080 11-06-2020 07:56:17 13.9 C 42 %
4081 11-06-2020 08:06:17 14 C 40 %
4082 11-06-2020 08:16:17 14 C 40 %
4083 11-06-2020 08:26:17 13.8 C 41 %
4084 11-06-2020 08:36:17 13.9 C 41 %
4085 11-06-2020 08:46:18 14.1 C 40 %
4086 11-06-2020 08:56:18 14.3 C 39 %
4087 11-06-2020 09:06:17 14.7 C 39 %
4088 11-06-2020 09:16:18 14.7 C 39 %
4089 11-06-2020 09:26:18 14.9 C 39 %
4090 11-06-2020 09:36:17 14.7 C 39 %
4091 11-06-2020 09:46:17 15.2 C 38 %
4092 11-06-2020 09:56:17 15.4 C 37 %
4093 11-06-2020 10:06:17 15.6 C 37 %
4094 11-06-2020 10:16:17 15.7 C 37 %
4095 11-06-2020 10:26:17 16.1 C 36 %
4096 11-06-2020 10:36:17 16.4 C 36 %
4097 11-06-2020 10:46:17 16.7 C 36 %
4098 11-06-2020 10:56:17 17.7 C 35 %
4099 11-06-2020 11:06:17 18.7 C 33 %
4100 11-06-2020 11:16:17 18.6 C 32 %
Sensor: Nr:Datum:Temp:Feuchte:
Aussen-T/F 4101 11-06-2020 11:26:17 18.9 C 32 %
4102 11-06-2020 11:36:18 19.1 C 31 %
4103 11-06-2020 11:46:18 19.9 C 31 %
4104 11-06-2020 11:56:18 18.5 C 31 %
4105 11-06-2020 12:06:17 18.7 C 31 %
4106 11-06-2020 12:16:17 19.5 C 30 %
4107 11-06-2020 12:26:17 19.7 C 30 %
4108 11-06-2020 12:36:18 19.2 C 30 %
4109 11-06-2020 12:46:17 20 C 30 %
4110 11-06-2020 12:56:17 20.4 C 29 %
4111 11-06-2020 13:06:17 19.6 C 30 %
4112 11-06-2020 13:16:17 19.6 C 30 %
4113 11-06-2020 13:26:18 19.2 C 29 %
4114 11-06-2020 13:36:18 20.4 C 28 %
4115 11-06-2020 13:46:17 21.8 C 27 %
4116 11-06-2020 13:56:17 20.9 C 27 %
4117 11-06-2020 14:06:17 21.4 C 26 %
4118 11-06-2020 14:16:17 21.2 C 26 %
4119 11-06-2020 14:26:17 22.7 C 25 %
4120 11-06-2020 14:36:17 22.3 C 24 %
4121 11-06-2020 14:46:17 21.7 C 25 %
4122 11-06-2020 14:56:17 21 C 25 %
4123 11-06-2020 15:06:17 19.6 C 27 %
4124 11-06-2020 15:16:17 19 C 28 %
4125 11-06-2020 15:26:17 18.8 C 31 %
Sensor: Nr:Datum:Temp:Feuchte:
Aussen-T/F 4126 11-06-2020 15:36:17 17.2 C 36 %
4127 11-06-2020 15:46:18 17.6 C 34 %
4128 11-06-2020 15:56:18 19.1 C 30 %
4129 11-06-2020 16:06:17 20.2 C 28 %
4130 11-06-2020 16:16:18 20.8 C 27 %
4131 11-06-2020 16:26:18 21.1 C 25 %
4132 11-06-2020 16:36:17 21.4 C 25 %
4133 11-06-2020 16:46:18 21 C 25 %
4134 11-06-2020 16:56:18 20.6 C 26 %
4135 11-06-2020 17:06:18 20.1 C 26 %
4136 11-06-2020 17:16:17 19.7 C 27 %
4137 11-06-2020 17:26:17 19.4 C 27 %
4138 11-06-2020 17:36:18 19.8 C 27 %
4139 11-06-2020 17:46:18 19.3 C 28 %
4140 11-06-2020 17:56:18 18.7 C 31 %
4141 11-06-2020 18:06:17 18.3 C 32 %
4142 11-06-2020 18:16:17 17.9 C 33 %
4143 11-06-2020 18:26:17 17.6 C 34 %
4144 11-06-2020 18:36:17 17.5 C 34 %
4145 11-06-2020 18:46:17 17.5 C 34 %
4146 11-06-2020 18:56:17 17.7 C 33 %
4147 11-06-2020 19:06:17 17.8 C 32 %
4148 11-06-2020 19:16:17 17.9 C 32 %
4149 11-06-2020 19:26:17 17.8 C 32 %
4150 11-06-2020 19:36:18 17.6 C 34 %
Sensor: Nr:Datum:Temp:Feuchte:
Aussen-T/F 4151 11-06-2020 19:46:18 17.3 C 35 %
4152 11-06-2020 19:56:18 17.2 C 35 %
4153 11-06-2020 20:06:18 17.1 C 35 %
4154 11-06-2020 20:16:17 16.9 C 35 %
4155 11-06-2020 20:26:17 17 C 35 %
4156 11-06-2020 20:36:17 17 C 35 %
4157 11-06-2020 20:46:18 16.9 C 35 %
4158 11-06-2020 20:56:18 16.6 C 35 %
4159 11-06-2020 21:06:17 16.1 C 36 %
4160 11-06-2020 21:16:17 15.7 C 36 %
4161 11-06-2020 21:26:17 15.4 C 37 %
4162 11-06-2020 21:36:18 15.1 C 37 %
4163 11-06-2020 21:46:17 14.8 C 38 %
4164 11-06-2020 21:56:18 14.5 C 38 %
4165 11-06-2020 22:06:18 14.2 C 39 %
4166 11-06-2020 22:16:17 14.1 C 39 %
4167 11-06-2020 22:26:18 13.8 C 40 %
4168 11-06-2020 22:36:18 13.7 C 41 %
4169 11-06-2020 22:46:18 13.4 C 41 %
4170 11-06-2020 22:56:18 13.6 C 41 %
4171 11-06-2020 23:06:17 13.3 C 41 %
4172 11-06-2020 23:16:17 12.8 C 42 %
4173 11-06-2020 23:26:17 12.9 C 44 %
4174 11-06-2020 23:36:18 12.8 C 44 %
4175 11-06-2020 23:46:17 12.4 C 43 %
Sensor: Nr:Datum:Temp:Feuchte:
Aussen-T/F 4176 11-06-2020 23:56:17 12.1 C 44 %
4177 12-06-2020 00:06:17 12 C 44 %
4178 12-06-2020 00:16:17 11.7 C 45 %
4179 12-06-2020 00:26:17 11.8 C 45 %
4180 12-06-2020 00:36:17 12 C 44 %
4181 12-06-2020 00:46:17 11.7 C 45 %
4182 12-06-2020 00:56:17 11.3 C 45 %
4183 12-06-2020 01:06:17 11.3 C 45 %
4184 12-06-2020 01:16:17 11.1 C 45 %
4185 12-06-2020 01:26:17 11.1 C 44 %
4186 12-06-2020 01:36:17 11 C 44 %
4187 12-06-2020 01:46:17 10.9 C 45 %
4188 12-06-2020 01:56:17 10.8 C 45 %
4189 12-06-2020 02:06:17 10.7 C 45 %
4190 12-06-2020 02:16:18 10.7 C 45 %
4191 12-06-2020 02:26:18 10.5 C 45 %
4192 12-06-2020 02:36:18 10.5 C 45 %
4193 12-06-2020 02:46:17 10.4 C 45 %
4194 12-06-2020 02:56:17 10.2 C 45 %
4195 12-06-2020 03:06:18 10.1 C 45 %
4196 12-06-2020 03:16:17 10.1 C 44 %
4197 12-06-2020 03:26:17 9.9 C 45 %
4198 12-06-2020 03:36:17 9.9 C 45 %
4199 12-06-2020 03:46:17 9.8 C 45 %
4200 12-06-2020 03:56:17 9.7 C 45 %
Sensor: Nr:Datum:Temp:Feuchte:
Aussen-T/F 4201 12-06-2020 04:06:18 9.8 C 45 %
4202 12-06-2020 04:16:17 9.8 C 45 %
4203 12-06-2020 04:26:17 9.9 C 45 %
4204 12-06-2020 04:36:17 9.8 C 45 %
4205 12-06-2020 04:46:17 9.8 C 45 %
4206 12-06-2020 04:56:17 10 C 44 %
4207 12-06-2020 05:06:18 10.3 C 44 %
4208 12-06-2020 05:16:17 10.7 C 44 %
4209 12-06-2020 05:26:17 10.7 C 44 %
4210 12-06-2020 05:36:17 11.1 C 43 %
4211 12-06-2020 05:46:17 11.4 C 43 %
4212 12-06-2020 05:56:17 11.5 C 43 %
4213 12-06-2020 06:06:17 11.5 C 43 %
4214 12-06-2020 06:16:18 11.5 C 43 %
4215 12-06-2020 06:26:18 11.6 C 43 %
4216 12-06-2020 06:36:18 11.8 C 43 %
4217 12-06-2020 06:46:18 12 C 42 %
4218 12-06-2020 06:56:18 12.2 C 42 %
4219 12-06-2020 07:06:17 12.5 C 42 %
4220 12-06-2020 07:16:18 12.3 C 42 %
4221 12-06-2020 07:26:18 13.1 C 41 %
4222 12-06-2020 07:36:17 13.3 C 41 %
4223 12-06-2020 07:46:17 13.4 C 42 %
4224 12-06-2020 07:56:17 13.5 C 42 %
4225 12-06-2020 08:06:17 13.8 C 42 %
Sensor: Nr:Datum:Temp:Feuchte:
Aussen-T/F 4226 12-06-2020 08:16:17 14.2 C 40 %
4227 12-06-2020 08:26:17 14.8 C 41 %
4228 12-06-2020 08:36:18 15 C 39 %
4229 12-06-2020 08:46:18 16 C 38 %
4230 12-06-2020 08:56:18 16 C 36 %
4231 12-06-2020 09:06:17 16.8 C 35 %
4232 12-06-2020 09:16:17 17.5 C 35 %
4233 12-06-2020 09:26:18 17.6 C 34 %
4234 12-06-2020 09:36:18 18.3 C 33 %
4235 12-06-2020 09:46:18 18.2 C 33 %
4236 12-06-2020 09:56:18 18.2 C 33 %
4237 12-06-2020 10:06:18 18.3 C 33 %
4238 12-06-2020 10:16:18 18.6 C 33 %
4239 12-06-2020 10:26:18 18.6 C 33 %
4240 12-06-2020 10:36:18 19.3 C 32 %
4241 12-06-2020 10:46:17 19.7 C 32 %
4242 12-06-2020 10:56:17 20.4 C 31 %
4243 12-06-2020 11:06:17 20.9 C 31 %
4244 12-06-2020 11:16:17 20.8 C 31 %
4245 12-06-2020 11:26:17 22 C 29 %
4246 12-06-2020 11:36:18 22 C 28 %
4247 12-06-2020 11:46:17 22.7 C 28 %
4248 12-06-2020 11:56:18 23.9 C 26 %
4249 12-06-2020 12:06:17 23.5 C 26 %
4250 12-06-2020 12:16:17 24.3 C 25 %
Sensor: Nr:Datum:Temp:Feuchte:
Aussen-T/F 4251 12-06-2020 12:26:17 25.7 C 23 %
4252 12-06-2020 12:36:17 26.9 C 21 %
4253 12-06-2020 12:46:17 25.5 C 21 %
4254 12-06-2020 12:56:17 29.1 C 20 %
4255 12-06-2020 13:06:17 30.3 C 20 %
4256 12-06-2020 13:16:17 27.7 C 20 %
4257 12-06-2020 13:26:17 31 C 20 %
4258 12-06-2020 13:36:17 31.5 C 20 %
4259 12-06-2020 13:47:17 30.4 C 20 %
4260 12-06-2020 13:57:17 31.4 C 20 %
4261 12-06-2020 14:07:17 31.3 C 20 %
4262 12-06-2020 14:16:17 33 C 20 %
4263 12-06-2020 14:26:17 32.3 C 20 %
4264 12-06-2020 14:37:17 34.2 C 20 %
4265 12-06-2020 14:47:17 33.2 C 20 %
4266 12-06-2020 14:57:17 34.9 C 20 %
4267 12-06-2020 15:06:18 35.1 C 20 %
4268 12-06-2020 15:17:17 32.5 C 20 %
4269 12-06-2020 15:27:17 32.1 C 20 %
4270 12-06-2020 15:37:17 33.8 C 20 %
4271 12-06-2020 15:47:17 34.1 C 20 %
4272 12-06-2020 15:57:17 34 C 20 %
4273 12-06-2020 16:07:17 32.7 C 20 %
4274 12-06-2020 16:17:17 34.5 C 20 %
4275 12-06-2020 16:26:17 34 C 20 %
Sensor: Nr:Datum:Temp:Feuchte:
Aussen-T/F 4276 12-06-2020 16:37:17 34.5 C 20 %
4277 12-06-2020 16:46:18 32.5 C 20 %
4278 12-06-2020 16:56:18 33 C 20 %
4279 12-06-2020 17:06:17 32.8 C 20 %
4280 12-06-2020 17:16:17 34.4 C 20 %
4281 12-06-2020 17:26:17 32.7 C 20 %
4282 12-06-2020 17:36:17 32.6 C 20 %
4283 12-06-2020 17:46:18 33.6 C 20 %
4284 12-06-2020 17:56:18 33.8 C 20 %
4285 12-06-2020 18:06:18 31.8 C 20 %
4286 12-06-2020 18:17:17 32.1 C 20 %
4287 12-06-2020 18:27:17 29.7 C 20 %
4288 12-06-2020 18:36:18 30 C 20 %
4289 12-06-2020 18:47:17 30.2 C 20 %
4290 12-06-2020 18:57:17 28.9 C 20 %
4291 12-06-2020 19:07:17 28.4 C 20 %
4292 12-06-2020 19:16:17 28.3 C 20 %
4293 12-06-2020 19:26:17 28.9 C 20 %
4294 12-06-2020 19:36:17 28.1 C 20 %
4295 12-06-2020 19:47:17 27.7 C 20 %
4296 12-06-2020 19:57:17 27.5 C 20 %
4297 12-06-2020 20:06:18 27.5 C 20 %
4298 12-06-2020 20:16:18 27.4 C 20 %
4299 12-06-2020 20:26:18 25.6 C 20 %
4300 12-06-2020 20:36:18 24.8 C 21 %
Sensor: Nr:Datum:Temp:Feuchte:
Aussen-T/F 4301 12-06-2020 20:47:17 23.8 C 23 %
4302 12-06-2020 20:57:17 23.3 C 24 %
4303 12-06-2020 21:07:17 22.7 C 25 %
4304 12-06-2020 21:17:17 22.5 C 25 %
4305 12-06-2020 21:27:17 22.2 C 25 %
4306 12-06-2020 21:37:17 22 C 25 %
4307 12-06-2020 21:47:17 21.8 C 26 %
4308 12-06-2020 21:57:17 21.6 C 26 %
4309 12-06-2020 22:07:17 21.3 C 26 %
4310 12-06-2020 22:17:17 20.7 C 28 %
4311 12-06-2020 22:27:17 20.4 C 29 %
4312 12-06-2020 22:37:17 20.5 C 28 %
4313 12-06-2020 22:47:17 19.6 C 30 %
4314 12-06-2020 22:57:17 19.4 C 31 %
4315 12-06-2020 23:06:18 19.3 C 31 %
4316 12-06-2020 23:17:18 19 C 31 %
4317 12-06-2020 23:27:18 18.7 C 32 %
4318 12-06-2020 23:37:17 18.4 C 33 %
4319 12-06-2020 23:47:17 18.4 C 33 %
4320 12-06-2020 23:57:17 18 C 33 %
Sensor: Nr:Datum:Temp:Feuchte:

Legende:
   Min
   Max


Maximal/Minimal-Werte vom 14.05.2020 - 12.06.2020

Sensor Min Max Avg
Temp
(Aussen-T/F)
1.4 °C
15-05-2020  06:04:17
38.8 °C
02-06-2020  17:26:18
16.12 °C
Feuchte
(Aussen-T/F)
20 %
14-05-2020  12:54:18
46 %
15-05-2020  06:34:17
30.6 %
Temp
(G-T/H)
°C
-- 
°C 0 °C
Feuchte
(G-T/H)
%
-- 
% 0 %

Die Daten stammen von einer Davis Vantage Pro 2 Wetter-Station und werden unter Linux mit der Software wview2wettercgi und aufbereitet. Alle Angaben erfolgen ohne Gewähr für ihre Vollständigkeit oder Richtigkeit.
Kontakt: Rainer Krienke krienke@uni-koblenz.de . Meine Webseiten an der Uni Koblenz oder privat.
Version: $Revision: 0.78 $